<?xml version="1.0" encoding="UTF-8" standalone="no" ?>
<gpx xmlns="http://www.topografix.com/GPX/1/1" xmlns:xsi="http://www.w3.org/2001/XMLSchema-instance" xsi:schemaLocation="http://www.topografix.com/GPX/1/1 http://www.topografix.com/GPX/1/1/gpx.xsd" version="1.1" creator="VisuGPX - https://www.visugpx.com">
  <metadata>
    <name>Les Rouvières - Le lac d'Esparron - Ancien canal du Verdon</name>
    <desc><![CDATA[Du hameau des Rouvières au lac d'Esparron par les pistes.
On longe les vestiges de l'ancien canal du Verdon de 1870.
Une randonnée très variée et qui nous fait remonter le temps.]]></desc>
  </metadata>
  <trk>
    <name><![CDATA[Tracé actuel: 23 OCT 2022 09:26]]></name>
    <extensions>
      <line xmlns="http://www.topografix.com/GPX/gpx_style/0/2">
        <color>0000FF</color>
        <width>4</width>
      </line>
    </extensions>
    <trkseg>
      <trkpt lat="43.6996" lon="5.95259">
        <ele>543.4</ele>
        <time>2022-10-23T07:31:17Z</time>
      </trkpt>
      <trkpt lat="43.69952" lon="5.95264">
        <ele>543.7</ele>
        <time>2022-10-23T07:32:56Z</time>
      </trkpt>
      <trkpt lat="43.69965" lon="5.95257">
        <ele>543.3</ele>
        <time>2022-10-23T07:38:54Z</time>
      </trkpt>
      <trkpt lat="43.69975" lon="5.95248">
        <ele>543</ele>
        <time>2022-10-23T07:39:04Z</time>
      </trkpt>
      <trkpt lat="43.69982" lon="5.95248">
        <ele>543</ele>
        <time>2022-10-23T07:39:13Z</time>
      </trkpt>
      <trkpt lat="43.69993" lon="5.95245">
        <ele>543.1</ele>
        <time>2022-10-23T07:39:30Z</time>
      </trkpt>
      <trkpt lat="43.70001" lon="5.95241">
        <ele>543.2</ele>
        <time>2022-10-23T07:39:40Z</time>
      </trkpt>
      <trkpt lat="43.70009" lon="5.95233">
        <ele>542.7</ele>
        <time>2022-10-23T07:39:50Z</time>
      </trkpt>
      <trkpt lat="43.70018" lon="5.95224">
        <ele>542</ele>
        <time>2022-10-23T07:39:59Z</time>
      </trkpt>
      <trkpt lat="43.70025" lon="5.95215">
        <ele>541.5</ele>
        <time>2022-10-23T07:40:07Z</time>
      </trkpt>
      <trkpt lat="43.70035" lon="5.95207">
        <ele>541</ele>
        <time>2022-10-23T07:40:16Z</time>
      </trkpt>
      <trkpt lat="43.70043" lon="5.95196">
        <ele>540.8</ele>
        <time>2022-10-23T07:40:25Z</time>
      </trkpt>
      <trkpt lat="43.70051" lon="5.95184">
        <ele>540.4</ele>
        <time>2022-10-23T07:40:35Z</time>
      </trkpt>
      <trkpt lat="43.7006" lon="5.95177">
        <ele>539.7</ele>
        <time>2022-10-23T07:40:44Z</time>
      </trkpt>
      <trkpt lat="43.70068" lon="5.9517">
        <ele>539.2</ele>
        <time>2022-10-23T07:40:52Z</time>
      </trkpt>
      <trkpt lat="43.70078" lon="5.95168">
        <ele>538.4</ele>
        <time>2022-10-23T07:41:01Z</time>
      </trkpt>
      <trkpt lat="43.70087" lon="5.95166">
        <ele>537.9</ele>
        <time>2022-10-23T07:41:10Z</time>
      </trkpt>
      <trkpt lat="43.70097" lon="5.95167">
        <ele>538</ele>
        <time>2022-10-23T07:41:19Z</time>
      </trkpt>
      <trkpt lat="43.70108" lon="5.9517">
        <ele>538</ele>
        <time>2022-10-23T07:41:27Z</time>
      </trkpt>
      <trkpt lat="43.70118" lon="5.95176">
        <ele>537.1</ele>
        <time>2022-10-23T07:41:35Z</time>
      </trkpt>
      <trkpt lat="43.7013" lon="5.95177">
        <ele>535.8</ele>
        <time>2022-10-23T07:41:43Z</time>
      </trkpt>
      <trkpt lat="43.70137" lon="5.95169">
        <ele>535.1</ele>
        <time>2022-10-23T07:41:50Z</time>
      </trkpt>
      <trkpt lat="43.70142" lon="5.95156">
        <ele>534.6</ele>
        <time>2022-10-23T07:41:58Z</time>
      </trkpt>
      <trkpt lat="43.70144" lon="5.95144">
        <ele>534.2</ele>
        <time>2022-10-23T07:42:05Z</time>
      </trkpt>
      <trkpt lat="43.7015" lon="5.95131">
        <ele>533.4</ele>
        <time>2022-10-23T07:42:14Z</time>
      </trkpt>
      <trkpt lat="43.70156" lon="5.95118">
        <ele>532.7</ele>
        <time>2022-10-23T07:42:23Z</time>
      </trkpt>
      <trkpt lat="43.70162" lon="5.95106">
        <ele>532.4</ele>
        <time>2022-10-23T07:42:32Z</time>
      </trkpt>
      <trkpt lat="43.70169" lon="5.95093">
        <ele>532.3</ele>
        <time>2022-10-23T07:42:41Z</time>
      </trkpt>
      <trkpt lat="43.70173" lon="5.95081">
        <ele>532.1</ele>
        <time>2022-10-23T07:42:50Z</time>
      </trkpt>
      <trkpt lat="43.70178" lon="5.95068">
        <ele>531.8</ele>
        <time>2022-10-23T07:42:59Z</time>
      </trkpt>
      <trkpt lat="43.70184" lon="5.95055">
        <ele>531.8</ele>
        <time>2022-10-23T07:43:09Z</time>
      </trkpt>
      <trkpt lat="43.70189" lon="5.95043">
        <ele>531.7</ele>
        <time>2022-10-23T07:43:17Z</time>
      </trkpt>
      <trkpt lat="43.70196" lon="5.95035">
        <ele>531.5</ele>
        <time>2022-10-23T07:43:25Z</time>
      </trkpt>
      <trkpt lat="43.70202" lon="5.95023">
        <ele>531.2</ele>
        <time>2022-10-23T07:43:33Z</time>
      </trkpt>
      <trkpt lat="43.70207" lon="5.95011">
        <ele>530.9</ele>
        <time>2022-10-23T07:43:41Z</time>
      </trkpt>
      <trkpt lat="43.70215" lon="5.95002">
        <ele>530.5</ele>
        <time>2022-10-23T07:43:49Z</time>
      </trkpt>
      <trkpt lat="43.7022" lon="5.94989">
        <ele>530.5</ele>
        <time>2022-10-23T07:43:57Z</time>
      </trkpt>
      <trkpt lat="43.70227" lon="5.94979">
        <ele>530.2</ele>
        <time>2022-10-23T07:44:05Z</time>
      </trkpt>
      <trkpt lat="43.70235" lon="5.9497">
        <ele>529.7</ele>
        <time>2022-10-23T07:44:14Z</time>
      </trkpt>
      <trkpt lat="43.70244" lon="5.94961">
        <ele>529.3</ele>
        <time>2022-10-23T07:44:22Z</time>
      </trkpt>
      <trkpt lat="43.70251" lon="5.9495">
        <ele>529.5</ele>
        <time>2022-10-23T07:44:29Z</time>
      </trkpt>
      <trkpt lat="43.70254" lon="5.94933">
        <ele>529.5</ele>
        <time>2022-10-23T07:44:37Z</time>
      </trkpt>
      <trkpt lat="43.70259" lon="5.94921">
        <ele>529</ele>
        <time>2022-10-23T07:44:45Z</time>
      </trkpt>
      <trkpt lat="43.70261" lon="5.94911">
        <ele>528.9</ele>
        <time>2022-10-23T07:44:59Z</time>
      </trkpt>
      <trkpt lat="43.70256" lon="5.94923">
        <ele>529.4</ele>
        <time>2022-10-23T07:45:07Z</time>
      </trkpt>
      <trkpt lat="43.70252" lon="5.94936">
        <ele>529.8</ele>
        <time>2022-10-23T07:45:13Z</time>
      </trkpt>
      <trkpt lat="43.70257" lon="5.94949">
        <ele>529</ele>
        <time>2022-10-23T07:45:26Z</time>
      </trkpt>
      <trkpt lat="43.70264" lon="5.94957">
        <ele>527.8</ele>
        <time>2022-10-23T07:45:33Z</time>
      </trkpt>
      <trkpt lat="43.70275" lon="5.94957">
        <ele>526.8</ele>
        <time>2022-10-23T07:45:40Z</time>
      </trkpt>
      <trkpt lat="43.70287" lon="5.9496">
        <ele>525.8</ele>
        <time>2022-10-23T07:45:52Z</time>
      </trkpt>
      <trkpt lat="43.70296" lon="5.94964">
        <ele>525</ele>
        <time>2022-10-23T07:45:58Z</time>
      </trkpt>
      <trkpt lat="43.70307" lon="5.94971">
        <ele>523.9</ele>
        <time>2022-10-23T07:46:05Z</time>
      </trkpt>
      <trkpt lat="43.70314" lon="5.94979">
        <ele>523.4</ele>
        <time>2022-10-23T07:46:11Z</time>
      </trkpt>
      <trkpt lat="43.7032" lon="5.94987">
        <ele>522.9</ele>
        <time>2022-10-23T07:46:17Z</time>
      </trkpt>
      <trkpt lat="43.70329" lon="5.94994">
        <ele>522.3</ele>
        <time>2022-10-23T07:46:23Z</time>
      </trkpt>
      <trkpt lat="43.70336" lon="5.95002">
        <ele>521.8</ele>
        <time>2022-10-23T07:46:29Z</time>
      </trkpt>
      <trkpt lat="43.70343" lon="5.9501">
        <ele>521.3</ele>
        <time>2022-10-23T07:46:35Z</time>
      </trkpt>
      <trkpt lat="43.70352" lon="5.95018">
        <ele>520.7</ele>
        <time>2022-10-23T07:46:42Z</time>
      </trkpt>
      <trkpt lat="43.7036" lon="5.95027">
        <ele>520</ele>
        <time>2022-10-23T07:46:49Z</time>
      </trkpt>
      <trkpt lat="43.70369" lon="5.95037">
        <ele>519.4</ele>
        <time>2022-10-23T07:46:56Z</time>
      </trkpt>
      <trkpt lat="43.70377" lon="5.95047">
        <ele>518.7</ele>
        <time>2022-10-23T07:47:03Z</time>
      </trkpt>
      <trkpt lat="43.70383" lon="5.95056">
        <ele>518.2</ele>
        <time>2022-10-23T07:47:09Z</time>
      </trkpt>
      <trkpt lat="43.7039" lon="5.95066">
        <ele>517.6</ele>
        <time>2022-10-23T07:47:16Z</time>
      </trkpt>
      <trkpt lat="43.70397" lon="5.95075">
        <ele>517</ele>
        <time>2022-10-23T07:47:23Z</time>
      </trkpt>
      <trkpt lat="43.70405" lon="5.95084">
        <ele>516.4</ele>
        <time>2022-10-23T07:47:30Z</time>
      </trkpt>
      <trkpt lat="43.70413" lon="5.95092">
        <ele>516.1</ele>
        <time>2022-10-23T07:47:37Z</time>
      </trkpt>
      <trkpt lat="43.70421" lon="5.95102">
        <ele>515.8</ele>
        <time>2022-10-23T07:47:44Z</time>
      </trkpt>
      <trkpt lat="43.70429" lon="5.95111">
        <ele>515.6</ele>
        <time>2022-10-23T07:47:50Z</time>
      </trkpt>
      <trkpt lat="43.70438" lon="5.9512">
        <ele>514.9</ele>
        <time>2022-10-23T07:47:57Z</time>
      </trkpt>
      <trkpt lat="43.70448" lon="5.95125">
        <ele>514.3</ele>
        <time>2022-10-23T07:48:04Z</time>
      </trkpt>
      <trkpt lat="43.70459" lon="5.95119">
        <ele>513.8</ele>
        <time>2022-10-23T07:48:10Z</time>
      </trkpt>
      <trkpt lat="43.70463" lon="5.95106">
        <ele>513.8</ele>
        <time>2022-10-23T07:48:16Z</time>
      </trkpt>
      <trkpt lat="43.70466" lon="5.95094">
        <ele>513.9</ele>
        <time>2022-10-23T07:48:22Z</time>
      </trkpt>
      <trkpt lat="43.70469" lon="5.95083">
        <ele>514.1</ele>
        <time>2022-10-23T07:48:28Z</time>
      </trkpt>
      <trkpt lat="43.70473" lon="5.95072">
        <ele>513.9</ele>
        <time>2022-10-23T07:48:35Z</time>
      </trkpt>
      <trkpt lat="43.70478" lon="5.95058">
        <ele>513.8</ele>
        <time>2022-10-23T07:48:44Z</time>
      </trkpt>
      <trkpt lat="43.70482" lon="5.95043">
        <ele>514.1</ele>
        <time>2022-10-23T07:48:51Z</time>
      </trkpt>
      <trkpt lat="43.70487" lon="5.9503">
        <ele>514.4</ele>
        <time>2022-10-23T07:48:58Z</time>
      </trkpt>
      <trkpt lat="43.70492" lon="5.95016">
        <ele>514.3</ele>
        <time>2022-10-23T07:49:05Z</time>
      </trkpt>
      <trkpt lat="43.70496" lon="5.95002">
        <ele>514.1</ele>
        <time>2022-10-23T07:49:12Z</time>
      </trkpt>
      <trkpt lat="43.70501" lon="5.94991">
        <ele>514.7</ele>
        <time>2022-10-23T07:49:19Z</time>
      </trkpt>
      <trkpt lat="43.70506" lon="5.94978">
        <ele>515.4</ele>
        <time>2022-10-23T07:49:27Z</time>
      </trkpt>
      <trkpt lat="43.70511" lon="5.94966">
        <ele>515.6</ele>
        <time>2022-10-23T07:49:36Z</time>
      </trkpt>
      <trkpt lat="43.70513" lon="5.94951">
        <ele>515.5</ele>
        <time>2022-10-23T07:49:45Z</time>
      </trkpt>
      <trkpt lat="43.70518" lon="5.94939">
        <ele>515.4</ele>
        <time>2022-10-23T07:49:53Z</time>
      </trkpt>
      <trkpt lat="43.70521" lon="5.94926">
        <ele>515.3</ele>
        <time>2022-10-23T07:50:00Z</time>
      </trkpt>
      <trkpt lat="43.70524" lon="5.94913">
        <ele>515.1</ele>
        <time>2022-10-23T07:50:08Z</time>
      </trkpt>
      <trkpt lat="43.70527" lon="5.94901">
        <ele>515</ele>
        <time>2022-10-23T07:50:16Z</time>
      </trkpt>
      <trkpt lat="43.70532" lon="5.94887">
        <ele>514.9</ele>
        <time>2022-10-23T07:50:24Z</time>
      </trkpt>
      <trkpt lat="43.70535" lon="5.94873">
        <ele>514.8</ele>
        <time>2022-10-23T07:50:32Z</time>
      </trkpt>
      <trkpt lat="43.70537" lon="5.94861">
        <ele>514.7</ele>
        <time>2022-10-23T07:50:39Z</time>
      </trkpt>
      <trkpt lat="43.70541" lon="5.94849">
        <ele>515</ele>
        <time>2022-10-23T07:50:47Z</time>
      </trkpt>
      <trkpt lat="43.70545" lon="5.94835">
        <ele>515.3</ele>
        <time>2022-10-23T07:50:55Z</time>
      </trkpt>
      <trkpt lat="43.70551" lon="5.94825">
        <ele>515.4</ele>
        <time>2022-10-23T07:51:02Z</time>
      </trkpt>
      <trkpt lat="43.70557" lon="5.94814">
        <ele>515.6</ele>
        <time>2022-10-23T07:51:10Z</time>
      </trkpt>
      <trkpt lat="43.70563" lon="5.94803">
        <ele>515.8</ele>
        <time>2022-10-23T07:51:19Z</time>
      </trkpt>
      <trkpt lat="43.70569" lon="5.94791">
        <ele>516.1</ele>
        <time>2022-10-23T07:51:27Z</time>
      </trkpt>
      <trkpt lat="43.70575" lon="5.94778">
        <ele>516.3</ele>
        <time>2022-10-23T07:51:36Z</time>
      </trkpt>
      <trkpt lat="43.70582" lon="5.94767">
        <ele>516.4</ele>
        <time>2022-10-23T07:51:45Z</time>
      </trkpt>
      <trkpt lat="43.70589" lon="5.94753">
        <ele>516.7</ele>
        <time>2022-10-23T07:51:54Z</time>
      </trkpt>
      <trkpt lat="43.70595" lon="5.94738">
        <ele>516.6</ele>
        <time>2022-10-23T07:52:02Z</time>
      </trkpt>
      <trkpt lat="43.70601" lon="5.94725">
        <ele>516.4</ele>
        <time>2022-10-23T07:52:10Z</time>
      </trkpt>
      <trkpt lat="43.70607" lon="5.94723">
        <ele>516.1</ele>
        <time>2022-10-23T07:52:49Z</time>
      </trkpt>
      <trkpt lat="43.70616" lon="5.94727">
        <ele>515.8</ele>
        <time>2022-10-23T07:54:29Z</time>
      </trkpt>
      <trkpt lat="43.70625" lon="5.94733">
        <ele>515.5</ele>
        <time>2022-10-23T07:54:37Z</time>
      </trkpt>
      <trkpt lat="43.70632" lon="5.94741">
        <ele>515.2</ele>
        <time>2022-10-23T07:54:45Z</time>
      </trkpt>
      <trkpt lat="43.70642" lon="5.94748">
        <ele>514.9</ele>
        <time>2022-10-23T07:54:54Z</time>
      </trkpt>
      <trkpt lat="43.70651" lon="5.94754">
        <ele>514.6</ele>
        <time>2022-10-23T07:55:01Z</time>
      </trkpt>
      <trkpt lat="43.7066" lon="5.94759">
        <ele>514.5</ele>
        <time>2022-10-23T07:55:08Z</time>
      </trkpt>
      <trkpt lat="43.70667" lon="5.94766">
        <ele>514.6</ele>
        <time>2022-10-23T07:55:16Z</time>
      </trkpt>
      <trkpt lat="43.70678" lon="5.94773">
        <ele>514.9</ele>
        <time>2022-10-23T07:55:26Z</time>
      </trkpt>
      <trkpt lat="43.70692" lon="5.94783">
        <ele>515</ele>
        <time>2022-10-23T07:55:36Z</time>
      </trkpt>
      <trkpt lat="43.70705" lon="5.94791">
        <ele>515.4</ele>
        <time>2022-10-23T07:55:47Z</time>
      </trkpt>
      <trkpt lat="43.70715" lon="5.94799">
        <ele>515.7</ele>
        <time>2022-10-23T07:55:56Z</time>
      </trkpt>
      <trkpt lat="43.70727" lon="5.94809">
        <ele>515.9</ele>
        <time>2022-10-23T07:56:05Z</time>
      </trkpt>
      <trkpt lat="43.70737" lon="5.94815">
        <ele>515.7</ele>
        <time>2022-10-23T07:56:14Z</time>
      </trkpt>
      <trkpt lat="43.70748" lon="5.94822">
        <ele>515.4</ele>
        <time>2022-10-23T07:56:23Z</time>
      </trkpt>
      <trkpt lat="43.70761" lon="5.94829">
        <ele>515.6</ele>
        <time>2022-10-23T07:56:32Z</time>
      </trkpt>
      <trkpt lat="43.7077" lon="5.94834">
        <ele>515.7</ele>
        <time>2022-10-23T07:56:40Z</time>
      </trkpt>
      <trkpt lat="43.70778" lon="5.94841">
        <ele>515.7</ele>
        <time>2022-10-23T07:56:48Z</time>
      </trkpt>
      <trkpt lat="43.70787" lon="5.94848">
        <ele>516</ele>
        <time>2022-10-23T07:56:56Z</time>
      </trkpt>
      <trkpt lat="43.70796" lon="5.94857">
        <ele>515.9</ele>
        <time>2022-10-23T07:57:04Z</time>
      </trkpt>
      <trkpt lat="43.70806" lon="5.94865">
        <ele>515.9</ele>
        <time>2022-10-23T07:57:12Z</time>
      </trkpt>
      <trkpt lat="43.70815" lon="5.94871">
        <ele>515.6</ele>
        <time>2022-10-23T07:57:20Z</time>
      </trkpt>
      <trkpt lat="43.70824" lon="5.9488">
        <ele>515.3</ele>
        <time>2022-10-23T07:57:28Z</time>
      </trkpt>
      <trkpt lat="43.70833" lon="5.94888">
        <ele>515</ele>
        <time>2022-10-23T07:57:37Z</time>
      </trkpt>
      <trkpt lat="43.70845" lon="5.94894">
        <ele>515.4</ele>
        <time>2022-10-23T07:57:46Z</time>
      </trkpt>
      <trkpt lat="43.70854" lon="5.94901">
        <ele>515.7</ele>
        <time>2022-10-23T07:57:59Z</time>
      </trkpt>
      <trkpt lat="43.70863" lon="5.94911">
        <ele>516.1</ele>
        <time>2022-10-23T07:58:08Z</time>
      </trkpt>
      <trkpt lat="43.70871" lon="5.94917">
        <ele>516.4</ele>
        <time>2022-10-23T07:58:16Z</time>
      </trkpt>
      <trkpt lat="43.7088" lon="5.94923">
        <ele>516.6</ele>
        <time>2022-10-23T07:58:25Z</time>
      </trkpt>
      <trkpt lat="43.7089" lon="5.94931">
        <ele>517.1</ele>
        <time>2022-10-23T07:58:34Z</time>
      </trkpt>
      <trkpt lat="43.70899" lon="5.94939">
        <ele>517.9</ele>
        <time>2022-10-23T07:58:43Z</time>
      </trkpt>
      <trkpt lat="43.70907" lon="5.94946">
        <ele>518.3</ele>
        <time>2022-10-23T07:58:51Z</time>
      </trkpt>
      <trkpt lat="43.70916" lon="5.9495">
        <ele>518.8</ele>
        <time>2022-10-23T07:59:01Z</time>
      </trkpt>
      <trkpt lat="43.70926" lon="5.94947">
        <ele>518.6</ele>
        <time>2022-10-23T07:59:11Z</time>
      </trkpt>
      <trkpt lat="43.70934" lon="5.94939">
        <ele>518.8</ele>
        <time>2022-10-23T07:59:19Z</time>
      </trkpt>
      <trkpt lat="43.7094" lon="5.94929">
        <ele>519.3</ele>
        <time>2022-10-23T07:59:27Z</time>
      </trkpt>
      <trkpt lat="43.70937" lon="5.94918">
        <ele>520.2</ele>
        <time>2022-10-23T07:59:42Z</time>
      </trkpt>
      <trkpt lat="43.70934" lon="5.94915">
        <ele>520.5</ele>
        <time>2022-10-23T07:59:51.340Z</time>
      </trkpt>
      <trkpt lat="43.70935" lon="5.94901">
        <ele>521.4</ele>
        <time>2022-10-23T08:00:17Z</time>
      </trkpt>
      <trkpt lat="43.70943" lon="5.9489">
        <ele>522.8</ele>
        <time>2022-10-23T08:00:28Z</time>
      </trkpt>
      <trkpt lat="43.70951" lon="5.9488">
        <ele>522.6</ele>
        <time>2022-10-23T08:00:38Z</time>
      </trkpt>
      <trkpt lat="43.70958" lon="5.94872">
        <ele>522.5</ele>
        <time>2022-10-23T08:00:46Z</time>
      </trkpt>
      <trkpt lat="43.70966" lon="5.94862">
        <ele>522.8</ele>
        <time>2022-10-23T08:00:56Z</time>
      </trkpt>
      <trkpt lat="43.70972" lon="5.94849">
        <ele>523.4</ele>
        <time>2022-10-23T08:01:06Z</time>
      </trkpt>
      <trkpt lat="43.70982" lon="5.94839">
        <ele>523.7</ele>
        <time>2022-10-23T08:01:16Z</time>
      </trkpt>
      <trkpt lat="43.70985" lon="5.94825">
        <ele>524.4</ele>
        <time>2022-10-23T08:01:25Z</time>
      </trkpt>
      <trkpt lat="43.70993" lon="5.94812">
        <ele>525.4</ele>
        <time>2022-10-23T08:01:34Z</time>
      </trkpt>
      <trkpt lat="43.70999" lon="5.948">
        <ele>526.4</ele>
        <time>2022-10-23T08:01:44Z</time>
      </trkpt>
      <trkpt lat="43.71007" lon="5.94787">
        <ele>527.1</ele>
        <time>2022-10-23T08:01:55Z</time>
      </trkpt>
      <trkpt lat="43.71016" lon="5.94773">
        <ele>527.7</ele>
        <time>2022-10-23T08:02:05Z</time>
      </trkpt>
      <trkpt lat="43.71023" lon="5.94764">
        <ele>528.1</ele>
        <time>2022-10-23T08:02:15Z</time>
      </trkpt>
      <trkpt lat="43.7103" lon="5.94751">
        <ele>528.8</ele>
        <time>2022-10-23T08:02:25Z</time>
      </trkpt>
      <trkpt lat="43.71036" lon="5.9474">
        <ele>529.5</ele>
        <time>2022-10-23T08:02:34Z</time>
      </trkpt>
      <trkpt lat="43.71044" lon="5.94728">
        <ele>530.5</ele>
        <time>2022-10-23T08:02:45Z</time>
      </trkpt>
      <trkpt lat="43.71052" lon="5.94717">
        <ele>531.4</ele>
        <time>2022-10-23T08:02:55Z</time>
      </trkpt>
      <trkpt lat="43.71057" lon="5.947">
        <ele>532.5</ele>
        <time>2022-10-23T08:03:05Z</time>
      </trkpt>
      <trkpt lat="43.71064" lon="5.94691">
        <ele>532.8</ele>
        <time>2022-10-23T08:03:14Z</time>
      </trkpt>
      <trkpt lat="43.71072" lon="5.94683">
        <ele>533.1</ele>
        <time>2022-10-23T08:03:22Z</time>
      </trkpt>
      <trkpt lat="43.71079" lon="5.94673">
        <ele>533.6</ele>
        <time>2022-10-23T08:03:30Z</time>
      </trkpt>
      <trkpt lat="43.71087" lon="5.94663">
        <ele>534.3</ele>
        <time>2022-10-23T08:03:38Z</time>
      </trkpt>
      <trkpt lat="43.71095" lon="5.94657">
        <ele>534.6</ele>
        <time>2022-10-23T08:03:46Z</time>
      </trkpt>
      <trkpt lat="43.71103" lon="5.94651">
        <ele>535</ele>
        <time>2022-10-23T08:03:54Z</time>
      </trkpt>
      <trkpt lat="43.71112" lon="5.94642">
        <ele>535.6</ele>
        <time>2022-10-23T08:04:03Z</time>
      </trkpt>
      <trkpt lat="43.7112" lon="5.94634">
        <ele>536.5</ele>
        <time>2022-10-23T08:04:12Z</time>
      </trkpt>
      <trkpt lat="43.71128" lon="5.94628">
        <ele>537.1</ele>
        <time>2022-10-23T08:04:21Z</time>
      </trkpt>
      <trkpt lat="43.71137" lon="5.94623">
        <ele>537.7</ele>
        <time>2022-10-23T08:04:31Z</time>
      </trkpt>
      <trkpt lat="43.71147" lon="5.94619">
        <ele>538.6</ele>
        <time>2022-10-23T08:04:41Z</time>
      </trkpt>
      <trkpt lat="43.71158" lon="5.9462">
        <ele>539.1</ele>
        <time>2022-10-23T08:04:51Z</time>
      </trkpt>
      <trkpt lat="43.71168" lon="5.94621">
        <ele>539.7</ele>
        <time>2022-10-23T08:05:02Z</time>
      </trkpt>
      <trkpt lat="43.71181" lon="5.94621">
        <ele>540.9</ele>
        <time>2022-10-23T08:05:12Z</time>
      </trkpt>
      <trkpt lat="43.71191" lon="5.94621">
        <ele>542</ele>
        <time>2022-10-23T08:05:22Z</time>
      </trkpt>
      <trkpt lat="43.71202" lon="5.94625">
        <ele>542.4</ele>
        <time>2022-10-23T08:05:33Z</time>
      </trkpt>
      <trkpt lat="43.71218" lon="5.94629">
        <ele>543.1</ele>
        <time>2022-10-23T08:05:44Z</time>
      </trkpt>
      <trkpt lat="43.71228" lon="5.94631">
        <ele>543.5</ele>
        <time>2022-10-23T08:05:56Z</time>
      </trkpt>
      <trkpt lat="43.7124" lon="5.94635">
        <ele>544.1</ele>
        <time>2022-10-23T08:06:07Z</time>
      </trkpt>
      <trkpt lat="43.71253" lon="5.94643">
        <ele>545</ele>
        <time>2022-10-23T08:06:18Z</time>
      </trkpt>
      <trkpt lat="43.71265" lon="5.94649">
        <ele>545.2</ele>
        <time>2022-10-23T08:06:30Z</time>
      </trkpt>
      <trkpt lat="43.71277" lon="5.94653">
        <ele>545.5</ele>
        <time>2022-10-23T08:06:41Z</time>
      </trkpt>
      <trkpt lat="43.71289" lon="5.94657">
        <ele>546.1</ele>
        <time>2022-10-23T08:06:53Z</time>
      </trkpt>
      <trkpt lat="43.71314" lon="5.94652">
        <ele>547.3</ele>
        <time>2022-10-23T08:13:05Z</time>
      </trkpt>
      <trkpt lat="43.71324" lon="5.94644">
        <ele>548</ele>
        <time>2022-10-23T08:13:17Z</time>
      </trkpt>
      <trkpt lat="43.71334" lon="5.94637">
        <ele>549</ele>
        <time>2022-10-23T08:13:28Z</time>
      </trkpt>
      <trkpt lat="43.71344" lon="5.94628">
        <ele>549.7</ele>
        <time>2022-10-23T08:13:39Z</time>
      </trkpt>
      <trkpt lat="43.71354" lon="5.94618">
        <ele>550.9</ele>
        <time>2022-10-23T08:13:49Z</time>
      </trkpt>
      <trkpt lat="43.71362" lon="5.94611">
        <ele>552.1</ele>
        <time>2022-10-23T08:14:01Z</time>
      </trkpt>
      <trkpt lat="43.71371" lon="5.94605">
        <ele>552.8</ele>
        <time>2022-10-23T08:14:11Z</time>
      </trkpt>
      <trkpt lat="43.71384" lon="5.94599">
        <ele>554.1</ele>
        <time>2022-10-23T08:14:21Z</time>
      </trkpt>
      <trkpt lat="43.71393" lon="5.94589">
        <ele>554.9</ele>
        <time>2022-10-23T08:14:33Z</time>
      </trkpt>
      <trkpt lat="43.71401" lon="5.9458">
        <ele>555.5</ele>
        <time>2022-10-23T08:14:43Z</time>
      </trkpt>
      <trkpt lat="43.71411" lon="5.94573">
        <ele>556.1</ele>
        <time>2022-10-23T08:14:53Z</time>
      </trkpt>
      <trkpt lat="43.71421" lon="5.94563">
        <ele>556.4</ele>
        <time>2022-10-23T08:15:04Z</time>
      </trkpt>
      <trkpt lat="43.7143" lon="5.94555">
        <ele>556</ele>
        <time>2022-10-23T08:15:14Z</time>
      </trkpt>
      <trkpt lat="43.71439" lon="5.94548">
        <ele>555.4</ele>
        <time>2022-10-23T08:15:23Z</time>
      </trkpt>
      <trkpt lat="43.71447" lon="5.94537">
        <ele>554.9</ele>
        <time>2022-10-23T08:15:32Z</time>
      </trkpt>
      <trkpt lat="43.71454" lon="5.94527">
        <ele>555</ele>
        <time>2022-10-23T08:15:40Z</time>
      </trkpt>
      <trkpt lat="43.7146" lon="5.94517">
        <ele>554.4</ele>
        <time>2022-10-23T08:15:48Z</time>
      </trkpt>
      <trkpt lat="43.71467" lon="5.94508">
        <ele>554.1</ele>
        <time>2022-10-23T08:15:56Z</time>
      </trkpt>
      <trkpt lat="43.71475" lon="5.94502">
        <ele>554.1</ele>
        <time>2022-10-23T08:16:04Z</time>
      </trkpt>
      <trkpt lat="43.71484" lon="5.94496">
        <ele>554.6</ele>
        <time>2022-10-23T08:16:13Z</time>
      </trkpt>
      <trkpt lat="43.71494" lon="5.94492">
        <ele>555.2</ele>
        <time>2022-10-23T08:16:23Z</time>
      </trkpt>
      <trkpt lat="43.71503" lon="5.94489">
        <ele>555.8</ele>
        <time>2022-10-23T08:16:32Z</time>
      </trkpt>
      <trkpt lat="43.71513" lon="5.94485">
        <ele>556.3</ele>
        <time>2022-10-23T08:16:40Z</time>
      </trkpt>
      <trkpt lat="43.71522" lon="5.9448">
        <ele>557.1</ele>
        <time>2022-10-23T08:16:49Z</time>
      </trkpt>
      <trkpt lat="43.71531" lon="5.9447">
        <ele>558.2</ele>
        <time>2022-10-23T08:16:58Z</time>
      </trkpt>
      <trkpt lat="43.71539" lon="5.94461">
        <ele>559</ele>
        <time>2022-10-23T08:17:07Z</time>
      </trkpt>
      <trkpt lat="43.71546" lon="5.94452">
        <ele>559.8</ele>
        <time>2022-10-23T08:17:15Z</time>
      </trkpt>
      <trkpt lat="43.71552" lon="5.94441">
        <ele>560.8</ele>
        <time>2022-10-23T08:17:24Z</time>
      </trkpt>
      <trkpt lat="43.71558" lon="5.9443">
        <ele>561</ele>
        <time>2022-10-23T08:17:32Z</time>
      </trkpt>
      <trkpt lat="43.71564" lon="5.94422">
        <ele>561.2</ele>
        <time>2022-10-23T08:17:40Z</time>
      </trkpt>
      <trkpt lat="43.7157" lon="5.94411">
        <ele>561.4</ele>
        <time>2022-10-23T08:17:48Z</time>
      </trkpt>
      <trkpt lat="43.71576" lon="5.94402">
        <ele>561.6</ele>
        <time>2022-10-23T08:17:56Z</time>
      </trkpt>
      <trkpt lat="43.71582" lon="5.94392">
        <ele>561.9</ele>
        <time>2022-10-23T08:18:04Z</time>
      </trkpt>
      <trkpt lat="43.71588" lon="5.94381">
        <ele>562.5</ele>
        <time>2022-10-23T08:18:12Z</time>
      </trkpt>
      <trkpt lat="43.71594" lon="5.9437">
        <ele>563.1</ele>
        <time>2022-10-23T08:18:20Z</time>
      </trkpt>
      <trkpt lat="43.71601" lon="5.94358">
        <ele>564</ele>
        <time>2022-10-23T08:18:29Z</time>
      </trkpt>
      <trkpt lat="43.71607" lon="5.94348">
        <ele>564.6</ele>
        <time>2022-10-23T08:18:39Z</time>
      </trkpt>
      <trkpt lat="43.71612" lon="5.94336">
        <ele>565.1</ele>
        <time>2022-10-23T08:18:48Z</time>
      </trkpt>
      <trkpt lat="43.71618" lon="5.94324">
        <ele>566.2</ele>
        <time>2022-10-23T08:18:58Z</time>
      </trkpt>
      <trkpt lat="43.71622" lon="5.94311">
        <ele>567.4</ele>
        <time>2022-10-23T08:19:07Z</time>
      </trkpt>
      <trkpt lat="43.71628" lon="5.943">
        <ele>568.4</ele>
        <time>2022-10-23T08:19:16Z</time>
      </trkpt>
      <trkpt lat="43.71635" lon="5.9429">
        <ele>569.2</ele>
        <time>2022-10-23T08:19:25Z</time>
      </trkpt>
      <trkpt lat="43.71641" lon="5.94278">
        <ele>570.1</ele>
        <time>2022-10-23T08:19:35Z</time>
      </trkpt>
      <trkpt lat="43.71646" lon="5.94267">
        <ele>570.9</ele>
        <time>2022-10-23T08:19:45Z</time>
      </trkpt>
      <trkpt lat="43.71652" lon="5.94256">
        <ele>571.7</ele>
        <time>2022-10-23T08:19:54Z</time>
      </trkpt>
      <trkpt lat="43.71658" lon="5.94245">
        <ele>572.5</ele>
        <time>2022-10-23T08:20:04Z</time>
      </trkpt>
      <trkpt lat="43.71662" lon="5.94233">
        <ele>573.3</ele>
        <time>2022-10-23T08:20:15Z</time>
      </trkpt>
      <trkpt lat="43.71668" lon="5.94223">
        <ele>574.1</ele>
        <time>2022-10-23T08:20:24Z</time>
      </trkpt>
      <trkpt lat="43.71675" lon="5.94214">
        <ele>574.9</ele>
        <time>2022-10-23T08:20:33Z</time>
      </trkpt>
      <trkpt lat="43.71681" lon="5.94202">
        <ele>575.8</ele>
        <time>2022-10-23T08:20:43Z</time>
      </trkpt>
      <trkpt lat="43.71687" lon="5.94191">
        <ele>576.6</ele>
        <time>2022-10-23T08:20:52Z</time>
      </trkpt>
      <trkpt lat="43.71692" lon="5.94178">
        <ele>577.4</ele>
        <time>2022-10-23T08:21:01Z</time>
      </trkpt>
      <trkpt lat="43.71696" lon="5.94164">
        <ele>578.2</ele>
        <time>2022-10-23T08:21:11Z</time>
      </trkpt>
      <trkpt lat="43.71701" lon="5.94152">
        <ele>579.1</ele>
        <time>2022-10-23T08:21:20Z</time>
      </trkpt>
      <trkpt lat="43.71706" lon="5.9414">
        <ele>580.1</ele>
        <time>2022-10-23T08:21:29Z</time>
      </trkpt>
      <trkpt lat="43.71711" lon="5.94128">
        <ele>581.2</ele>
        <time>2022-10-23T08:21:39Z</time>
      </trkpt>
      <trkpt lat="43.71717" lon="5.94117">
        <ele>582.2</ele>
        <time>2022-10-23T08:21:48Z</time>
      </trkpt>
      <trkpt lat="43.71723" lon="5.94106">
        <ele>583.4</ele>
        <time>2022-10-23T08:21:56Z</time>
      </trkpt>
      <trkpt lat="43.71728" lon="5.94094">
        <ele>584.7</ele>
        <time>2022-10-23T08:22:06Z</time>
      </trkpt>
      <trkpt lat="43.71733" lon="5.94083">
        <ele>585.8</ele>
        <time>2022-10-23T08:22:15Z</time>
      </trkpt>
      <trkpt lat="43.71739" lon="5.94072">
        <ele>586</ele>
        <time>2022-10-23T08:22:24Z</time>
      </trkpt>
      <trkpt lat="43.71744" lon="5.9406">
        <ele>586.4</ele>
        <time>2022-10-23T08:22:33Z</time>
      </trkpt>
      <trkpt lat="43.7175" lon="5.94048">
        <ele>587</ele>
        <time>2022-10-23T08:22:42Z</time>
      </trkpt>
      <trkpt lat="43.71755" lon="5.94037">
        <ele>587.1</ele>
        <time>2022-10-23T08:22:51Z</time>
      </trkpt>
      <trkpt lat="43.71761" lon="5.94026">
        <ele>587.4</ele>
        <time>2022-10-23T08:22:59Z</time>
      </trkpt>
      <trkpt lat="43.71766" lon="5.94013">
        <ele>588.1</ele>
        <time>2022-10-23T08:23:07Z</time>
      </trkpt>
      <trkpt lat="43.71772" lon="5.94001">
        <ele>588.7</ele>
        <time>2022-10-23T08:23:15Z</time>
      </trkpt>
      <trkpt lat="43.71777" lon="5.93991">
        <ele>589.3</ele>
        <time>2022-10-23T08:23:23Z</time>
      </trkpt>
      <trkpt lat="43.71784" lon="5.9398">
        <ele>589.5</ele>
        <time>2022-10-23T08:23:32Z</time>
      </trkpt>
      <trkpt lat="43.7179" lon="5.93969">
        <ele>589.7</ele>
        <time>2022-10-23T08:23:41Z</time>
      </trkpt>
      <trkpt lat="43.71796" lon="5.93958">
        <ele>589.9</ele>
        <time>2022-10-23T08:23:49Z</time>
      </trkpt>
      <trkpt lat="43.71802" lon="5.93947">
        <ele>590</ele>
        <time>2022-10-23T08:23:57Z</time>
      </trkpt>
      <trkpt lat="43.71809" lon="5.93937">
        <ele>590.2</ele>
        <time>2022-10-23T08:24:05Z</time>
      </trkpt>
      <trkpt lat="43.71815" lon="5.93926">
        <ele>590.5</ele>
        <time>2022-10-23T08:24:13Z</time>
      </trkpt>
      <trkpt lat="43.7182" lon="5.93915">
        <ele>591</ele>
        <time>2022-10-23T08:24:21Z</time>
      </trkpt>
      <trkpt lat="43.71827" lon="5.93903">
        <ele>590.7</ele>
        <time>2022-10-23T08:24:30Z</time>
      </trkpt>
      <trkpt lat="43.71834" lon="5.93892">
        <ele>590.1</ele>
        <time>2022-10-23T08:24:39Z</time>
      </trkpt>
      <trkpt lat="43.7184" lon="5.93882">
        <ele>590</ele>
        <time>2022-10-23T08:24:47Z</time>
      </trkpt>
      <trkpt lat="43.71847" lon="5.93872">
        <ele>590.1</ele>
        <time>2022-10-23T08:24:55Z</time>
      </trkpt>
      <trkpt lat="43.71854" lon="5.93862">
        <ele>590.2</ele>
        <time>2022-10-23T08:25:03Z</time>
      </trkpt>
      <trkpt lat="43.71861" lon="5.93853">
        <ele>589.7</ele>
        <time>2022-10-23T08:25:11Z</time>
      </trkpt>
      <trkpt lat="43.71868" lon="5.93843">
        <ele>589.3</ele>
        <time>2022-10-23T08:25:19Z</time>
      </trkpt>
      <trkpt lat="43.71875" lon="5.93834">
        <ele>589.5</ele>
        <time>2022-10-23T08:25:27Z</time>
      </trkpt>
      <trkpt lat="43.71882" lon="5.93825">
        <ele>589.7</ele>
        <time>2022-10-23T08:25:35Z</time>
      </trkpt>
      <trkpt lat="43.7189" lon="5.93816">
        <ele>590</ele>
        <time>2022-10-23T08:25:43Z</time>
      </trkpt>
      <trkpt lat="43.71897" lon="5.93807">
        <ele>590.5</ele>
        <time>2022-10-23T08:25:51Z</time>
      </trkpt>
      <trkpt lat="43.71905" lon="5.93798">
        <ele>591</ele>
        <time>2022-10-23T08:26:00Z</time>
      </trkpt>
      <trkpt lat="43.71913" lon="5.93791">
        <ele>591.7</ele>
        <time>2022-10-23T08:26:08Z</time>
      </trkpt>
      <trkpt lat="43.71922" lon="5.93784">
        <ele>591.9</ele>
        <time>2022-10-23T08:26:17Z</time>
      </trkpt>
      <trkpt lat="43.71929" lon="5.93774">
        <ele>592.1</ele>
        <time>2022-10-23T08:26:25Z</time>
      </trkpt>
      <trkpt lat="43.71936" lon="5.93765">
        <ele>592.3</ele>
        <time>2022-10-23T08:26:33Z</time>
      </trkpt>
      <trkpt lat="43.71943" lon="5.93757">
        <ele>592.7</ele>
        <time>2022-10-23T08:26:41Z</time>
      </trkpt>
      <trkpt lat="43.7195" lon="5.93748">
        <ele>592.8</ele>
        <time>2022-10-23T08:26:49Z</time>
      </trkpt>
      <trkpt lat="43.71958" lon="5.93739">
        <ele>592.9</ele>
        <time>2022-10-23T08:26:58Z</time>
      </trkpt>
      <trkpt lat="43.71966" lon="5.93731">
        <ele>593.3</ele>
        <time>2022-10-23T08:27:07Z</time>
      </trkpt>
      <trkpt lat="43.71972" lon="5.93722">
        <ele>594</ele>
        <time>2022-10-23T08:27:15Z</time>
      </trkpt>
      <trkpt lat="43.7198" lon="5.93715">
        <ele>593.8</ele>
        <time>2022-10-23T08:27:23Z</time>
      </trkpt>
      <trkpt lat="43.71987" lon="5.93705">
        <ele>593.8</ele>
        <time>2022-10-23T08:27:31Z</time>
      </trkpt>
      <trkpt lat="43.71995" lon="5.937">
        <ele>593.9</ele>
        <time>2022-10-23T08:27:39Z</time>
      </trkpt>
      <trkpt lat="43.72003" lon="5.93693">
        <ele>594</ele>
        <time>2022-10-23T08:27:48Z</time>
      </trkpt>
      <trkpt lat="43.72012" lon="5.93684">
        <ele>594.4</ele>
        <time>2022-10-23T08:27:57Z</time>
      </trkpt>
      <trkpt lat="43.7202" lon="5.93677">
        <ele>594.6</ele>
        <time>2022-10-23T08:28:06Z</time>
      </trkpt>
      <trkpt lat="43.72026" lon="5.93665">
        <ele>595</ele>
        <time>2022-10-23T08:28:15Z</time>
      </trkpt>
      <trkpt lat="43.72033" lon="5.93652">
        <ele>595</ele>
        <time>2022-10-23T08:28:24Z</time>
      </trkpt>
      <trkpt lat="43.72037" lon="5.93637">
        <ele>595</ele>
        <time>2022-10-23T08:28:33Z</time>
      </trkpt>
      <trkpt lat="43.7204" lon="5.93622">
        <ele>595</ele>
        <time>2022-10-23T08:28:42Z</time>
      </trkpt>
      <trkpt lat="43.72042" lon="5.93609">
        <ele>594.9</ele>
        <time>2022-10-23T08:28:50Z</time>
      </trkpt>
      <trkpt lat="43.72045" lon="5.93597">
        <ele>594.5</ele>
        <time>2022-10-23T08:28:57Z</time>
      </trkpt>
      <trkpt lat="43.72046" lon="5.93584">
        <ele>594</ele>
        <time>2022-10-23T08:29:05Z</time>
      </trkpt>
      <trkpt lat="43.72047" lon="5.9357">
        <ele>593.5</ele>
        <time>2022-10-23T08:29:13Z</time>
      </trkpt>
      <trkpt lat="43.72048" lon="5.93557">
        <ele>593</ele>
        <time>2022-10-23T08:29:21Z</time>
      </trkpt>
      <trkpt lat="43.72047" lon="5.93542">
        <ele>592.5</ele>
        <time>2022-10-23T08:29:29Z</time>
      </trkpt>
      <trkpt lat="43.72049" lon="5.93528">
        <ele>592</ele>
        <time>2022-10-23T08:29:38Z</time>
      </trkpt>
      <trkpt lat="43.72049" lon="5.93513">
        <ele>592</ele>
        <time>2022-10-23T08:29:47Z</time>
      </trkpt>
      <trkpt lat="43.72048" lon="5.93497">
        <ele>592</ele>
        <time>2022-10-23T08:29:56Z</time>
      </trkpt>
      <trkpt lat="43.72048" lon="5.93483">
        <ele>592</ele>
        <time>2022-10-23T08:30:04Z</time>
      </trkpt>
      <trkpt lat="43.72049" lon="5.93469">
        <ele>592</ele>
        <time>2022-10-23T08:30:12Z</time>
      </trkpt>
      <trkpt lat="43.7205" lon="5.93455">
        <ele>592</ele>
        <time>2022-10-23T08:30:20Z</time>
      </trkpt>
      <trkpt lat="43.72051" lon="5.93442">
        <ele>592</ele>
        <time>2022-10-23T08:30:28Z</time>
      </trkpt>
      <trkpt lat="43.72053" lon="5.93428">
        <ele>591.9</ele>
        <time>2022-10-23T08:30:36Z</time>
      </trkpt>
      <trkpt lat="43.72054" lon="5.93415">
        <ele>591.9</ele>
        <time>2022-10-23T08:30:44Z</time>
      </trkpt>
      <trkpt lat="43.72055" lon="5.93401">
        <ele>591.4</ele>
        <time>2022-10-23T08:30:52Z</time>
      </trkpt>
      <trkpt lat="43.72058" lon="5.93388">
        <ele>590.9</ele>
        <time>2022-10-23T08:31:01Z</time>
      </trkpt>
      <trkpt lat="43.72057" lon="5.93375">
        <ele>590.4</ele>
        <time>2022-10-23T08:31:09Z</time>
      </trkpt>
      <trkpt lat="43.72061" lon="5.93361">
        <ele>589.8</ele>
        <time>2022-10-23T08:31:18Z</time>
      </trkpt>
      <trkpt lat="43.72067" lon="5.93348">
        <ele>589.6</ele>
        <time>2022-10-23T08:31:26Z</time>
      </trkpt>
      <trkpt lat="43.72073" lon="5.93334">
        <ele>589.4</ele>
        <time>2022-10-23T08:31:34Z</time>
      </trkpt>
      <trkpt lat="43.7208" lon="5.93323">
        <ele>589.2</ele>
        <time>2022-10-23T08:31:42Z</time>
      </trkpt>
      <trkpt lat="43.72087" lon="5.93316">
        <ele>588.4</ele>
        <time>2022-10-23T08:31:50Z</time>
      </trkpt>
      <trkpt lat="43.72094" lon="5.93307">
        <ele>587.5</ele>
        <time>2022-10-23T08:31:58Z</time>
      </trkpt>
      <trkpt lat="43.72102" lon="5.93297">
        <ele>586.5</ele>
        <time>2022-10-23T08:32:06Z</time>
      </trkpt>
      <trkpt lat="43.72108" lon="5.93286">
        <ele>585.6</ele>
        <time>2022-10-23T08:32:14Z</time>
      </trkpt>
      <trkpt lat="43.72115" lon="5.93275">
        <ele>584.7</ele>
        <time>2022-10-23T08:32:22Z</time>
      </trkpt>
      <trkpt lat="43.72121" lon="5.93265">
        <ele>584.3</ele>
        <time>2022-10-23T08:32:30Z</time>
      </trkpt>
      <trkpt lat="43.72127" lon="5.93254">
        <ele>584.2</ele>
        <time>2022-10-23T08:32:40Z</time>
      </trkpt>
      <trkpt lat="43.72131" lon="5.93244">
        <ele>583.9</ele>
        <time>2022-10-23T08:38:03Z</time>
      </trkpt>
      <trkpt lat="43.72137" lon="5.93231">
        <ele>583.1</ele>
        <time>2022-10-23T08:38:13Z</time>
      </trkpt>
      <trkpt lat="43.72143" lon="5.93219">
        <ele>582.3</ele>
        <time>2022-10-23T08:38:21Z</time>
      </trkpt>
      <trkpt lat="43.72149" lon="5.93207">
        <ele>582.1</ele>
        <time>2022-10-23T08:38:30Z</time>
      </trkpt>
      <trkpt lat="43.72157" lon="5.93194">
        <ele>581.5</ele>
        <time>2022-10-23T08:38:38Z</time>
      </trkpt>
      <trkpt lat="43.72162" lon="5.93182">
        <ele>580.7</ele>
        <time>2022-10-23T08:38:46Z</time>
      </trkpt>
      <trkpt lat="43.72167" lon="5.93171">
        <ele>579.8</ele>
        <time>2022-10-23T08:38:53Z</time>
      </trkpt>
      <trkpt lat="43.72172" lon="5.93158">
        <ele>579.6</ele>
        <time>2022-10-23T08:39:00Z</time>
      </trkpt>
      <trkpt lat="43.72175" lon="5.93146">
        <ele>579.6</ele>
        <time>2022-10-23T08:39:08Z</time>
      </trkpt>
      <trkpt lat="43.72179" lon="5.93133">
        <ele>579.2</ele>
        <time>2022-10-23T08:39:16Z</time>
      </trkpt>
      <trkpt lat="43.72185" lon="5.93121">
        <ele>578.4</ele>
        <time>2022-10-23T08:39:23Z</time>
      </trkpt>
      <trkpt lat="43.72192" lon="5.93112">
        <ele>577.3</ele>
        <time>2022-10-23T08:39:30Z</time>
      </trkpt>
      <trkpt lat="43.72199" lon="5.93103">
        <ele>576.7</ele>
        <time>2022-10-23T08:39:37Z</time>
      </trkpt>
      <trkpt lat="43.72207" lon="5.93096">
        <ele>576.3</ele>
        <time>2022-10-23T08:39:44Z</time>
      </trkpt>
      <trkpt lat="43.72216" lon="5.93092">
        <ele>576</ele>
        <time>2022-10-23T08:39:51Z</time>
      </trkpt>
      <trkpt lat="43.72225" lon="5.93087">
        <ele>575.7</ele>
        <time>2022-10-23T08:39:58Z</time>
      </trkpt>
      <trkpt lat="43.72234" lon="5.93082">
        <ele>575.2</ele>
        <time>2022-10-23T08:40:05Z</time>
      </trkpt>
      <trkpt lat="43.72242" lon="5.93075">
        <ele>574.8</ele>
        <time>2022-10-23T08:40:13Z</time>
      </trkpt>
      <trkpt lat="43.72251" lon="5.93067">
        <ele>574.6</ele>
        <time>2022-10-23T08:40:21Z</time>
      </trkpt>
      <trkpt lat="43.72259" lon="5.93062">
        <ele>574.7</ele>
        <time>2022-10-23T08:40:29Z</time>
      </trkpt>
      <trkpt lat="43.72268" lon="5.93057">
        <ele>574.9</ele>
        <time>2022-10-23T08:40:37Z</time>
      </trkpt>
      <trkpt lat="43.72278" lon="5.93053">
        <ele>575.1</ele>
        <time>2022-10-23T08:40:45Z</time>
      </trkpt>
      <trkpt lat="43.72287" lon="5.93049">
        <ele>575.2</ele>
        <time>2022-10-23T08:40:53Z</time>
      </trkpt>
      <trkpt lat="43.72297" lon="5.93043">
        <ele>575.5</ele>
        <time>2022-10-23T08:41:01Z</time>
      </trkpt>
      <trkpt lat="43.72306" lon="5.93037">
        <ele>575.7</ele>
        <time>2022-10-23T08:41:09Z</time>
      </trkpt>
      <trkpt lat="43.72316" lon="5.93032">
        <ele>575.4</ele>
        <time>2022-10-23T08:41:17Z</time>
      </trkpt>
      <trkpt lat="43.72325" lon="5.93026">
        <ele>575.4</ele>
        <time>2022-10-23T08:41:25Z</time>
      </trkpt>
      <trkpt lat="43.72332" lon="5.93019">
        <ele>575.4</ele>
        <time>2022-10-23T08:41:32Z</time>
      </trkpt>
      <trkpt lat="43.7234" lon="5.93012">
        <ele>575.2</ele>
        <time>2022-10-23T08:41:39Z</time>
      </trkpt>
      <trkpt lat="43.72348" lon="5.93007">
        <ele>575.1</ele>
        <time>2022-10-23T08:41:46Z</time>
      </trkpt>
      <trkpt lat="43.72357" lon="5.93001">
        <ele>575.1</ele>
        <time>2022-10-23T08:41:54Z</time>
      </trkpt>
      <trkpt lat="43.72367" lon="5.92997">
        <ele>574.8</ele>
        <time>2022-10-23T08:42:02Z</time>
      </trkpt>
      <trkpt lat="43.72375" lon="5.92992">
        <ele>574.5</ele>
        <time>2022-10-23T08:42:09Z</time>
      </trkpt>
      <trkpt lat="43.72385" lon="5.92988">
        <ele>574.1</ele>
        <time>2022-10-23T08:42:17Z</time>
      </trkpt>
      <trkpt lat="43.72394" lon="5.92984">
        <ele>574</ele>
        <time>2022-10-23T08:42:25Z</time>
      </trkpt>
      <trkpt lat="43.72404" lon="5.92982">
        <ele>574</ele>
        <time>2022-10-23T08:42:33Z</time>
      </trkpt>
      <trkpt lat="43.72414" lon="5.9298">
        <ele>574</ele>
        <time>2022-10-23T08:42:41Z</time>
      </trkpt>
      <trkpt lat="43.72425" lon="5.92977">
        <ele>574</ele>
        <time>2022-10-23T08:42:49Z</time>
      </trkpt>
      <trkpt lat="43.72434" lon="5.92973">
        <ele>574</ele>
        <time>2022-10-23T08:42:58Z</time>
      </trkpt>
      <trkpt lat="43.72443" lon="5.92968">
        <ele>574</ele>
        <time>2022-10-23T08:43:06Z</time>
      </trkpt>
      <trkpt lat="43.7245" lon="5.92963">
        <ele>574</ele>
        <time>2022-10-23T08:43:14Z</time>
      </trkpt>
      <trkpt lat="43.72459" lon="5.92955">
        <ele>574</ele>
        <time>2022-10-23T08:43:23Z</time>
      </trkpt>
      <trkpt lat="43.72469" lon="5.92951">
        <ele>574</ele>
        <time>2022-10-23T08:43:31Z</time>
      </trkpt>
      <trkpt lat="43.72478" lon="5.92946">
        <ele>573.8</ele>
        <time>2022-10-23T08:43:39Z</time>
      </trkpt>
      <trkpt lat="43.72488" lon="5.92942">
        <ele>573.3</ele>
        <time>2022-10-23T08:43:47Z</time>
      </trkpt>
      <trkpt lat="43.72497" lon="5.92936">
        <ele>573</ele>
        <time>2022-10-23T08:43:55Z</time>
      </trkpt>
      <trkpt lat="43.72505" lon="5.92929">
        <ele>572.8</ele>
        <time>2022-10-23T08:44:03Z</time>
      </trkpt>
      <trkpt lat="43.72516" lon="5.92924">
        <ele>572.4</ele>
        <time>2022-10-23T08:44:11Z</time>
      </trkpt>
      <trkpt lat="43.72525" lon="5.92919">
        <ele>572.1</ele>
        <time>2022-10-23T08:44:19Z</time>
      </trkpt>
      <trkpt lat="43.72534" lon="5.92913">
        <ele>571.9</ele>
        <time>2022-10-23T08:44:27Z</time>
      </trkpt>
      <trkpt lat="43.72544" lon="5.92907">
        <ele>571.6</ele>
        <time>2022-10-23T08:44:35Z</time>
      </trkpt>
      <trkpt lat="43.72553" lon="5.92899">
        <ele>571.4</ele>
        <time>2022-10-23T08:44:43Z</time>
      </trkpt>
      <trkpt lat="43.72564" lon="5.92894">
        <ele>571.4</ele>
        <time>2022-10-23T08:44:51Z</time>
      </trkpt>
      <trkpt lat="43.72573" lon="5.92889">
        <ele>571.6</ele>
        <time>2022-10-23T08:44:59Z</time>
      </trkpt>
      <trkpt lat="43.72583" lon="5.92884">
        <ele>571.8</ele>
        <time>2022-10-23T08:45:07Z</time>
      </trkpt>
      <trkpt lat="43.72592" lon="5.92879">
        <ele>571.8</ele>
        <time>2022-10-23T08:45:15Z</time>
      </trkpt>
      <trkpt lat="43.72603" lon="5.92874">
        <ele>571.8</ele>
        <time>2022-10-23T08:45:23Z</time>
      </trkpt>
      <trkpt lat="43.72611" lon="5.92867">
        <ele>572</ele>
        <time>2022-10-23T08:45:32Z</time>
      </trkpt>
      <trkpt lat="43.72618" lon="5.92858">
        <ele>572.3</ele>
        <time>2022-10-23T08:45:40Z</time>
      </trkpt>
      <trkpt lat="43.72626" lon="5.9285">
        <ele>572.5</ele>
        <time>2022-10-23T08:45:48Z</time>
      </trkpt>
      <trkpt lat="43.72633" lon="5.92837">
        <ele>572.8</ele>
        <time>2022-10-23T08:45:57Z</time>
      </trkpt>
      <trkpt lat="43.72639" lon="5.92825">
        <ele>573</ele>
        <time>2022-10-23T08:46:06Z</time>
      </trkpt>
      <trkpt lat="43.72645" lon="5.92814">
        <ele>573.2</ele>
        <time>2022-10-23T08:46:15Z</time>
      </trkpt>
      <trkpt lat="43.72651" lon="5.92802">
        <ele>573.5</ele>
        <time>2022-10-23T08:46:26Z</time>
      </trkpt>
      <trkpt lat="43.72654" lon="5.92807">
        <ele>573.5</ele>
        <time>2022-10-23T08:47:38Z</time>
      </trkpt>
      <trkpt lat="43.72655" lon="5.92798">
        <ele>573.6</ele>
        <time>2022-10-23T08:48:02Z</time>
      </trkpt>
      <trkpt lat="43.72662" lon="5.92788">
        <ele>573.8</ele>
        <time>2022-10-23T08:48:12Z</time>
      </trkpt>
      <trkpt lat="43.7267" lon="5.92778">
        <ele>574</ele>
        <time>2022-10-23T08:48:21Z</time>
      </trkpt>
      <trkpt lat="43.72676" lon="5.92766">
        <ele>574</ele>
        <time>2022-10-23T08:48:29Z</time>
      </trkpt>
      <trkpt lat="43.72682" lon="5.92753">
        <ele>574</ele>
        <time>2022-10-23T08:48:39Z</time>
      </trkpt>
      <trkpt lat="43.72687" lon="5.92739">
        <ele>574</ele>
        <time>2022-10-23T08:48:49Z</time>
      </trkpt>
      <trkpt lat="43.72692" lon="5.92724">
        <ele>574</ele>
        <time>2022-10-23T08:48:58Z</time>
      </trkpt>
      <trkpt lat="43.72699" lon="5.92713">
        <ele>574.1</ele>
        <time>2022-10-23T08:49:06Z</time>
      </trkpt>
      <trkpt lat="43.72703" lon="5.927">
        <ele>574.2</ele>
        <time>2022-10-23T08:49:14Z</time>
      </trkpt>
      <trkpt lat="43.72707" lon="5.92687">
        <ele>574.2</ele>
        <time>2022-10-23T08:49:22Z</time>
      </trkpt>
      <trkpt lat="43.72711" lon="5.92674">
        <ele>574.2</ele>
        <time>2022-10-23T08:49:30Z</time>
      </trkpt>
      <trkpt lat="43.72715" lon="5.92661">
        <ele>574.5</ele>
        <time>2022-10-23T08:49:38Z</time>
      </trkpt>
      <trkpt lat="43.72717" lon="5.92648">
        <ele>574.9</ele>
        <time>2022-10-23T08:49:46Z</time>
      </trkpt>
      <trkpt lat="43.72721" lon="5.92634">
        <ele>575.1</ele>
        <time>2022-10-23T08:49:55Z</time>
      </trkpt>
      <trkpt lat="43.72725" lon="5.92621">
        <ele>574.7</ele>
        <time>2022-10-23T08:50:03Z</time>
      </trkpt>
      <trkpt lat="43.72729" lon="5.92607">
        <ele>574.7</ele>
        <time>2022-10-23T08:50:11Z</time>
      </trkpt>
      <trkpt lat="43.72733" lon="5.92596">
        <ele>574.7</ele>
        <time>2022-10-23T08:50:19Z</time>
      </trkpt>
      <trkpt lat="43.72738" lon="5.92584">
        <ele>574.9</ele>
        <time>2022-10-23T08:50:27Z</time>
      </trkpt>
      <trkpt lat="43.72743" lon="5.92569">
        <ele>574.9</ele>
        <time>2022-10-23T08:50:36Z</time>
      </trkpt>
      <trkpt lat="43.72749" lon="5.92559">
        <ele>574.9</ele>
        <time>2022-10-23T08:50:44Z</time>
      </trkpt>
      <trkpt lat="43.72752" lon="5.92543">
        <ele>574.4</ele>
        <time>2022-10-23T08:50:53Z</time>
      </trkpt>
      <trkpt lat="43.72758" lon="5.92531">
        <ele>573.8</ele>
        <time>2022-10-23T08:51:01Z</time>
      </trkpt>
      <trkpt lat="43.7276" lon="5.92515">
        <ele>573.8</ele>
        <time>2022-10-23T08:51:09Z</time>
      </trkpt>
      <trkpt lat="43.72764" lon="5.92501">
        <ele>574</ele>
        <time>2022-10-23T08:51:17Z</time>
      </trkpt>
      <trkpt lat="43.72771" lon="5.92492">
        <ele>573.9</ele>
        <time>2022-10-23T08:51:25Z</time>
      </trkpt>
      <trkpt lat="43.72779" lon="5.92482">
        <ele>574</ele>
        <time>2022-10-23T08:51:34Z</time>
      </trkpt>
      <trkpt lat="43.72784" lon="5.92471">
        <ele>573.8</ele>
        <time>2022-10-23T08:51:42Z</time>
      </trkpt>
      <trkpt lat="43.72787" lon="5.92452">
        <ele>573.9</ele>
        <time>2022-10-23T08:51:50Z</time>
      </trkpt>
      <trkpt lat="43.72791" lon="5.92438">
        <ele>573.9</ele>
        <time>2022-10-23T08:51:58Z</time>
      </trkpt>
      <trkpt lat="43.72797" lon="5.92428">
        <ele>573.8</ele>
        <time>2022-10-23T08:52:06Z</time>
      </trkpt>
      <trkpt lat="43.72803" lon="5.92415">
        <ele>574</ele>
        <time>2022-10-23T08:52:14Z</time>
      </trkpt>
      <trkpt lat="43.72809" lon="5.92404">
        <ele>574.5</ele>
        <time>2022-10-23T08:52:22Z</time>
      </trkpt>
      <trkpt lat="43.72816" lon="5.92394">
        <ele>574.8</ele>
        <time>2022-10-23T08:52:30Z</time>
      </trkpt>
      <trkpt lat="43.72821" lon="5.92382">
        <ele>575.1</ele>
        <time>2022-10-23T08:52:38Z</time>
      </trkpt>
      <trkpt lat="43.72827" lon="5.92371">
        <ele>575.5</ele>
        <time>2022-10-23T08:52:46Z</time>
      </trkpt>
      <trkpt lat="43.72833" lon="5.9236">
        <ele>576</ele>
        <time>2022-10-23T08:52:54Z</time>
      </trkpt>
      <trkpt lat="43.72841" lon="5.92351">
        <ele>576.1</ele>
        <time>2022-10-23T08:53:02Z</time>
      </trkpt>
      <trkpt lat="43.72848" lon="5.92341">
        <ele>576.4</ele>
        <time>2022-10-23T08:53:11Z</time>
      </trkpt>
      <trkpt lat="43.72856" lon="5.92331">
        <ele>576.9</ele>
        <time>2022-10-23T08:53:20Z</time>
      </trkpt>
      <trkpt lat="43.72864" lon="5.92322">
        <ele>577.4</ele>
        <time>2022-10-23T08:53:28Z</time>
      </trkpt>
      <trkpt lat="43.72872" lon="5.92313">
        <ele>577.7</ele>
        <time>2022-10-23T08:53:36Z</time>
      </trkpt>
      <trkpt lat="43.7288" lon="5.92305">
        <ele>578</ele>
        <time>2022-10-23T08:53:44Z</time>
      </trkpt>
      <trkpt lat="43.72889" lon="5.92298">
        <ele>578.3</ele>
        <time>2022-10-23T08:53:52Z</time>
      </trkpt>
      <trkpt lat="43.72895" lon="5.92289">
        <ele>578.6</ele>
        <time>2022-10-23T08:54:00Z</time>
      </trkpt>
      <trkpt lat="43.72902" lon="5.9228">
        <ele>578.9</ele>
        <time>2022-10-23T08:54:08Z</time>
      </trkpt>
      <trkpt lat="43.72909" lon="5.92272">
        <ele>579.2</ele>
        <time>2022-10-23T08:54:16Z</time>
      </trkpt>
      <trkpt lat="43.72916" lon="5.92261">
        <ele>579.6</ele>
        <time>2022-10-23T08:54:25Z</time>
      </trkpt>
      <trkpt lat="43.72924" lon="5.92256">
        <ele>579.8</ele>
        <time>2022-10-23T08:54:36Z</time>
      </trkpt>
      <trkpt lat="43.72932" lon="5.92248">
        <ele>580</ele>
        <time>2022-10-23T08:54:44Z</time>
      </trkpt>
      <trkpt lat="43.72939" lon="5.92238">
        <ele>580.4</ele>
        <time>2022-10-23T08:54:52Z</time>
      </trkpt>
      <trkpt lat="43.72947" lon="5.92228">
        <ele>580.9</ele>
        <time>2022-10-23T08:55:00Z</time>
      </trkpt>
      <trkpt lat="43.72954" lon="5.9222">
        <ele>581.4</ele>
        <time>2022-10-23T08:55:08Z</time>
      </trkpt>
      <trkpt lat="43.72962" lon="5.92211">
        <ele>581.9</ele>
        <time>2022-10-23T08:55:17Z</time>
      </trkpt>
      <trkpt lat="43.72969" lon="5.92201">
        <ele>582.6</ele>
        <time>2022-10-23T08:55:26Z</time>
      </trkpt>
      <trkpt lat="43.72977" lon="5.92192">
        <ele>583.2</ele>
        <time>2022-10-23T08:55:34Z</time>
      </trkpt>
      <trkpt lat="43.72984" lon="5.92183">
        <ele>583.6</ele>
        <time>2022-10-23T08:55:42Z</time>
      </trkpt>
      <trkpt lat="43.72993" lon="5.92179">
        <ele>584.2</ele>
        <time>2022-10-23T08:55:50Z</time>
      </trkpt>
      <trkpt lat="43.73004" lon="5.92185">
        <ele>584.5</ele>
        <time>2022-10-23T08:55:58Z</time>
      </trkpt>
      <trkpt lat="43.73011" lon="5.92196">
        <ele>584.3</ele>
        <time>2022-10-23T08:56:07Z</time>
      </trkpt>
      <trkpt lat="43.7302" lon="5.92205">
        <ele>584</ele>
        <time>2022-10-23T08:56:16Z</time>
      </trkpt>
      <trkpt lat="43.7303" lon="5.92212">
        <ele>583.8</ele>
        <time>2022-10-23T08:56:26Z</time>
      </trkpt>
      <trkpt lat="43.73039" lon="5.92219">
        <ele>583.3</ele>
        <time>2022-10-23T08:56:37Z</time>
      </trkpt>
      <trkpt lat="43.73048" lon="5.92227">
        <ele>582.5</ele>
        <time>2022-10-23T08:56:47Z</time>
      </trkpt>
      <trkpt lat="43.73057" lon="5.92234">
        <ele>581.8</ele>
        <time>2022-10-23T08:56:55Z</time>
      </trkpt>
      <trkpt lat="43.73066" lon="5.92239">
        <ele>581.2</ele>
        <time>2022-10-23T08:57:03Z</time>
      </trkpt>
      <trkpt lat="43.73075" lon="5.92243">
        <ele>580.8</ele>
        <time>2022-10-23T08:57:11Z</time>
      </trkpt>
      <trkpt lat="43.73083" lon="5.9225">
        <ele>580</ele>
        <time>2022-10-23T08:57:19Z</time>
      </trkpt>
      <trkpt lat="43.73092" lon="5.92258">
        <ele>579.2</ele>
        <time>2022-10-23T08:57:27Z</time>
      </trkpt>
      <trkpt lat="43.73101" lon="5.92262">
        <ele>578.7</ele>
        <time>2022-10-23T08:57:35Z</time>
      </trkpt>
      <trkpt lat="43.73111" lon="5.9227">
        <ele>577.8</ele>
        <time>2022-10-23T08:57:44Z</time>
      </trkpt>
      <trkpt lat="43.7312" lon="5.92276">
        <ele>576.8</ele>
        <time>2022-10-23T08:57:52Z</time>
      </trkpt>
      <trkpt lat="43.73129" lon="5.92281">
        <ele>576.3</ele>
        <time>2022-10-23T08:58:00Z</time>
      </trkpt>
      <trkpt lat="43.73137" lon="5.92286">
        <ele>576</ele>
        <time>2022-10-23T08:58:08Z</time>
      </trkpt>
      <trkpt lat="43.73144" lon="5.92296">
        <ele>575.6</ele>
        <time>2022-10-23T08:58:16Z</time>
      </trkpt>
      <trkpt lat="43.73149" lon="5.92307">
        <ele>575.1</ele>
        <time>2022-10-23T08:58:25Z</time>
      </trkpt>
      <trkpt lat="43.73156" lon="5.92302">
        <ele>574.8</ele>
        <time>2022-10-23T08:58:35Z</time>
      </trkpt>
      <trkpt lat="43.73155" lon="5.92317">
        <ele>574</ele>
        <time>2022-10-23T08:58:46Z</time>
      </trkpt>
      <trkpt lat="43.73152" lon="5.92332">
        <ele>573.2</ele>
        <time>2022-10-23T08:58:55Z</time>
      </trkpt>
      <trkpt lat="43.73149" lon="5.92346">
        <ele>572.3</ele>
        <time>2022-10-23T08:59:04Z</time>
      </trkpt>
      <trkpt lat="43.73145" lon="5.92365">
        <ele>571.3</ele>
        <time>2022-10-23T08:59:13Z</time>
      </trkpt>
      <trkpt lat="43.73141" lon="5.92379">
        <ele>570.5</ele>
        <time>2022-10-23T08:59:22Z</time>
      </trkpt>
      <trkpt lat="43.73137" lon="5.92396">
        <ele>569.6</ele>
        <time>2022-10-23T08:59:30Z</time>
      </trkpt>
      <trkpt lat="43.73134" lon="5.92408">
        <ele>568.8</ele>
        <time>2022-10-23T08:59:39Z</time>
      </trkpt>
      <trkpt lat="43.73133" lon="5.92422">
        <ele>568</ele>
        <time>2022-10-23T08:59:48Z</time>
      </trkpt>
      <trkpt lat="43.7313" lon="5.92437">
        <ele>567</ele>
        <time>2022-10-23T08:59:57Z</time>
      </trkpt>
      <trkpt lat="43.73127" lon="5.92452">
        <ele>566.3</ele>
        <time>2022-10-23T09:00:13Z</time>
      </trkpt>
      <trkpt lat="43.7313" lon="5.92467">
        <ele>565.6</ele>
        <time>2022-10-23T09:00:24Z</time>
      </trkpt>
      <trkpt lat="43.73135" lon="5.92485">
        <ele>565.1</ele>
        <time>2022-10-23T09:00:37Z</time>
      </trkpt>
      <trkpt lat="43.73141" lon="5.92506">
        <ele>564.7</ele>
        <time>2022-10-23T09:00:47Z</time>
      </trkpt>
      <trkpt lat="43.73145" lon="5.9252">
        <ele>564.5</ele>
        <time>2022-10-23T09:00:57Z</time>
      </trkpt>
      <trkpt lat="43.73148" lon="5.92535">
        <ele>564.4</ele>
        <time>2022-10-23T09:01:06Z</time>
      </trkpt>
      <trkpt lat="43.73151" lon="5.9255">
        <ele>564.2</ele>
        <time>2022-10-23T09:01:15Z</time>
      </trkpt>
      <trkpt lat="43.7315" lon="5.92563">
        <ele>564</ele>
        <time>2022-10-23T09:01:24Z</time>
      </trkpt>
      <trkpt lat="43.73149" lon="5.9258">
        <ele>563.7</ele>
        <time>2022-10-23T09:01:33Z</time>
      </trkpt>
      <trkpt lat="43.73149" lon="5.92595">
        <ele>563.2</ele>
        <time>2022-10-23T09:01:43Z</time>
      </trkpt>
      <trkpt lat="43.73151" lon="5.92606">
        <ele>562.7</ele>
        <time>2022-10-23T09:01:52Z</time>
      </trkpt>
      <trkpt lat="43.73151" lon="5.92608">
        <ele>562.7</ele>
        <time>2022-10-23T09:06:42Z</time>
      </trkpt>
      <trkpt lat="43.73151" lon="5.92622">
        <ele>562.2</ele>
        <time>2022-10-23T09:06:57Z</time>
      </trkpt>
      <trkpt lat="43.7315" lon="5.92637">
        <ele>561.7</ele>
        <time>2022-10-23T09:07:07Z</time>
      </trkpt>
      <trkpt lat="43.73153" lon="5.9265">
        <ele>561.1</ele>
        <time>2022-10-23T09:07:17Z</time>
      </trkpt>
      <trkpt lat="43.73156" lon="5.92664">
        <ele>560.5</ele>
        <time>2022-10-23T09:07:27Z</time>
      </trkpt>
      <trkpt lat="43.73158" lon="5.92677">
        <ele>559.8</ele>
        <time>2022-10-23T09:07:36Z</time>
      </trkpt>
      <trkpt lat="43.73161" lon="5.9269">
        <ele>559.2</ele>
        <time>2022-10-23T09:07:45Z</time>
      </trkpt>
      <trkpt lat="43.73164" lon="5.92703">
        <ele>559</ele>
        <time>2022-10-23T09:07:55Z</time>
      </trkpt>
      <trkpt lat="43.73165" lon="5.92718">
        <ele>558.9</ele>
        <time>2022-10-23T09:08:05Z</time>
      </trkpt>
      <trkpt lat="43.73169" lon="5.9273">
        <ele>558.4</ele>
        <time>2022-10-23T09:08:14Z</time>
      </trkpt>
      <trkpt lat="43.73174" lon="5.92743">
        <ele>557.7</ele>
        <time>2022-10-23T09:08:22Z</time>
      </trkpt>
      <trkpt lat="43.73173" lon="5.92756">
        <ele>557.4</ele>
        <time>2022-10-23T09:08:31Z</time>
      </trkpt>
      <trkpt lat="43.73176" lon="5.92768">
        <ele>556.9</ele>
        <time>2022-10-23T09:08:43Z</time>
      </trkpt>
      <trkpt lat="43.73177" lon="5.92785">
        <ele>556.2</ele>
        <time>2022-10-23T09:08:55Z</time>
      </trkpt>
      <trkpt lat="43.73177" lon="5.92799">
        <ele>555.4</ele>
        <time>2022-10-23T09:09:03Z</time>
      </trkpt>
      <trkpt lat="43.7318" lon="5.92813">
        <ele>554.5</ele>
        <time>2022-10-23T09:09:13Z</time>
      </trkpt>
      <trkpt lat="43.73181" lon="5.92827">
        <ele>553.4</ele>
        <time>2022-10-23T09:09:23Z</time>
      </trkpt>
      <trkpt lat="43.7319" lon="5.92836">
        <ele>552.7</ele>
        <time>2022-10-23T09:09:33Z</time>
      </trkpt>
      <trkpt lat="43.732" lon="5.92838">
        <ele>551.2</ele>
        <time>2022-10-23T09:09:46Z</time>
      </trkpt>
      <trkpt lat="43.73206" lon="5.92846">
        <ele>548.9</ele>
        <time>2022-10-23T09:10:00Z</time>
      </trkpt>
      <trkpt lat="43.73207" lon="5.9286">
        <ele>547.3</ele>
        <time>2022-10-23T09:10:12Z</time>
      </trkpt>
      <trkpt lat="43.73211" lon="5.92873">
        <ele>544.8</ele>
        <time>2022-10-23T09:10:24Z</time>
      </trkpt>
      <trkpt lat="43.73211" lon="5.92887">
        <ele>542.8</ele>
        <time>2022-10-23T09:10:38Z</time>
      </trkpt>
      <trkpt lat="43.73214" lon="5.92901">
        <ele>539.9</ele>
        <time>2022-10-23T09:10:54Z</time>
      </trkpt>
      <trkpt lat="43.73223" lon="5.92905">
        <ele>538</ele>
        <time>2022-10-23T09:11:07Z</time>
      </trkpt>
      <trkpt lat="43.73231" lon="5.92911">
        <ele>535</ele>
        <time>2022-10-23T09:11:22Z</time>
      </trkpt>
      <trkpt lat="43.7324" lon="5.92918">
        <ele>531.9</ele>
        <time>2022-10-23T09:11:40Z</time>
      </trkpt>
      <trkpt lat="43.73247" lon="5.92928">
        <ele>529.3</ele>
        <time>2022-10-23T09:11:53Z</time>
      </trkpt>
      <trkpt lat="43.73255" lon="5.92939">
        <ele>526.8</ele>
        <time>2022-10-23T09:12:06Z</time>
      </trkpt>
      <trkpt lat="43.73265" lon="5.92945">
        <ele>524.8</ele>
        <time>2022-10-23T09:12:19Z</time>
      </trkpt>
      <trkpt lat="43.73275" lon="5.9295">
        <ele>523.3</ele>
        <time>2022-10-23T09:12:31Z</time>
      </trkpt>
      <trkpt lat="43.73286" lon="5.92954">
        <ele>522.3</ele>
        <time>2022-10-23T09:12:43Z</time>
      </trkpt>
      <trkpt lat="43.73297" lon="5.92958">
        <ele>521.6</ele>
        <time>2022-10-23T09:12:53Z</time>
      </trkpt>
      <trkpt lat="43.73305" lon="5.92951">
        <ele>520.5</ele>
        <time>2022-10-23T09:13:34Z</time>
      </trkpt>
      <trkpt lat="43.73311" lon="5.92966">
        <ele>521.6</ele>
        <time>2022-10-23T09:13:51Z</time>
      </trkpt>
      <trkpt lat="43.73315" lon="5.92981">
        <ele>521.2</ele>
        <time>2022-10-23T09:14:03Z</time>
      </trkpt>
      <trkpt lat="43.73319" lon="5.92994">
        <ele>520.1</ele>
        <time>2022-10-23T09:14:20Z</time>
      </trkpt>
      <trkpt lat="43.73326" lon="5.93003">
        <ele>519.1</ele>
        <time>2022-10-23T09:14:35Z</time>
      </trkpt>
      <trkpt lat="43.73336" lon="5.93013">
        <ele>517.9</ele>
        <time>2022-10-23T09:14:47Z</time>
      </trkpt>
      <trkpt lat="43.73344" lon="5.93021">
        <ele>517.3</ele>
        <time>2022-10-23T09:14:59Z</time>
      </trkpt>
      <trkpt lat="43.7335" lon="5.93032">
        <ele>516.3</ele>
        <time>2022-10-23T09:15:11Z</time>
      </trkpt>
      <trkpt lat="43.73363" lon="5.93045">
        <ele>516.5</ele>
        <time>2022-10-23T09:15:23Z</time>
      </trkpt>
      <trkpt lat="43.73371" lon="5.93058">
        <ele>516.5</ele>
        <time>2022-10-23T09:15:33Z</time>
      </trkpt>
      <trkpt lat="43.73375" lon="5.93072">
        <ele>515.9</ele>
        <time>2022-10-23T09:15:44Z</time>
      </trkpt>
      <trkpt lat="43.73376" lon="5.93088">
        <ele>514.9</ele>
        <time>2022-10-23T09:15:55Z</time>
      </trkpt>
      <trkpt lat="43.73376" lon="5.93104">
        <ele>514.3</ele>
        <time>2022-10-23T09:16:07Z</time>
      </trkpt>
      <trkpt lat="43.73383" lon="5.9312">
        <ele>514.1</ele>
        <time>2022-10-23T09:16:20Z</time>
      </trkpt>
      <trkpt lat="43.7339" lon="5.9313">
        <ele>513.5</ele>
        <time>2022-10-23T09:16:33Z</time>
      </trkpt>
      <trkpt lat="43.734" lon="5.93141">
        <ele>511.2</ele>
        <time>2022-10-23T09:16:45Z</time>
      </trkpt>
      <trkpt lat="43.73409" lon="5.93151">
        <ele>508.4</ele>
        <time>2022-10-23T09:16:59Z</time>
      </trkpt>
      <trkpt lat="43.73418" lon="5.93158">
        <ele>506</ele>
        <time>2022-10-23T09:17:11Z</time>
      </trkpt>
      <trkpt lat="43.73425" lon="5.93164">
        <ele>503.6</ele>
        <time>2022-10-23T09:17:26Z</time>
      </trkpt>
      <trkpt lat="43.73435" lon="5.93163">
        <ele>501.6</ele>
        <time>2022-10-23T09:17:53Z</time>
      </trkpt>
      <trkpt lat="43.73447" lon="5.9316">
        <ele>499.2</ele>
        <time>2022-10-23T09:18:06Z</time>
      </trkpt>
      <trkpt lat="43.73455" lon="5.93154">
        <ele>498.3</ele>
        <time>2022-10-23T09:18:16Z</time>
      </trkpt>
      <trkpt lat="43.73466" lon="5.93138">
        <ele>499.3</ele>
        <time>2022-10-23T09:19:22Z</time>
      </trkpt>
      <trkpt lat="43.73472" lon="5.93135">
        <ele>498.5</ele>
        <time>2022-10-23T09:19:39Z</time>
      </trkpt>
      <trkpt lat="43.73482" lon="5.93139">
        <ele>496.2</ele>
        <time>2022-10-23T09:19:59Z</time>
      </trkpt>
      <trkpt lat="43.73493" lon="5.93141">
        <ele>493.8</ele>
        <time>2022-10-23T09:20:11Z</time>
      </trkpt>
      <trkpt lat="43.73503" lon="5.93151">
        <ele>489.2</ele>
        <time>2022-10-23T09:20:27Z</time>
      </trkpt>
      <trkpt lat="43.73511" lon="5.93149">
        <ele>487.9</ele>
        <time>2022-10-23T09:21:33Z</time>
      </trkpt>
      <trkpt lat="43.73521" lon="5.93144">
        <ele>486.6</ele>
        <time>2022-10-23T09:21:45Z</time>
      </trkpt>
      <trkpt lat="43.73531" lon="5.93146">
        <ele>483.9</ele>
        <time>2022-10-23T09:21:57Z</time>
      </trkpt>
      <trkpt lat="43.73537" lon="5.93157">
        <ele>480.7</ele>
        <time>2022-10-23T09:22:14Z</time>
      </trkpt>
      <trkpt lat="43.73545" lon="5.93162">
        <ele>477.9</ele>
        <time>2022-10-23T09:22:30Z</time>
      </trkpt>
      <trkpt lat="43.73553" lon="5.93169">
        <ele>475.2</ele>
        <time>2022-10-23T09:22:47Z</time>
      </trkpt>
      <trkpt lat="43.73558" lon="5.9318">
        <ele>472.6</ele>
        <time>2022-10-23T09:23:02Z</time>
      </trkpt>
      <trkpt lat="43.73561" lon="5.93193">
        <ele>470.1</ele>
        <time>2022-10-23T09:23:20Z</time>
      </trkpt>
      <trkpt lat="43.73562" lon="5.93208">
        <ele>467.6</ele>
        <time>2022-10-23T09:23:33Z</time>
      </trkpt>
      <trkpt lat="43.73567" lon="5.93219">
        <ele>465.2</ele>
        <time>2022-10-23T09:23:47Z</time>
      </trkpt>
      <trkpt lat="43.73575" lon="5.93224">
        <ele>463.6</ele>
        <time>2022-10-23T09:24:00Z</time>
      </trkpt>
      <trkpt lat="43.73582" lon="5.93231">
        <ele>461.9</ele>
        <time>2022-10-23T09:24:12Z</time>
      </trkpt>
      <trkpt lat="43.7359" lon="5.93237">
        <ele>460.1</ele>
        <time>2022-10-23T09:24:23Z</time>
      </trkpt>
      <trkpt lat="43.73598" lon="5.93244">
        <ele>459.1</ele>
        <time>2022-10-23T09:24:34Z</time>
      </trkpt>
      <trkpt lat="43.73598" lon="5.93245">
        <ele>459.1</ele>
        <time>2022-10-23T09:27:50Z</time>
      </trkpt>
      <trkpt lat="43.73587" lon="5.93248">
        <ele>459.2</ele>
        <time>2022-10-23T09:28:12Z</time>
      </trkpt>
      <trkpt lat="43.73577" lon="5.93253">
        <ele>458.2</ele>
        <time>2022-10-23T09:28:44Z</time>
      </trkpt>
      <trkpt lat="43.73568" lon="5.93256">
        <ele>457.4</ele>
        <time>2022-10-23T09:29:05Z</time>
      </trkpt>
      <trkpt lat="43.7356" lon="5.93259">
        <ele>456.4</ele>
        <time>2022-10-23T09:29:14Z</time>
      </trkpt>
      <trkpt lat="43.73551" lon="5.93262">
        <ele>454.7</ele>
        <time>2022-10-23T09:29:23Z</time>
      </trkpt>
      <trkpt lat="43.73542" lon="5.93264">
        <ele>453</ele>
        <time>2022-10-23T09:29:31Z</time>
      </trkpt>
      <trkpt lat="43.73532" lon="5.93264">
        <ele>451.6</ele>
        <time>2022-10-23T09:29:39Z</time>
      </trkpt>
      <trkpt lat="43.73522" lon="5.93266">
        <ele>451.3</ele>
        <time>2022-10-23T09:29:48Z</time>
      </trkpt>
      <trkpt lat="43.73514" lon="5.93269">
        <ele>452.1</ele>
        <time>2022-10-23T09:29:56Z</time>
      </trkpt>
      <trkpt lat="43.7351" lon="5.93279">
        <ele>451.4</ele>
        <time>2022-10-23T09:30:05Z</time>
      </trkpt>
      <trkpt lat="43.73508" lon="5.93293">
        <ele>450</ele>
        <time>2022-10-23T09:30:15Z</time>
      </trkpt>
      <trkpt lat="43.73504" lon="5.93306">
        <ele>450.1</ele>
        <time>2022-10-23T09:30:25Z</time>
      </trkpt>
      <trkpt lat="43.73499" lon="5.93317">
        <ele>451.1</ele>
        <time>2022-10-23T09:30:33Z</time>
      </trkpt>
      <trkpt lat="43.73495" lon="5.93331">
        <ele>451.2</ele>
        <time>2022-10-23T09:30:42Z</time>
      </trkpt>
      <trkpt lat="43.73491" lon="5.93344">
        <ele>450.8</ele>
        <time>2022-10-23T09:30:52Z</time>
      </trkpt>
      <trkpt lat="43.73486" lon="5.93356">
        <ele>450.8</ele>
        <time>2022-10-23T09:31:02Z</time>
      </trkpt>
      <trkpt lat="43.7348" lon="5.93368">
        <ele>450.5</ele>
        <time>2022-10-23T09:31:11Z</time>
      </trkpt>
      <trkpt lat="43.73476" lon="5.93382">
        <ele>449.3</ele>
        <time>2022-10-23T09:31:21Z</time>
      </trkpt>
      <trkpt lat="43.7347" lon="5.93393">
        <ele>448.7</ele>
        <time>2022-10-23T09:31:30Z</time>
      </trkpt>
      <trkpt lat="43.73462" lon="5.93403">
        <ele>448.2</ele>
        <time>2022-10-23T09:31:40Z</time>
      </trkpt>
      <trkpt lat="43.73453" lon="5.93416">
        <ele>446.3</ele>
        <time>2022-10-23T09:31:51Z</time>
      </trkpt>
      <trkpt lat="43.73446" lon="5.93425">
        <ele>444.9</ele>
        <time>2022-10-23T09:32:53Z</time>
      </trkpt>
      <trkpt lat="43.73437" lon="5.93433">
        <ele>445.4</ele>
        <time>2022-10-23T09:33:03Z</time>
      </trkpt>
      <trkpt lat="43.7343" lon="5.93447">
        <ele>444.6</ele>
        <time>2022-10-23T09:33:14Z</time>
      </trkpt>
      <trkpt lat="43.73428" lon="5.93461">
        <ele>442.8</ele>
        <time>2022-10-23T09:33:23Z</time>
      </trkpt>
      <trkpt lat="43.73428" lon="5.93474">
        <ele>441.2</ele>
        <time>2022-10-23T09:33:31Z</time>
      </trkpt>
      <trkpt lat="43.73429" lon="5.93488">
        <ele>440</ele>
        <time>2022-10-23T09:33:39Z</time>
      </trkpt>
      <trkpt lat="43.7343" lon="5.93502">
        <ele>438.6</ele>
        <time>2022-10-23T09:33:47Z</time>
      </trkpt>
      <trkpt lat="43.73431" lon="5.93517">
        <ele>437.3</ele>
        <time>2022-10-23T09:33:55Z</time>
      </trkpt>
      <trkpt lat="43.73429" lon="5.93529">
        <ele>437</ele>
        <time>2022-10-23T09:34:03Z</time>
      </trkpt>
      <trkpt lat="43.73431" lon="5.93542">
        <ele>435.5</ele>
        <time>2022-10-23T09:34:11Z</time>
      </trkpt>
      <trkpt lat="43.73433" lon="5.93556">
        <ele>434.1</ele>
        <time>2022-10-23T09:34:20Z</time>
      </trkpt>
      <trkpt lat="43.73437" lon="5.93569">
        <ele>433.1</ele>
        <time>2022-10-23T09:34:28Z</time>
      </trkpt>
      <trkpt lat="43.73443" lon="5.93583">
        <ele>431.4</ele>
        <time>2022-10-23T09:34:37Z</time>
      </trkpt>
      <trkpt lat="43.7345" lon="5.93591">
        <ele>430.1</ele>
        <time>2022-10-23T09:34:46Z</time>
      </trkpt>
      <trkpt lat="43.73459" lon="5.93596">
        <ele>428.1</ele>
        <time>2022-10-23T09:34:58Z</time>
      </trkpt>
      <trkpt lat="43.73468" lon="5.93603">
        <ele>427</ele>
        <time>2022-10-23T09:35:14Z</time>
      </trkpt>
      <trkpt lat="43.73476" lon="5.93612">
        <ele>426.1</ele>
        <time>2022-10-23T09:35:23Z</time>
      </trkpt>
      <trkpt lat="43.73484" lon="5.93618">
        <ele>424.6</ele>
        <time>2022-10-23T09:35:32Z</time>
      </trkpt>
      <trkpt lat="43.73492" lon="5.93626">
        <ele>423.3</ele>
        <time>2022-10-23T09:35:41Z</time>
      </trkpt>
      <trkpt lat="43.735" lon="5.93635">
        <ele>422.4</ele>
        <time>2022-10-23T09:35:51Z</time>
      </trkpt>
      <trkpt lat="43.73507" lon="5.93645">
        <ele>420.7</ele>
        <time>2022-10-23T09:36:01Z</time>
      </trkpt>
      <trkpt lat="43.73512" lon="5.93656">
        <ele>419.7</ele>
        <time>2022-10-23T09:36:11Z</time>
      </trkpt>
      <trkpt lat="43.73519" lon="5.93664">
        <ele>418.1</ele>
        <time>2022-10-23T09:36:20Z</time>
      </trkpt>
      <trkpt lat="43.73526" lon="5.93676">
        <ele>417.2</ele>
        <time>2022-10-23T09:36:30Z</time>
      </trkpt>
      <trkpt lat="43.73531" lon="5.93687">
        <ele>416.1</ele>
        <time>2022-10-23T09:36:39Z</time>
      </trkpt>
      <trkpt lat="43.73538" lon="5.93699">
        <ele>414.2</ele>
        <time>2022-10-23T09:36:49Z</time>
      </trkpt>
      <trkpt lat="43.73546" lon="5.93709">
        <ele>412.5</ele>
        <time>2022-10-23T09:36:59Z</time>
      </trkpt>
      <trkpt lat="43.73553" lon="5.93719">
        <ele>411.9</ele>
        <time>2022-10-23T09:37:09Z</time>
      </trkpt>
      <trkpt lat="43.7356" lon="5.93725">
        <ele>409.2</ele>
        <time>2022-10-23T09:37:29Z</time>
      </trkpt>
      <trkpt lat="43.7356" lon="5.93729">
        <ele>409.5</ele>
        <time>2022-10-23T09:38:35Z</time>
      </trkpt>
      <trkpt lat="43.73565" lon="5.9374">
        <ele>407.9</ele>
        <time>2022-10-23T09:39:11Z</time>
      </trkpt>
      <trkpt lat="43.73569" lon="5.9375">
        <ele>406.7</ele>
        <time>2022-10-23T09:39:52Z</time>
      </trkpt>
      <trkpt lat="43.73571" lon="5.93757">
        <ele>404.8</ele>
        <time>2022-10-23T09:41:17Z</time>
      </trkpt>
      <trkpt lat="43.73573" lon="5.93768">
        <ele>402.8</ele>
        <time>2022-10-23T09:41:47Z</time>
      </trkpt>
      <trkpt lat="43.73569" lon="5.93773">
        <ele>404.8</ele>
        <time>2022-10-23T09:42:19Z</time>
      </trkpt>
      <trkpt lat="43.73572" lon="5.93784">
        <ele>398.8</ele>
        <time>2022-10-23T09:42:39Z</time>
      </trkpt>
      <trkpt lat="43.73566" lon="5.93794">
        <ele>396.7</ele>
        <time>2022-10-23T09:42:52Z</time>
      </trkpt>
      <trkpt lat="43.73559" lon="5.93802">
        <ele>398.4</ele>
        <time>2022-10-23T09:43:04Z</time>
      </trkpt>
      <trkpt lat="43.73553" lon="5.93812">
        <ele>394.5</ele>
        <time>2022-10-23T09:43:18Z</time>
      </trkpt>
      <trkpt lat="43.73542" lon="5.93818">
        <ele>392.8</ele>
        <time>2022-10-23T09:43:34Z</time>
      </trkpt>
      <trkpt lat="43.73531" lon="5.9382">
        <ele>394.5</ele>
        <time>2022-10-23T09:43:47Z</time>
      </trkpt>
      <trkpt lat="43.73524" lon="5.93816">
        <ele>396.8</ele>
        <time>2022-10-23T09:44:02Z</time>
      </trkpt>
      <trkpt lat="43.73516" lon="5.93813">
        <ele>396.1</ele>
        <time>2022-10-23T09:44:11Z</time>
      </trkpt>
      <trkpt lat="43.73507" lon="5.93811">
        <ele>394.2</ele>
        <time>2022-10-23T09:44:19Z</time>
      </trkpt>
      <trkpt lat="43.73497" lon="5.93813">
        <ele>391.9</ele>
        <time>2022-10-23T09:44:28Z</time>
      </trkpt>
      <trkpt lat="43.73488" lon="5.93816">
        <ele>391.9</ele>
        <time>2022-10-23T09:44:36Z</time>
      </trkpt>
      <trkpt lat="43.73479" lon="5.93817">
        <ele>392.1</ele>
        <time>2022-10-23T09:44:45Z</time>
      </trkpt>
      <trkpt lat="43.7347" lon="5.9382">
        <ele>390.5</ele>
        <time>2022-10-23T09:44:54Z</time>
      </trkpt>
      <trkpt lat="43.73458" lon="5.93822">
        <ele>386.8</ele>
        <time>2022-10-23T09:45:03Z</time>
      </trkpt>
      <trkpt lat="43.73447" lon="5.93821">
        <ele>384.6</ele>
        <time>2022-10-23T09:45:11Z</time>
      </trkpt>
      <trkpt lat="43.73439" lon="5.93813">
        <ele>385.5</ele>
        <time>2022-10-23T09:45:19Z</time>
      </trkpt>
      <trkpt lat="43.73429" lon="5.93809">
        <ele>384.2</ele>
        <time>2022-10-23T09:45:27Z</time>
      </trkpt>
      <trkpt lat="43.73419" lon="5.93808">
        <ele>381.9</ele>
        <time>2022-10-23T09:45:35Z</time>
      </trkpt>
      <trkpt lat="43.73411" lon="5.93809">
        <ele>380</ele>
        <time>2022-10-23T09:45:42Z</time>
      </trkpt>
      <trkpt lat="43.73401" lon="5.93809">
        <ele>378.5</ele>
        <time>2022-10-23T09:45:50Z</time>
      </trkpt>
      <trkpt lat="43.73391" lon="5.9381">
        <ele>376.7</ele>
        <time>2022-10-23T09:45:58Z</time>
      </trkpt>
      <trkpt lat="43.73381" lon="5.93808">
        <ele>375.7</ele>
        <time>2022-10-23T09:46:07Z</time>
      </trkpt>
      <trkpt lat="43.73371" lon="5.93807">
        <ele>374.3</ele>
        <time>2022-10-23T09:46:16Z</time>
      </trkpt>
      <trkpt lat="43.73359" lon="5.93805">
        <ele>372.7</ele>
        <time>2022-10-23T09:46:26Z</time>
      </trkpt>
      <trkpt lat="43.73349" lon="5.93804">
        <ele>371.3</ele>
        <time>2022-10-23T09:46:35Z</time>
      </trkpt>
      <trkpt lat="43.7334" lon="5.93803">
        <ele>370</ele>
        <time>2022-10-23T09:46:46Z</time>
      </trkpt>
      <trkpt lat="43.73327" lon="5.93803">
        <ele>367.4</ele>
        <time>2022-10-23T09:46:59Z</time>
      </trkpt>
      <trkpt lat="43.73308" lon="5.93802">
        <ele>362.9</ele>
        <time>2022-10-23T09:47:09Z</time>
      </trkpt>
      <trkpt lat="43.73295" lon="5.93797">
        <ele>361.8</ele>
        <time>2022-10-23T09:47:18Z</time>
      </trkpt>
      <trkpt lat="43.73285" lon="5.93791">
        <ele>361.2</ele>
        <time>2022-10-23T09:47:27Z</time>
      </trkpt>
      <trkpt lat="43.73277" lon="5.93786">
        <ele>360.1</ele>
        <time>2022-10-23T09:47:35Z</time>
      </trkpt>
      <trkpt lat="43.73271" lon="5.93776">
        <ele>361.4</ele>
        <time>2022-10-23T09:47:44Z</time>
      </trkpt>
      <trkpt lat="43.73269" lon="5.93765">
        <ele>363.1</ele>
        <time>2022-10-23T09:47:53Z</time>
      </trkpt>
      <trkpt lat="43.73267" lon="5.93751">
        <ele>365</ele>
        <time>2022-10-23T09:48:03Z</time>
      </trkpt>
      <trkpt lat="43.73259" lon="5.93733">
        <ele>365.4</ele>
        <time>2022-10-23T09:48:13Z</time>
      </trkpt>
      <trkpt lat="43.73253" lon="5.93723">
        <ele>364.9</ele>
        <time>2022-10-23T09:48:21Z</time>
      </trkpt>
      <trkpt lat="43.73249" lon="5.93711">
        <ele>365.4</ele>
        <time>2022-10-23T09:48:30Z</time>
      </trkpt>
      <trkpt lat="43.73243" lon="5.93704">
        <ele>367.2</ele>
        <time>2022-10-23T09:48:39Z</time>
      </trkpt>
      <trkpt lat="43.73244" lon="5.93717">
        <ele>365.9</ele>
        <time>2022-10-23T09:48:49Z</time>
      </trkpt>
      <trkpt lat="43.73247" lon="5.93728">
        <ele>364.2</ele>
        <time>2022-10-23T09:48:57Z</time>
      </trkpt>
      <trkpt lat="43.73246" lon="5.93739">
        <ele>363.6</ele>
        <time>2022-10-23T09:49:07Z</time>
      </trkpt>
      <trkpt lat="43.7325" lon="5.93744">
        <ele>362.5</ele>
        <time>2022-10-23T09:49:29Z</time>
      </trkpt>
      <trkpt lat="43.73249" lon="5.93755">
        <ele>362</ele>
        <time>2022-10-23T09:49:47Z</time>
      </trkpt>
      <trkpt lat="43.73252" lon="5.93768">
        <ele>361.5</ele>
        <time>2022-10-23T09:50:01Z</time>
      </trkpt>
      <trkpt lat="43.73254" lon="5.93779">
        <ele>360.9</ele>
        <time>2022-10-23T09:50:13Z</time>
      </trkpt>
      <trkpt lat="43.73257" lon="5.9379">
        <ele>360.3</ele>
        <time>2022-10-23T09:50:26Z</time>
      </trkpt>
      <trkpt lat="43.73258" lon="5.93795">
        <ele>360</ele>
        <time>2022-10-23T09:50:55Z</time>
      </trkpt>
      <trkpt lat="43.73262" lon="5.93804">
        <ele>359.2</ele>
        <time>2022-10-23T09:51:14Z</time>
      </trkpt>
      <trkpt lat="43.73261" lon="5.93806">
        <ele>359.2</ele>
        <time>2022-10-23T09:51:28Z</time>
      </trkpt>
      <trkpt lat="43.7328" lon="5.93814">
        <ele>358.2</ele>
        <time>2022-10-23T09:51:46Z</time>
      </trkpt>
      <trkpt lat="43.73269" lon="5.93816">
        <ele>359</ele>
        <time>2022-10-23T09:51:59Z</time>
      </trkpt>
      <trkpt lat="43.7326" lon="5.93821">
        <ele>360.3</ele>
        <time>2022-10-23T09:52:11Z</time>
      </trkpt>
      <trkpt lat="43.73251" lon="5.93812">
        <ele>360.6</ele>
        <time>2022-10-23T09:54:55Z</time>
      </trkpt>
      <trkpt lat="43.73247" lon="5.93802">
        <ele>360.5</ele>
        <time>2022-10-23T09:55:06Z</time>
      </trkpt>
      <trkpt lat="43.73241" lon="5.93786">
        <ele>361.9</ele>
        <time>2022-10-23T09:55:17Z</time>
      </trkpt>
      <trkpt lat="43.73238" lon="5.93775">
        <ele>362.8</ele>
        <time>2022-10-23T09:55:28Z</time>
      </trkpt>
      <trkpt lat="43.73228" lon="5.93778">
        <ele>364.2</ele>
        <time>2022-10-23T09:55:49Z</time>
      </trkpt>
      <trkpt lat="43.73233" lon="5.93789">
        <ele>363</ele>
        <time>2022-10-23T09:56:00Z</time>
      </trkpt>
      <trkpt lat="43.73232" lon="5.93804">
        <ele>362.6</ele>
        <time>2022-10-23T09:56:16Z</time>
      </trkpt>
      <trkpt lat="43.73232" lon="5.93822">
        <ele>364.7</ele>
        <time>2022-10-23T09:56:30Z</time>
      </trkpt>
      <trkpt lat="43.73237" lon="5.93838">
        <ele>366.1</ele>
        <time>2022-10-23T09:56:42Z</time>
      </trkpt>
      <trkpt lat="43.73256" lon="5.93861">
        <ele>364.4</ele>
        <time>2022-10-23T09:56:58Z</time>
      </trkpt>
      <trkpt lat="43.73262" lon="5.93873">
        <ele>364.8</ele>
        <time>2022-10-23T09:57:08Z</time>
      </trkpt>
      <trkpt lat="43.73267" lon="5.93886">
        <ele>365.3</ele>
        <time>2022-10-23T09:57:18Z</time>
      </trkpt>
      <trkpt lat="43.73272" lon="5.93898">
        <ele>366</ele>
        <time>2022-10-23T09:57:27Z</time>
      </trkpt>
      <trkpt lat="43.73282" lon="5.93914">
        <ele>364.5</ele>
        <time>2022-10-23T09:57:39Z</time>
      </trkpt>
      <trkpt lat="43.73291" lon="5.93929">
        <ele>363.8</ele>
        <time>2022-10-23T09:57:49Z</time>
      </trkpt>
      <trkpt lat="43.73297" lon="5.93941">
        <ele>363.5</ele>
        <time>2022-10-23T09:57:58Z</time>
      </trkpt>
      <trkpt lat="43.73302" lon="5.93955">
        <ele>363.7</ele>
        <time>2022-10-23T09:58:07Z</time>
      </trkpt>
      <trkpt lat="43.73308" lon="5.93967">
        <ele>363.7</ele>
        <time>2022-10-23T09:58:16Z</time>
      </trkpt>
      <trkpt lat="43.73312" lon="5.93978">
        <ele>363.9</ele>
        <time>2022-10-23T09:58:25Z</time>
      </trkpt>
      <trkpt lat="43.73316" lon="5.93993">
        <ele>363.8</ele>
        <time>2022-10-23T09:58:35Z</time>
      </trkpt>
      <trkpt lat="43.73321" lon="5.94006">
        <ele>363.8</ele>
        <time>2022-10-23T09:58:46Z</time>
      </trkpt>
      <trkpt lat="43.73325" lon="5.9402">
        <ele>365</ele>
        <time>2022-10-23T09:58:58Z</time>
      </trkpt>
      <trkpt lat="43.73328" lon="5.94037">
        <ele>366</ele>
        <time>2022-10-23T09:59:08Z</time>
      </trkpt>
      <trkpt lat="43.73331" lon="5.94051">
        <ele>365.8</ele>
        <time>2022-10-23T09:59:17Z</time>
      </trkpt>
      <trkpt lat="43.73331" lon="5.94066">
        <ele>365.3</ele>
        <time>2022-10-23T09:59:28Z</time>
      </trkpt>
      <trkpt lat="43.73328" lon="5.94083">
        <ele>365.9</ele>
        <time>2022-10-23T09:59:39Z</time>
      </trkpt>
      <trkpt lat="43.73326" lon="5.94099">
        <ele>365.1</ele>
        <time>2022-10-23T09:59:54Z</time>
      </trkpt>
      <trkpt lat="43.73321" lon="5.94113">
        <ele>365</ele>
        <time>2022-10-23T10:00:07Z</time>
      </trkpt>
      <trkpt lat="43.73314" lon="5.94133">
        <ele>364.4</ele>
        <time>2022-10-23T10:00:20Z</time>
      </trkpt>
      <trkpt lat="43.7331" lon="5.94148">
        <ele>364.5</ele>
        <time>2022-10-23T10:00:30Z</time>
      </trkpt>
      <trkpt lat="43.73308" lon="5.94164">
        <ele>364.4</ele>
        <time>2022-10-23T10:00:45Z</time>
      </trkpt>
      <trkpt lat="43.73305" lon="5.94179">
        <ele>363.5</ele>
        <time>2022-10-23T10:00:57Z</time>
      </trkpt>
      <trkpt lat="43.73298" lon="5.94197">
        <ele>363.9</ele>
        <time>2022-10-23T10:01:07Z</time>
      </trkpt>
      <trkpt lat="43.73291" lon="5.94211">
        <ele>364.2</ele>
        <time>2022-10-23T10:01:17Z</time>
      </trkpt>
      <trkpt lat="43.73287" lon="5.94222">
        <ele>363.2</ele>
        <time>2022-10-23T10:01:28Z</time>
      </trkpt>
      <trkpt lat="43.73279" lon="5.94234">
        <ele>363</ele>
        <time>2022-10-23T10:01:40Z</time>
      </trkpt>
      <trkpt lat="43.73267" lon="5.94249">
        <ele>362.7</ele>
        <time>2022-10-23T10:01:53Z</time>
      </trkpt>
      <trkpt lat="43.73258" lon="5.9426">
        <ele>363.6</ele>
        <time>2022-10-23T10:02:02Z</time>
      </trkpt>
      <trkpt lat="43.73249" lon="5.94275">
        <ele>364.4</ele>
        <time>2022-10-23T10:02:14Z</time>
      </trkpt>
      <trkpt lat="43.73246" lon="5.94296">
        <ele>364.1</ele>
        <time>2022-10-23T10:02:28Z</time>
      </trkpt>
      <trkpt lat="43.73244" lon="5.94309">
        <ele>363.7</ele>
        <time>2022-10-23T10:02:38Z</time>
      </trkpt>
      <trkpt lat="43.73245" lon="5.94315">
        <ele>363.1</ele>
        <time>2022-10-23T10:03:59Z</time>
      </trkpt>
      <trkpt lat="43.73241" lon="5.94325">
        <ele>362.7</ele>
        <time>2022-10-23T10:14:22.297Z</time>
      </trkpt>
      <trkpt lat="43.73237" lon="5.94338">
        <ele>362.5</ele>
        <time>2022-10-23T10:27:12.807Z</time>
      </trkpt>
      <trkpt lat="43.73231" lon="5.94347">
        <ele>363.2</ele>
        <time>2022-10-23T10:38:20.571Z</time>
      </trkpt>
      <trkpt lat="43.73221" lon="5.9436">
        <ele>364.3</ele>
        <time>2022-10-23T10:55:36Z</time>
      </trkpt>
      <trkpt lat="43.73213" lon="5.94366">
        <ele>365</ele>
        <time>2022-10-23T10:55:51Z</time>
      </trkpt>
      <trkpt lat="43.7321" lon="5.94372">
        <ele>365.1</ele>
        <time>2022-10-23T10:57:09Z</time>
      </trkpt>
      <trkpt lat="43.73209" lon="5.94391">
        <ele>364.7</ele>
        <time>2022-10-23T10:57:20Z</time>
      </trkpt>
      <trkpt lat="43.73216" lon="5.944">
        <ele>364.8</ele>
        <time>2022-10-23T10:57:29Z</time>
      </trkpt>
      <trkpt lat="43.73223" lon="5.94409">
        <ele>364.5</ele>
        <time>2022-10-23T10:57:38Z</time>
      </trkpt>
      <trkpt lat="43.73231" lon="5.94421">
        <ele>364</ele>
        <time>2022-10-23T10:57:48Z</time>
      </trkpt>
      <trkpt lat="43.73235" lon="5.94433">
        <ele>363.6</ele>
        <time>2022-10-23T10:58:15Z</time>
      </trkpt>
      <trkpt lat="43.73239" lon="5.94448">
        <ele>362.9</ele>
        <time>2022-10-23T10:58:24Z</time>
      </trkpt>
      <trkpt lat="43.73239" lon="5.94463">
        <ele>364.1</ele>
        <time>2022-10-23T10:58:33Z</time>
      </trkpt>
      <trkpt lat="43.7324" lon="5.94476">
        <ele>364.7</ele>
        <time>2022-10-23T10:58:42Z</time>
      </trkpt>
      <trkpt lat="43.73243" lon="5.94491">
        <ele>363.7</ele>
        <time>2022-10-23T10:58:52Z</time>
      </trkpt>
      <trkpt lat="43.73242" lon="5.94506">
        <ele>364</ele>
        <time>2022-10-23T10:59:02Z</time>
      </trkpt>
      <trkpt lat="43.73241" lon="5.94519">
        <ele>364.3</ele>
        <time>2022-10-23T10:59:12Z</time>
      </trkpt>
      <trkpt lat="43.73239" lon="5.94534">
        <ele>364.6</ele>
        <time>2022-10-23T10:59:24Z</time>
      </trkpt>
      <trkpt lat="43.73236" lon="5.94549">
        <ele>364.4</ele>
        <time>2022-10-23T10:59:34Z</time>
      </trkpt>
      <trkpt lat="43.7323" lon="5.94562">
        <ele>365.1</ele>
        <time>2022-10-23T10:59:45Z</time>
      </trkpt>
      <trkpt lat="43.73223" lon="5.94572">
        <ele>365.8</ele>
        <time>2022-10-23T10:59:54Z</time>
      </trkpt>
      <trkpt lat="43.73213" lon="5.94583">
        <ele>365.9</ele>
        <time>2022-10-23T11:00:05Z</time>
      </trkpt>
      <trkpt lat="43.73203" lon="5.94595">
        <ele>365.3</ele>
        <time>2022-10-23T11:00:15Z</time>
      </trkpt>
      <trkpt lat="43.73195" lon="5.946">
        <ele>365.7</ele>
        <time>2022-10-23T11:00:26Z</time>
      </trkpt>
      <trkpt lat="43.73181" lon="5.94603">
        <ele>365.7</ele>
        <time>2022-10-23T11:00:38Z</time>
      </trkpt>
      <trkpt lat="43.73169" lon="5.94604">
        <ele>366.3</ele>
        <time>2022-10-23T11:00:49Z</time>
      </trkpt>
      <trkpt lat="43.73162" lon="5.94609">
        <ele>364.5</ele>
        <time>2022-10-23T11:01:14Z</time>
      </trkpt>
      <trkpt lat="43.73151" lon="5.94608">
        <ele>364.4</ele>
        <time>2022-10-23T11:01:30Z</time>
      </trkpt>
      <trkpt lat="43.73138" lon="5.94606">
        <ele>364.6</ele>
        <time>2022-10-23T11:01:41Z</time>
      </trkpt>
      <trkpt lat="43.73128" lon="5.94606">
        <ele>364.5</ele>
        <time>2022-10-23T11:01:51Z</time>
      </trkpt>
      <trkpt lat="43.73117" lon="5.94605">
        <ele>364.7</ele>
        <time>2022-10-23T11:02:00Z</time>
      </trkpt>
      <trkpt lat="43.73106" lon="5.94605">
        <ele>364.5</ele>
        <time>2022-10-23T11:02:09Z</time>
      </trkpt>
      <trkpt lat="43.73097" lon="5.94605">
        <ele>364.4</ele>
        <time>2022-10-23T11:02:18Z</time>
      </trkpt>
      <trkpt lat="43.73086" lon="5.94606">
        <ele>364.1</ele>
        <time>2022-10-23T11:02:27Z</time>
      </trkpt>
      <trkpt lat="43.73074" lon="5.94608">
        <ele>364.2</ele>
        <time>2022-10-23T11:02:37Z</time>
      </trkpt>
      <trkpt lat="43.73066" lon="5.94608">
        <ele>364.7</ele>
        <time>2022-10-23T11:02:47Z</time>
      </trkpt>
      <trkpt lat="43.73053" lon="5.9461">
        <ele>365.3</ele>
        <time>2022-10-23T11:02:56Z</time>
      </trkpt>
      <trkpt lat="43.73049" lon="5.94611">
        <ele>365.6</ele>
        <time>2022-10-23T11:03:14Z</time>
      </trkpt>
      <trkpt lat="43.73042" lon="5.94611">
        <ele>365.9</ele>
        <time>2022-10-23T11:03:30Z</time>
      </trkpt>
      <trkpt lat="43.73031" lon="5.94615">
        <ele>365.8</ele>
        <time>2022-10-23T11:03:40Z</time>
      </trkpt>
      <trkpt lat="43.73019" lon="5.94613">
        <ele>366.3</ele>
        <time>2022-10-23T11:03:49Z</time>
      </trkpt>
      <trkpt lat="43.73008" lon="5.94615">
        <ele>365.6</ele>
        <time>2022-10-23T11:03:58Z</time>
      </trkpt>
      <trkpt lat="43.73001" lon="5.94609">
        <ele>366.3</ele>
        <time>2022-10-23T11:04:54.398Z</time>
      </trkpt>
      <trkpt lat="43.72993" lon="5.94611">
        <ele>365.7</ele>
        <time>2022-10-23T11:05:50.081Z</time>
      </trkpt>
      <trkpt lat="43.72986" lon="5.94612">
        <ele>365.4</ele>
        <time>2022-10-23T11:06:38.283Z</time>
      </trkpt>
      <trkpt lat="43.72981" lon="5.94619">
        <ele>365</ele>
        <time>2022-10-23T11:07:27Z</time>
      </trkpt>
      <trkpt lat="43.72982" lon="5.94636">
        <ele>364.1</ele>
        <time>2022-10-23T11:07:39Z</time>
      </trkpt>
      <trkpt lat="43.72982" lon="5.94644">
        <ele>365</ele>
        <time>2022-10-23T11:08:12Z</time>
      </trkpt>
      <trkpt lat="43.72985" lon="5.9465">
        <ele>365.9</ele>
        <time>2022-10-23T11:09:38Z</time>
      </trkpt>
      <trkpt lat="43.72997" lon="5.94657">
        <ele>365.1</ele>
        <time>2022-10-23T11:09:51Z</time>
      </trkpt>
      <trkpt lat="43.73009" lon="5.94666">
        <ele>364.2</ele>
        <time>2022-10-23T11:10:03Z</time>
      </trkpt>
      <trkpt lat="43.73021" lon="5.94674">
        <ele>364</ele>
        <time>2022-10-23T11:10:13Z</time>
      </trkpt>
      <trkpt lat="43.73028" lon="5.9468">
        <ele>364</ele>
        <time>2022-10-23T11:10:21Z</time>
      </trkpt>
      <trkpt lat="43.73037" lon="5.94685">
        <ele>363.8</ele>
        <time>2022-10-23T11:10:31Z</time>
      </trkpt>
      <trkpt lat="43.73047" lon="5.94694">
        <ele>364.1</ele>
        <time>2022-10-23T11:10:47Z</time>
      </trkpt>
      <trkpt lat="43.73061" lon="5.947">
        <ele>364.5</ele>
        <time>2022-10-23T11:10:59Z</time>
      </trkpt>
      <trkpt lat="43.73071" lon="5.94702">
        <ele>364.7</ele>
        <time>2022-10-23T11:11:08Z</time>
      </trkpt>
      <trkpt lat="43.73079" lon="5.94704">
        <ele>364.9</ele>
        <time>2022-10-23T11:11:16Z</time>
      </trkpt>
      <trkpt lat="43.7309" lon="5.94705">
        <ele>364.1</ele>
        <time>2022-10-23T11:11:28Z</time>
      </trkpt>
      <trkpt lat="43.73102" lon="5.94707">
        <ele>363.4</ele>
        <time>2022-10-23T11:11:39Z</time>
      </trkpt>
      <trkpt lat="43.73113" lon="5.94712">
        <ele>363.1</ele>
        <time>2022-10-23T11:11:50Z</time>
      </trkpt>
      <trkpt lat="43.73125" lon="5.94716">
        <ele>362.9</ele>
        <time>2022-10-23T11:12:00Z</time>
      </trkpt>
      <trkpt lat="43.73136" lon="5.94721">
        <ele>362.1</ele>
        <time>2022-10-23T11:12:10Z</time>
      </trkpt>
      <trkpt lat="43.73147" lon="5.94725">
        <ele>362.2</ele>
        <time>2022-10-23T11:12:18Z</time>
      </trkpt>
      <trkpt lat="43.73155" lon="5.94731">
        <ele>363.2</ele>
        <time>2022-10-23T11:12:27Z</time>
      </trkpt>
      <trkpt lat="43.73165" lon="5.94735">
        <ele>362.9</ele>
        <time>2022-10-23T11:12:39Z</time>
      </trkpt>
      <trkpt lat="43.73179" lon="5.9474">
        <ele>363.8</ele>
        <time>2022-10-23T11:12:48Z</time>
      </trkpt>
      <trkpt lat="43.73189" lon="5.94745">
        <ele>364.6</ele>
        <time>2022-10-23T11:12:56Z</time>
      </trkpt>
      <trkpt lat="43.73198" lon="5.94746">
        <ele>364.5</ele>
        <time>2022-10-23T11:13:06Z</time>
      </trkpt>
      <trkpt lat="43.73205" lon="5.94745">
        <ele>363.4</ele>
        <time>2022-10-23T11:13:16Z</time>
      </trkpt>
      <trkpt lat="43.73217" lon="5.94748">
        <ele>362.4</ele>
        <time>2022-10-23T11:13:28Z</time>
      </trkpt>
      <trkpt lat="43.73227" lon="5.94752">
        <ele>362.1</ele>
        <time>2022-10-23T11:13:37Z</time>
      </trkpt>
      <trkpt lat="43.73232" lon="5.94757">
        <ele>363.4</ele>
        <time>2022-10-23T11:13:57Z</time>
      </trkpt>
      <trkpt lat="43.73228" lon="5.94758">
        <ele>363.9</ele>
        <time>2022-10-23T11:14:18Z</time>
      </trkpt>
      <trkpt lat="43.73231" lon="5.94755">
        <ele>362.8</ele>
        <time>2022-10-23T11:14:55Z</time>
      </trkpt>
      <trkpt lat="43.7323" lon="5.94757">
        <ele>363.4</ele>
        <time>2022-10-23T11:15:48Z</time>
      </trkpt>
      <trkpt lat="43.7324" lon="5.9476">
        <ele>363.1</ele>
        <time>2022-10-23T11:16:21Z</time>
      </trkpt>
      <trkpt lat="43.73246" lon="5.94768">
        <ele>364.2</ele>
        <time>2022-10-23T11:16:48Z</time>
      </trkpt>
      <trkpt lat="43.73253" lon="5.94778">
        <ele>365.4</ele>
        <time>2022-10-23T11:17:08Z</time>
      </trkpt>
      <trkpt lat="43.73258" lon="5.9479">
        <ele>366.3</ele>
        <time>2022-10-23T11:17:20Z</time>
      </trkpt>
      <trkpt lat="43.73266" lon="5.94803">
        <ele>366.2</ele>
        <time>2022-10-23T11:17:32Z</time>
      </trkpt>
      <trkpt lat="43.73272" lon="5.94815">
        <ele>365.6</ele>
        <time>2022-10-23T11:17:42Z</time>
      </trkpt>
      <trkpt lat="43.73277" lon="5.94826">
        <ele>365.5</ele>
        <time>2022-10-23T11:17:53Z</time>
      </trkpt>
      <trkpt lat="43.73279" lon="5.94842">
        <ele>366.4</ele>
        <time>2022-10-23T11:18:05Z</time>
      </trkpt>
      <trkpt lat="43.73286" lon="5.94856">
        <ele>365.3</ele>
        <time>2022-10-23T11:18:16Z</time>
      </trkpt>
      <trkpt lat="43.73289" lon="5.94858">
        <ele>364.3</ele>
        <time>2022-10-23T11:18:35Z</time>
      </trkpt>
      <trkpt lat="43.73291" lon="5.94864">
        <ele>364.2</ele>
        <time>2022-10-23T11:19:06Z</time>
      </trkpt>
      <trkpt lat="43.7329" lon="5.94873">
        <ele>365.3</ele>
        <time>2022-10-23T11:19:28Z</time>
      </trkpt>
      <trkpt lat="43.73293" lon="5.94886">
        <ele>365.7</ele>
        <time>2022-10-23T11:19:40Z</time>
      </trkpt>
      <trkpt lat="43.73298" lon="5.94897">
        <ele>364</ele>
        <time>2022-10-23T11:19:51Z</time>
      </trkpt>
      <trkpt lat="43.73299" lon="5.9491">
        <ele>364.1</ele>
        <time>2022-10-23T11:20:09Z</time>
      </trkpt>
      <trkpt lat="43.73301" lon="5.94913">
        <ele>362.9</ele>
        <time>2022-10-23T11:20:38Z</time>
      </trkpt>
      <trkpt lat="43.73301" lon="5.94922">
        <ele>362.6</ele>
        <time>2022-10-23T11:21:31Z</time>
      </trkpt>
      <trkpt lat="43.73296" lon="5.94936">
        <ele>362.3</ele>
        <time>2022-10-23T11:21:47Z</time>
      </trkpt>
      <trkpt lat="43.73288" lon="5.94947">
        <ele>363.2</ele>
        <time>2022-10-23T11:22:11Z</time>
      </trkpt>
      <trkpt lat="43.73277" lon="5.94957">
        <ele>364.2</ele>
        <time>2022-10-23T11:22:30Z</time>
      </trkpt>
      <trkpt lat="43.7327" lon="5.9497">
        <ele>364.2</ele>
        <time>2022-10-23T11:22:41Z</time>
      </trkpt>
      <trkpt lat="43.73263" lon="5.94981">
        <ele>363.9</ele>
        <time>2022-10-23T11:22:53Z</time>
      </trkpt>
      <trkpt lat="43.73255" lon="5.94985">
        <ele>364.5</ele>
        <time>2022-10-23T11:23:20Z</time>
      </trkpt>
      <trkpt lat="43.73244" lon="5.94983">
        <ele>365.8</ele>
        <time>2022-10-23T11:23:36Z</time>
      </trkpt>
      <trkpt lat="43.73233" lon="5.94981">
        <ele>364.8</ele>
        <time>2022-10-23T11:23:46Z</time>
      </trkpt>
      <trkpt lat="43.73225" lon="5.94979">
        <ele>363.9</ele>
        <time>2022-10-23T11:23:59Z</time>
      </trkpt>
      <trkpt lat="43.73212" lon="5.94973">
        <ele>364.5</ele>
        <time>2022-10-23T11:24:11Z</time>
      </trkpt>
      <trkpt lat="43.732" lon="5.94971">
        <ele>365</ele>
        <time>2022-10-23T11:24:21Z</time>
      </trkpt>
      <trkpt lat="43.73188" lon="5.9497">
        <ele>365.9</ele>
        <time>2022-10-23T11:24:32Z</time>
      </trkpt>
      <trkpt lat="43.73176" lon="5.94972">
        <ele>366.1</ele>
        <time>2022-10-23T11:24:44Z</time>
      </trkpt>
      <trkpt lat="43.73164" lon="5.94981">
        <ele>365</ele>
        <time>2022-10-23T11:24:57Z</time>
      </trkpt>
      <trkpt lat="43.73156" lon="5.94993">
        <ele>364</ele>
        <time>2022-10-23T11:25:10Z</time>
      </trkpt>
      <trkpt lat="43.73147" lon="5.95007">
        <ele>362.4</ele>
        <time>2022-10-23T11:25:30Z</time>
      </trkpt>
      <trkpt lat="43.73134" lon="5.95011">
        <ele>362.7</ele>
        <time>2022-10-23T11:25:46Z</time>
      </trkpt>
      <trkpt lat="43.73122" lon="5.95011">
        <ele>362.5</ele>
        <time>2022-10-23T11:25:57Z</time>
      </trkpt>
      <trkpt lat="43.73112" lon="5.95009">
        <ele>362.8</ele>
        <time>2022-10-23T11:26:09Z</time>
      </trkpt>
      <trkpt lat="43.73103" lon="5.95003">
        <ele>363.8</ele>
        <time>2022-10-23T11:26:25Z</time>
      </trkpt>
      <trkpt lat="43.73096" lon="5.94993">
        <ele>366.1</ele>
        <time>2022-10-23T11:26:38Z</time>
      </trkpt>
      <trkpt lat="43.73086" lon="5.94988">
        <ele>364.6</ele>
        <time>2022-10-23T11:26:51Z</time>
      </trkpt>
      <trkpt lat="43.73082" lon="5.94992">
        <ele>363.2</ele>
        <time>2022-10-23T11:28:03Z</time>
      </trkpt>
      <trkpt lat="43.73087" lon="5.95001">
        <ele>362.6</ele>
        <time>2022-10-23T11:28:19Z</time>
      </trkpt>
      <trkpt lat="43.73089" lon="5.95018">
        <ele>365.2</ele>
        <time>2022-10-23T11:28:31Z</time>
      </trkpt>
      <trkpt lat="43.73095" lon="5.95031">
        <ele>365</ele>
        <time>2022-10-23T11:28:42Z</time>
      </trkpt>
      <trkpt lat="43.73095" lon="5.95042">
        <ele>365.8</ele>
        <time>2022-10-23T11:38:11Z</time>
      </trkpt>
      <trkpt lat="43.73097" lon="5.95053">
        <ele>366.3</ele>
        <time>2022-10-23T11:38:43Z</time>
      </trkpt>
      <trkpt lat="43.73101" lon="5.95066">
        <ele>366.8</ele>
        <time>2022-10-23T11:38:58Z</time>
      </trkpt>
      <trkpt lat="43.73105" lon="5.95079">
        <ele>366.6</ele>
        <time>2022-10-23T11:39:08Z</time>
      </trkpt>
      <trkpt lat="43.73111" lon="5.95091">
        <ele>366.5</ele>
        <time>2022-10-23T11:39:18Z</time>
      </trkpt>
      <trkpt lat="43.73124" lon="5.95094">
        <ele>369.7</ele>
        <time>2022-10-23T11:39:30Z</time>
      </trkpt>
      <trkpt lat="43.7313" lon="5.95086">
        <ele>366.9</ele>
        <time>2022-10-23T11:39:39Z</time>
      </trkpt>
      <trkpt lat="43.73142" lon="5.95081">
        <ele>366</ele>
        <time>2022-10-23T11:39:48Z</time>
      </trkpt>
      <trkpt lat="43.73151" lon="5.95078">
        <ele>366.8</ele>
        <time>2022-10-23T11:39:58Z</time>
      </trkpt>
      <trkpt lat="43.7316" lon="5.95075">
        <ele>367.5</ele>
        <time>2022-10-23T11:40:09Z</time>
      </trkpt>
      <trkpt lat="43.73169" lon="5.95067">
        <ele>364.7</ele>
        <time>2022-10-23T11:40:19Z</time>
      </trkpt>
      <trkpt lat="43.73182" lon="5.95065">
        <ele>362.5</ele>
        <time>2022-10-23T11:40:28Z</time>
      </trkpt>
      <trkpt lat="43.73191" lon="5.95067">
        <ele>362.7</ele>
        <time>2022-10-23T11:40:36Z</time>
      </trkpt>
      <trkpt lat="43.73197" lon="5.95078">
        <ele>364.7</ele>
        <time>2022-10-23T11:40:45Z</time>
      </trkpt>
      <trkpt lat="43.73203" lon="5.95089">
        <ele>365.5</ele>
        <time>2022-10-23T11:40:54Z</time>
      </trkpt>
      <trkpt lat="43.73209" lon="5.951">
        <ele>364.9</ele>
        <time>2022-10-23T11:41:03Z</time>
      </trkpt>
      <trkpt lat="43.73214" lon="5.95115">
        <ele>363.1</ele>
        <time>2022-10-23T11:41:12Z</time>
      </trkpt>
      <trkpt lat="43.73212" lon="5.95127">
        <ele>365.2</ele>
        <time>2022-10-23T11:41:21Z</time>
      </trkpt>
      <trkpt lat="43.73209" lon="5.9514">
        <ele>367.2</ele>
        <time>2022-10-23T11:41:31Z</time>
      </trkpt>
      <trkpt lat="43.7321" lon="5.95157">
        <ele>367.2</ele>
        <time>2022-10-23T11:41:40Z</time>
      </trkpt>
      <trkpt lat="43.73218" lon="5.9516">
        <ele>365.4</ele>
        <time>2022-10-23T11:41:51Z</time>
      </trkpt>
      <trkpt lat="43.73227" lon="5.9516">
        <ele>364.4</ele>
        <time>2022-10-23T11:42:06Z</time>
      </trkpt>
      <trkpt lat="43.73236" lon="5.95173">
        <ele>368.7</ele>
        <time>2022-10-23T11:42:21Z</time>
      </trkpt>
      <trkpt lat="43.73244" lon="5.95186">
        <ele>371.9</ele>
        <time>2022-10-23T11:42:35Z</time>
      </trkpt>
      <trkpt lat="43.73248" lon="5.95192">
        <ele>372.8</ele>
        <time>2022-10-23T11:42:59Z</time>
      </trkpt>
      <trkpt lat="43.73258" lon="5.952">
        <ele>378.1</ele>
        <time>2022-10-23T11:43:15Z</time>
      </trkpt>
      <trkpt lat="43.73261" lon="5.95202">
        <ele>380</ele>
        <time>2022-10-23T11:43:38Z</time>
      </trkpt>
      <trkpt lat="43.73263" lon="5.95211">
        <ele>382.2</ele>
        <time>2022-10-23T11:43:52Z</time>
      </trkpt>
      <trkpt lat="43.73266" lon="5.95225">
        <ele>385.6</ele>
        <time>2022-10-23T11:44:09Z</time>
      </trkpt>
      <trkpt lat="43.73267" lon="5.95236">
        <ele>388.1</ele>
        <time>2022-10-23T11:44:23Z</time>
      </trkpt>
      <trkpt lat="43.73265" lon="5.95248">
        <ele>389.8</ele>
        <time>2022-10-23T11:44:35Z</time>
      </trkpt>
      <trkpt lat="43.7326" lon="5.9526">
        <ele>390.7</ele>
        <time>2022-10-23T11:44:48Z</time>
      </trkpt>
      <trkpt lat="43.73258" lon="5.95272">
        <ele>392.8</ele>
        <time>2022-10-23T11:45:01Z</time>
      </trkpt>
      <trkpt lat="43.7326" lon="5.95284">
        <ele>394.6</ele>
        <time>2022-10-23T11:45:16Z</time>
      </trkpt>
      <trkpt lat="43.73257" lon="5.95292">
        <ele>395.8</ele>
        <time>2022-10-23T11:45:53Z</time>
      </trkpt>
      <trkpt lat="43.73254" lon="5.95305">
        <ele>397.9</ele>
        <time>2022-10-23T11:46:10Z</time>
      </trkpt>
      <trkpt lat="43.73253" lon="5.95317">
        <ele>400.4</ele>
        <time>2022-10-23T11:46:27Z</time>
      </trkpt>
      <trkpt lat="43.73251" lon="5.95334">
        <ele>403.7</ele>
        <time>2022-10-23T11:46:44Z</time>
      </trkpt>
      <trkpt lat="43.73258" lon="5.95345">
        <ele>403.3</ele>
        <time>2022-10-23T11:46:57Z</time>
      </trkpt>
      <trkpt lat="43.73262" lon="5.95357">
        <ele>403.5</ele>
        <time>2022-10-23T11:47:09Z</time>
      </trkpt>
      <trkpt lat="43.7326" lon="5.9537">
        <ele>405.8</ele>
        <time>2022-10-23T11:47:22Z</time>
      </trkpt>
      <trkpt lat="43.73267" lon="5.95382">
        <ele>405.4</ele>
        <time>2022-10-23T11:47:33Z</time>
      </trkpt>
      <trkpt lat="43.73269" lon="5.95395">
        <ele>406.1</ele>
        <time>2022-10-23T11:47:44Z</time>
      </trkpt>
      <trkpt lat="43.73272" lon="5.95406">
        <ele>405.7</ele>
        <time>2022-10-23T11:47:57Z</time>
      </trkpt>
      <trkpt lat="43.73272" lon="5.95411">
        <ele>405.6</ele>
        <time>2022-10-23T11:49:01Z</time>
      </trkpt>
      <trkpt lat="43.73273" lon="5.95416">
        <ele>405.5</ele>
        <time>2022-10-23T11:50:17Z</time>
      </trkpt>
      <trkpt lat="43.73267" lon="5.95417">
        <ele>407.4</ele>
        <time>2022-10-23T11:51:43Z</time>
      </trkpt>
      <trkpt lat="43.73267" lon="5.9542">
        <ele>407.7</ele>
        <time>2022-10-23T11:52:35Z</time>
      </trkpt>
      <trkpt lat="43.73268" lon="5.95425">
        <ele>407.2</ele>
        <time>2022-10-23T11:53:22Z</time>
      </trkpt>
      <trkpt lat="43.7327" lon="5.95437">
        <ele>407</ele>
        <time>2022-10-23T11:53:38Z</time>
      </trkpt>
      <trkpt lat="43.73273" lon="5.95449">
        <ele>406.4</ele>
        <time>2022-10-23T11:53:50Z</time>
      </trkpt>
      <trkpt lat="43.73276" lon="5.95462">
        <ele>406.2</ele>
        <time>2022-10-23T11:54:00Z</time>
      </trkpt>
      <trkpt lat="43.73279" lon="5.95474">
        <ele>405.9</ele>
        <time>2022-10-23T11:54:11Z</time>
      </trkpt>
      <trkpt lat="43.73282" lon="5.95488">
        <ele>405.9</ele>
        <time>2022-10-23T11:54:21Z</time>
      </trkpt>
      <trkpt lat="43.73288" lon="5.955">
        <ele>404.7</ele>
        <time>2022-10-23T11:54:31Z</time>
      </trkpt>
      <trkpt lat="43.73293" lon="5.95509">
        <ele>404.1</ele>
        <time>2022-10-23T11:54:40Z</time>
      </trkpt>
      <trkpt lat="43.73299" lon="5.9552">
        <ele>404.3</ele>
        <time>2022-10-23T11:54:49Z</time>
      </trkpt>
      <trkpt lat="43.73301" lon="5.95531">
        <ele>405.5</ele>
        <time>2022-10-23T11:54:58Z</time>
      </trkpt>
      <trkpt lat="43.73304" lon="5.95543">
        <ele>405</ele>
        <time>2022-10-23T11:55:08Z</time>
      </trkpt>
      <trkpt lat="43.73304" lon="5.95555">
        <ele>405.4</ele>
        <time>2022-10-23T11:55:19Z</time>
      </trkpt>
      <trkpt lat="43.73304" lon="5.95566">
        <ele>405.6</ele>
        <time>2022-10-23T11:55:28Z</time>
      </trkpt>
      <trkpt lat="43.73304" lon="5.95579">
        <ele>405.4</ele>
        <time>2022-10-23T11:55:38Z</time>
      </trkpt>
      <trkpt lat="43.73305" lon="5.95593">
        <ele>404.5</ele>
        <time>2022-10-23T11:55:49Z</time>
      </trkpt>
      <trkpt lat="43.73302" lon="5.95607">
        <ele>404.7</ele>
        <time>2022-10-23T11:55:58Z</time>
      </trkpt>
      <trkpt lat="43.73302" lon="5.9562">
        <ele>405.3</ele>
        <time>2022-10-23T11:56:08Z</time>
      </trkpt>
      <trkpt lat="43.73308" lon="5.9563">
        <ele>403.6</ele>
        <time>2022-10-23T11:56:18Z</time>
      </trkpt>
      <trkpt lat="43.73312" lon="5.9564">
        <ele>404.6</ele>
        <time>2022-10-23T11:56:28Z</time>
      </trkpt>
      <trkpt lat="43.73318" lon="5.95651">
        <ele>404.1</ele>
        <time>2022-10-23T11:56:40Z</time>
      </trkpt>
      <trkpt lat="43.7332" lon="5.95663">
        <ele>404.6</ele>
        <time>2022-10-23T11:56:49Z</time>
      </trkpt>
      <trkpt lat="43.73322" lon="5.95675">
        <ele>404.1</ele>
        <time>2022-10-23T11:56:58Z</time>
      </trkpt>
      <trkpt lat="43.7332" lon="5.95688">
        <ele>404.4</ele>
        <time>2022-10-23T11:57:07Z</time>
      </trkpt>
      <trkpt lat="43.73315" lon="5.95699">
        <ele>405.4</ele>
        <time>2022-10-23T11:57:15Z</time>
      </trkpt>
      <trkpt lat="43.73313" lon="5.95712">
        <ele>405.5</ele>
        <time>2022-10-23T11:57:24Z</time>
      </trkpt>
      <trkpt lat="43.7331" lon="5.95724">
        <ele>405.7</ele>
        <time>2022-10-23T11:57:33Z</time>
      </trkpt>
      <trkpt lat="43.73305" lon="5.95736">
        <ele>406.2</ele>
        <time>2022-10-23T11:57:43Z</time>
      </trkpt>
      <trkpt lat="43.7331" lon="5.95748">
        <ele>403.5</ele>
        <time>2022-10-23T11:57:54Z</time>
      </trkpt>
      <trkpt lat="43.73312" lon="5.95763">
        <ele>401.8</ele>
        <time>2022-10-23T11:58:04Z</time>
      </trkpt>
      <trkpt lat="43.73314" lon="5.95773">
        <ele>400.8</ele>
        <time>2022-10-23T11:58:16Z</time>
      </trkpt>
      <trkpt lat="43.7331" lon="5.95778">
        <ele>401.7</ele>
        <time>2022-10-23T11:59:23Z</time>
      </trkpt>
      <trkpt lat="43.73313" lon="5.95783">
        <ele>400</ele>
        <time>2022-10-23T12:00:35Z</time>
      </trkpt>
      <trkpt lat="43.73307" lon="5.95798">
        <ele>399.1</ele>
        <time>2022-10-23T12:01:00Z</time>
      </trkpt>
      <trkpt lat="43.73306" lon="5.9581">
        <ele>397.8</ele>
        <time>2022-10-23T12:01:09Z</time>
      </trkpt>
      <trkpt lat="43.73304" lon="5.95824">
        <ele>397.9</ele>
        <time>2022-10-23T12:01:19Z</time>
      </trkpt>
      <trkpt lat="43.73295" lon="5.95834">
        <ele>399.5</ele>
        <time>2022-10-23T12:01:29Z</time>
      </trkpt>
      <trkpt lat="43.7329" lon="5.95845">
        <ele>399.3</ele>
        <time>2022-10-23T12:01:38Z</time>
      </trkpt>
      <trkpt lat="43.73288" lon="5.9586">
        <ele>398.3</ele>
        <time>2022-10-23T12:01:47Z</time>
      </trkpt>
      <trkpt lat="43.73287" lon="5.95872">
        <ele>398.4</ele>
        <time>2022-10-23T12:01:56Z</time>
      </trkpt>
      <trkpt lat="43.73291" lon="5.95885">
        <ele>397.2</ele>
        <time>2022-10-23T12:02:05Z</time>
      </trkpt>
      <trkpt lat="43.73291" lon="5.95899">
        <ele>396</ele>
        <time>2022-10-23T12:02:14Z</time>
      </trkpt>
      <trkpt lat="43.73287" lon="5.95911">
        <ele>395.7</ele>
        <time>2022-10-23T12:02:24Z</time>
      </trkpt>
      <trkpt lat="43.73278" lon="5.95924">
        <ele>395.6</ele>
        <time>2022-10-23T12:02:34Z</time>
      </trkpt>
      <trkpt lat="43.73274" lon="5.95937">
        <ele>394.8</ele>
        <time>2022-10-23T12:02:43Z</time>
      </trkpt>
      <trkpt lat="43.73273" lon="5.9595">
        <ele>393.8</ele>
        <time>2022-10-23T12:02:52Z</time>
      </trkpt>
      <trkpt lat="43.73271" lon="5.95964">
        <ele>394.6</ele>
        <time>2022-10-23T12:03:01Z</time>
      </trkpt>
      <trkpt lat="43.73271" lon="5.95979">
        <ele>395</ele>
        <time>2022-10-23T12:03:10Z</time>
      </trkpt>
      <trkpt lat="43.73271" lon="5.95993">
        <ele>395.4</ele>
        <time>2022-10-23T12:03:19Z</time>
      </trkpt>
      <trkpt lat="43.7327" lon="5.96005">
        <ele>395.9</ele>
        <time>2022-10-23T12:03:28Z</time>
      </trkpt>
      <trkpt lat="43.73274" lon="5.9602">
        <ele>394.7</ele>
        <time>2022-10-23T12:03:38Z</time>
      </trkpt>
      <trkpt lat="43.73276" lon="5.96033">
        <ele>394.3</ele>
        <time>2022-10-23T12:03:47Z</time>
      </trkpt>
      <trkpt lat="43.73277" lon="5.96047">
        <ele>393.4</ele>
        <time>2022-10-23T12:03:56Z</time>
      </trkpt>
      <trkpt lat="43.73278" lon="5.96061">
        <ele>392.4</ele>
        <time>2022-10-23T12:04:05Z</time>
      </trkpt>
      <trkpt lat="43.73273" lon="5.96073">
        <ele>392.3</ele>
        <time>2022-10-23T12:04:15Z</time>
      </trkpt>
      <trkpt lat="43.73267" lon="5.96084">
        <ele>392.4</ele>
        <time>2022-10-23T12:04:24Z</time>
      </trkpt>
      <trkpt lat="43.73265" lon="5.96097">
        <ele>391.6</ele>
        <time>2022-10-23T12:04:33Z</time>
      </trkpt>
      <trkpt lat="43.73269" lon="5.96108">
        <ele>389.8</ele>
        <time>2022-10-23T12:04:43Z</time>
      </trkpt>
      <trkpt lat="43.73268" lon="5.96119">
        <ele>389</ele>
        <time>2022-10-23T12:04:57Z</time>
      </trkpt>
      <trkpt lat="43.73261" lon="5.96127">
        <ele>389</ele>
        <time>2022-10-23T12:05:06Z</time>
      </trkpt>
      <trkpt lat="43.73251" lon="5.96133">
        <ele>388.9</ele>
        <time>2022-10-23T12:05:15Z</time>
      </trkpt>
      <trkpt lat="43.73242" lon="5.96137">
        <ele>388.9</ele>
        <time>2022-10-23T12:05:26Z</time>
      </trkpt>
      <trkpt lat="43.73235" lon="5.96147">
        <ele>387.9</ele>
        <time>2022-10-23T12:05:37Z</time>
      </trkpt>
      <trkpt lat="43.73227" lon="5.96155">
        <ele>386.9</ele>
        <time>2022-10-23T12:05:53Z</time>
      </trkpt>
      <trkpt lat="43.73229" lon="5.96163">
        <ele>385.5</ele>
        <time>2022-10-23T12:06:06Z</time>
      </trkpt>
      <trkpt lat="43.73238" lon="5.96162">
        <ele>385.2</ele>
        <time>2022-10-23T12:06:17Z</time>
      </trkpt>
      <trkpt lat="43.73246" lon="5.96164">
        <ele>384.5</ele>
        <time>2022-10-23T12:06:38Z</time>
      </trkpt>
      <trkpt lat="43.73257" lon="5.96169">
        <ele>383.2</ele>
        <time>2022-10-23T12:06:51Z</time>
      </trkpt>
      <trkpt lat="43.73267" lon="5.96171">
        <ele>382.3</ele>
        <time>2022-10-23T12:07:03Z</time>
      </trkpt>
      <trkpt lat="43.73276" lon="5.96173">
        <ele>381.5</ele>
        <time>2022-10-23T12:07:13Z</time>
      </trkpt>
      <trkpt lat="43.73284" lon="5.96175">
        <ele>380.5</ele>
        <time>2022-10-23T12:07:23Z</time>
      </trkpt>
      <trkpt lat="43.73293" lon="5.96175">
        <ele>379.6</ele>
        <time>2022-10-23T12:07:33Z</time>
      </trkpt>
      <trkpt lat="43.73302" lon="5.96178">
        <ele>378.5</ele>
        <time>2022-10-23T12:07:42Z</time>
      </trkpt>
      <trkpt lat="43.73309" lon="5.96178">
        <ele>377.9</ele>
        <time>2022-10-23T12:07:51Z</time>
      </trkpt>
      <trkpt lat="43.73318" lon="5.96183">
        <ele>376.9</ele>
        <time>2022-10-23T12:08:01Z</time>
      </trkpt>
      <trkpt lat="43.73315" lon="5.96194">
        <ele>376.4</ele>
        <time>2022-10-23T12:08:17Z</time>
      </trkpt>
      <trkpt lat="43.7331" lon="5.96208">
        <ele>375.7</ele>
        <time>2022-10-23T12:08:28Z</time>
      </trkpt>
      <trkpt lat="43.73307" lon="5.96221">
        <ele>375</ele>
        <time>2022-10-23T12:08:39Z</time>
      </trkpt>
      <trkpt lat="43.73308" lon="5.96233">
        <ele>374</ele>
        <time>2022-10-23T12:08:51Z</time>
      </trkpt>
      <trkpt lat="43.73305" lon="5.96246">
        <ele>373.4</ele>
        <time>2022-10-23T12:09:15Z</time>
      </trkpt>
      <trkpt lat="43.73307" lon="5.96256">
        <ele>372.4</ele>
        <time>2022-10-23T12:09:26Z</time>
      </trkpt>
      <trkpt lat="43.73304" lon="5.96267">
        <ele>371.8</ele>
        <time>2022-10-23T12:09:36Z</time>
      </trkpt>
      <trkpt lat="43.73296" lon="5.96276">
        <ele>371.5</ele>
        <time>2022-10-23T12:09:47Z</time>
      </trkpt>
      <trkpt lat="43.73283" lon="5.96285">
        <ele>371.2</ele>
        <time>2022-10-23T12:09:58Z</time>
      </trkpt>
      <trkpt lat="43.73275" lon="5.9628">
        <ele>371.6</ele>
        <time>2022-10-23T12:10:09Z</time>
      </trkpt>
      <trkpt lat="43.73266" lon="5.96272">
        <ele>371.7</ele>
        <time>2022-10-23T12:10:21Z</time>
      </trkpt>
      <trkpt lat="43.73256" lon="5.96272">
        <ele>371.2</ele>
        <time>2022-10-23T12:10:36Z</time>
      </trkpt>
      <trkpt lat="43.73244" lon="5.96287">
        <ele>369.4</ele>
        <time>2022-10-23T12:10:49Z</time>
      </trkpt>
      <trkpt lat="43.73231" lon="5.96298">
        <ele>368.7</ele>
        <time>2022-10-23T12:10:58Z</time>
      </trkpt>
      <trkpt lat="43.7322" lon="5.96302">
        <ele>368.5</ele>
        <time>2022-10-23T12:11:07Z</time>
      </trkpt>
      <trkpt lat="43.73211" lon="5.96302">
        <ele>368.5</ele>
        <time>2022-10-23T12:11:16Z</time>
      </trkpt>
      <trkpt lat="43.73198" lon="5.96297">
        <ele>369</ele>
        <time>2022-10-23T12:11:27Z</time>
      </trkpt>
      <trkpt lat="43.73187" lon="5.96296">
        <ele>368.2</ele>
        <time>2022-10-23T12:11:38Z</time>
      </trkpt>
      <trkpt lat="43.73176" lon="5.96309">
        <ele>366.3</ele>
        <time>2022-10-23T12:11:51Z</time>
      </trkpt>
      <trkpt lat="43.73173" lon="5.96306">
        <ele>366.4</ele>
        <time>2022-10-23T12:17:22Z</time>
      </trkpt>
      <trkpt lat="43.73172" lon="5.963">
        <ele>366.3</ele>
        <time>2022-10-23T12:18:33Z</time>
      </trkpt>
      <trkpt lat="43.73172" lon="5.96286">
        <ele>366.3</ele>
        <time>2022-10-23T12:18:51Z</time>
      </trkpt>
      <trkpt lat="43.73176" lon="5.96274">
        <ele>367.1</ele>
        <time>2022-10-23T12:19:02Z</time>
      </trkpt>
      <trkpt lat="43.73178" lon="5.9626">
        <ele>368.1</ele>
        <time>2022-10-23T12:19:15Z</time>
      </trkpt>
      <trkpt lat="43.73171" lon="5.96244">
        <ele>367.8</ele>
        <time>2022-10-23T12:19:26Z</time>
      </trkpt>
      <trkpt lat="43.73162" lon="5.96237">
        <ele>367.9</ele>
        <time>2022-10-23T12:19:38Z</time>
      </trkpt>
      <trkpt lat="43.73151" lon="5.96235">
        <ele>368.5</ele>
        <time>2022-10-23T12:19:50Z</time>
      </trkpt>
      <trkpt lat="43.73136" lon="5.96246">
        <ele>367</ele>
        <time>2022-10-23T12:20:04Z</time>
      </trkpt>
      <trkpt lat="43.73123" lon="5.9626">
        <ele>365.3</ele>
        <time>2022-10-23T12:20:14Z</time>
      </trkpt>
      <trkpt lat="43.73116" lon="5.96271">
        <ele>364.7</ele>
        <time>2022-10-23T12:20:24Z</time>
      </trkpt>
      <trkpt lat="43.73108" lon="5.96281">
        <ele>364.8</ele>
        <time>2022-10-23T12:20:34Z</time>
      </trkpt>
      <trkpt lat="43.73096" lon="5.96291">
        <ele>364.8</ele>
        <time>2022-10-23T12:20:47Z</time>
      </trkpt>
      <trkpt lat="43.73087" lon="5.96293">
        <ele>365.8</ele>
        <time>2022-10-23T12:21:01Z</time>
      </trkpt>
      <trkpt lat="43.73075" lon="5.96295">
        <ele>366.5</ele>
        <time>2022-10-23T12:21:17Z</time>
      </trkpt>
      <trkpt lat="43.73063" lon="5.96298">
        <ele>366.7</ele>
        <time>2022-10-23T12:21:28Z</time>
      </trkpt>
      <trkpt lat="43.73051" lon="5.96303">
        <ele>366.8</ele>
        <time>2022-10-23T12:21:39Z</time>
      </trkpt>
      <trkpt lat="43.73038" lon="5.96307">
        <ele>367</ele>
        <time>2022-10-23T12:21:51Z</time>
      </trkpt>
      <trkpt lat="43.73026" lon="5.96311">
        <ele>366.9</ele>
        <time>2022-10-23T12:22:04Z</time>
      </trkpt>
      <trkpt lat="43.73012" lon="5.96319">
        <ele>366.2</ele>
        <time>2022-10-23T12:22:17Z</time>
      </trkpt>
      <trkpt lat="43.72997" lon="5.96324">
        <ele>366.3</ele>
        <time>2022-10-23T12:22:30Z</time>
      </trkpt>
      <trkpt lat="43.72986" lon="5.96327">
        <ele>366.9</ele>
        <time>2022-10-23T12:22:45Z</time>
      </trkpt>
      <trkpt lat="43.72975" lon="5.96329">
        <ele>367.2</ele>
        <time>2022-10-23T12:22:58Z</time>
      </trkpt>
      <trkpt lat="43.72962" lon="5.9633">
        <ele>368.5</ele>
        <time>2022-10-23T12:23:14Z</time>
      </trkpt>
      <trkpt lat="43.72946" lon="5.96334">
        <ele>368.7</ele>
        <time>2022-10-23T12:23:29Z</time>
      </trkpt>
      <trkpt lat="43.72929" lon="5.96344">
        <ele>367.6</ele>
        <time>2022-10-23T12:23:45Z</time>
      </trkpt>
      <trkpt lat="43.72918" lon="5.96346">
        <ele>368.2</ele>
        <time>2022-10-23T12:23:59Z</time>
      </trkpt>
      <trkpt lat="43.72903" lon="5.96347">
        <ele>368.9</ele>
        <time>2022-10-23T12:24:14Z</time>
      </trkpt>
      <trkpt lat="43.72888" lon="5.96347">
        <ele>369.6</ele>
        <time>2022-10-23T12:24:26Z</time>
      </trkpt>
      <trkpt lat="43.72867" lon="5.96356">
        <ele>367.2</ele>
        <time>2022-10-23T12:24:38Z</time>
      </trkpt>
      <trkpt lat="43.72854" lon="5.96354">
        <ele>367.7</ele>
        <time>2022-10-23T12:24:49Z</time>
      </trkpt>
      <trkpt lat="43.72842" lon="5.96356">
        <ele>367.2</ele>
        <time>2022-10-23T12:24:59Z</time>
      </trkpt>
      <trkpt lat="43.72828" lon="5.96357">
        <ele>366.2</ele>
        <time>2022-10-23T12:25:10Z</time>
      </trkpt>
      <trkpt lat="43.72817" lon="5.96352">
        <ele>366.2</ele>
        <time>2022-10-23T12:25:19Z</time>
      </trkpt>
      <trkpt lat="43.72807" lon="5.96349">
        <ele>365.8</ele>
        <time>2022-10-23T12:25:28Z</time>
      </trkpt>
      <trkpt lat="43.72797" lon="5.96342">
        <ele>366.3</ele>
        <time>2022-10-23T12:25:37Z</time>
      </trkpt>
      <trkpt lat="43.72789" lon="5.96336">
        <ele>367.1</ele>
        <time>2022-10-23T12:25:46Z</time>
      </trkpt>
      <trkpt lat="43.72779" lon="5.96331">
        <ele>367.8</ele>
        <time>2022-10-23T12:25:58Z</time>
      </trkpt>
      <trkpt lat="43.72767" lon="5.96328">
        <ele>367.7</ele>
        <time>2022-10-23T12:26:08Z</time>
      </trkpt>
      <trkpt lat="43.72755" lon="5.96327">
        <ele>367.1</ele>
        <time>2022-10-23T12:26:17Z</time>
      </trkpt>
      <trkpt lat="43.72745" lon="5.9632">
        <ele>366.8</ele>
        <time>2022-10-23T12:26:27Z</time>
      </trkpt>
      <trkpt lat="43.72737" lon="5.96313">
        <ele>366.9</ele>
        <time>2022-10-23T12:26:37Z</time>
      </trkpt>
      <trkpt lat="43.7273" lon="5.96311">
        <ele>366.6</ele>
        <time>2022-10-23T12:26:52Z</time>
      </trkpt>
      <trkpt lat="43.72715" lon="5.96316">
        <ele>365.5</ele>
        <time>2022-10-23T12:27:06Z</time>
      </trkpt>
      <trkpt lat="43.72702" lon="5.96318">
        <ele>366.5</ele>
        <time>2022-10-23T12:27:19Z</time>
      </trkpt>
      <trkpt lat="43.72688" lon="5.96322">
        <ele>365.9</ele>
        <time>2022-10-23T12:27:36Z</time>
      </trkpt>
      <trkpt lat="43.72676" lon="5.96322">
        <ele>364.9</ele>
        <time>2022-10-23T12:28:01Z</time>
      </trkpt>
      <trkpt lat="43.72679" lon="5.96323">
        <ele>364.9</ele>
        <time>2022-10-23T12:28:54Z</time>
      </trkpt>
      <trkpt lat="43.7268" lon="5.96325">
        <ele>364.5</ele>
        <time>2022-10-23T12:29:45Z</time>
      </trkpt>
      <trkpt lat="43.72678" lon="5.96325">
        <ele>364.5</ele>
        <time>2022-10-23T12:30:44Z</time>
      </trkpt>
      <trkpt lat="43.72683" lon="5.96323">
        <ele>365.2</ele>
        <time>2022-10-23T12:31:18Z</time>
      </trkpt>
      <trkpt lat="43.72681" lon="5.96325">
        <ele>364.6</ele>
        <time>2022-10-23T12:31:59Z</time>
      </trkpt>
      <trkpt lat="43.72678" lon="5.96329">
        <ele>363.7</ele>
        <time>2022-10-23T12:32:43Z</time>
      </trkpt>
      <trkpt lat="43.72682" lon="5.96324">
        <ele>365</ele>
        <time>2022-10-23T12:33:23Z</time>
      </trkpt>
      <trkpt lat="43.72685" lon="5.96322">
        <ele>365.6</ele>
        <time>2022-10-23T12:34:12Z</time>
      </trkpt>
      <trkpt lat="43.72683" lon="5.96325">
        <ele>364.9</ele>
        <time>2022-10-23T12:34:50Z</time>
      </trkpt>
      <trkpt lat="43.72686" lon="5.96325">
        <ele>365</ele>
        <time>2022-10-23T12:35:21Z</time>
      </trkpt>
      <trkpt lat="43.72678" lon="5.96325">
        <ele>364.3</ele>
        <time>2022-10-23T12:35:51Z</time>
      </trkpt>
      <trkpt lat="43.72665" lon="5.9632">
        <ele>364.4</ele>
        <time>2022-10-23T12:36:06Z</time>
      </trkpt>
      <trkpt lat="43.72657" lon="5.96314">
        <ele>365.1</ele>
        <time>2022-10-23T12:36:14Z</time>
      </trkpt>
      <trkpt lat="43.72649" lon="5.96306">
        <ele>366.9</ele>
        <time>2022-10-23T12:36:23Z</time>
      </trkpt>
      <trkpt lat="43.7264" lon="5.963">
        <ele>368.7</ele>
        <time>2022-10-23T12:36:33Z</time>
      </trkpt>
      <trkpt lat="43.7263" lon="5.96294">
        <ele>370.5</ele>
        <time>2022-10-23T12:36:43Z</time>
      </trkpt>
      <trkpt lat="43.7262" lon="5.96291">
        <ele>370.9</ele>
        <time>2022-10-23T12:36:53Z</time>
      </trkpt>
      <trkpt lat="43.72608" lon="5.9629">
        <ele>371</ele>
        <time>2022-10-23T12:37:02Z</time>
      </trkpt>
      <trkpt lat="43.72598" lon="5.9629">
        <ele>370.7</ele>
        <time>2022-10-23T12:37:11Z</time>
      </trkpt>
      <trkpt lat="43.72589" lon="5.96285">
        <ele>371.7</ele>
        <time>2022-10-23T12:37:20Z</time>
      </trkpt>
      <trkpt lat="43.72579" lon="5.9628">
        <ele>371.9</ele>
        <time>2022-10-23T12:37:29Z</time>
      </trkpt>
      <trkpt lat="43.72571" lon="5.96269">
        <ele>371.9</ele>
        <time>2022-10-23T12:37:39Z</time>
      </trkpt>
      <trkpt lat="43.72564" lon="5.96258">
        <ele>372.1</ele>
        <time>2022-10-23T12:37:47Z</time>
      </trkpt>
      <trkpt lat="43.7256" lon="5.96247">
        <ele>372.8</ele>
        <time>2022-10-23T12:37:56Z</time>
      </trkpt>
      <trkpt lat="43.72552" lon="5.96239">
        <ele>372.8</ele>
        <time>2022-10-23T12:38:06Z</time>
      </trkpt>
      <trkpt lat="43.72543" lon="5.96237">
        <ele>373.1</ele>
        <time>2022-10-23T12:38:16Z</time>
      </trkpt>
      <trkpt lat="43.72539" lon="5.96238">
        <ele>373</ele>
        <time>2022-10-23T12:38:41Z</time>
      </trkpt>
      <trkpt lat="43.72538" lon="5.96242">
        <ele>372.4</ele>
        <time>2022-10-23T12:39:07Z</time>
      </trkpt>
      <trkpt lat="43.72535" lon="5.96261">
        <ele>369.7</ele>
        <time>2022-10-23T12:39:19Z</time>
      </trkpt>
      <trkpt lat="43.72538" lon="5.96279">
        <ele>367</ele>
        <time>2022-10-23T12:39:33Z</time>
      </trkpt>
      <trkpt lat="43.72525" lon="5.96287">
        <ele>364.9</ele>
        <time>2022-10-23T12:39:47Z</time>
      </trkpt>
      <trkpt lat="43.72518" lon="5.96299">
        <ele>363.9</ele>
        <time>2022-10-23T12:39:59Z</time>
      </trkpt>
      <trkpt lat="43.72504" lon="5.9631">
        <ele>366</ele>
        <time>2022-10-23T12:40:12Z</time>
      </trkpt>
      <trkpt lat="43.72491" lon="5.96316">
        <ele>366.3</ele>
        <time>2022-10-23T12:40:23Z</time>
      </trkpt>
      <trkpt lat="43.72474" lon="5.96316">
        <ele>368.6</ele>
        <time>2022-10-23T12:40:37Z</time>
      </trkpt>
      <trkpt lat="43.72465" lon="5.96315">
        <ele>367.8</ele>
        <time>2022-10-23T12:40:48Z</time>
      </trkpt>
      <trkpt lat="43.72456" lon="5.96307">
        <ele>369.4</ele>
        <time>2022-10-23T12:40:57Z</time>
      </trkpt>
      <trkpt lat="43.72443" lon="5.96302">
        <ele>369.6</ele>
        <time>2022-10-23T12:41:06Z</time>
      </trkpt>
      <trkpt lat="43.72434" lon="5.96297">
        <ele>370.5</ele>
        <time>2022-10-23T12:41:17Z</time>
      </trkpt>
      <trkpt lat="43.72423" lon="5.96293">
        <ele>371.2</ele>
        <time>2022-10-23T12:41:28Z</time>
      </trkpt>
      <trkpt lat="43.72402" lon="5.96296">
        <ele>369</ele>
        <time>2022-10-23T12:41:45Z</time>
      </trkpt>
      <trkpt lat="43.7239" lon="5.96296">
        <ele>369.1</ele>
        <time>2022-10-23T12:41:57Z</time>
      </trkpt>
      <trkpt lat="43.72378" lon="5.96302">
        <ele>367.7</ele>
        <time>2022-10-23T12:42:12Z</time>
      </trkpt>
      <trkpt lat="43.7236" lon="5.96318">
        <ele>365.5</ele>
        <time>2022-10-23T12:42:25Z</time>
      </trkpt>
      <trkpt lat="43.72347" lon="5.96329">
        <ele>366</ele>
        <time>2022-10-23T12:42:36Z</time>
      </trkpt>
      <trkpt lat="43.72341" lon="5.9633">
        <ele>367.1</ele>
        <time>2022-10-23T12:42:56Z</time>
      </trkpt>
      <trkpt lat="43.72344" lon="5.96329">
        <ele>366.6</ele>
        <time>2022-10-23T12:44:14Z</time>
      </trkpt>
      <trkpt lat="43.72344" lon="5.96328">
        <ele>367.4</ele>
        <time>2022-10-23T12:44:43Z</time>
      </trkpt>
      <trkpt lat="43.72346" lon="5.96328">
        <ele>366.9</ele>
        <time>2022-10-23T12:48:47Z</time>
      </trkpt>
      <trkpt lat="43.72354" lon="5.96326">
        <ele>364.7</ele>
        <time>2022-10-23T12:49:07Z</time>
      </trkpt>
      <trkpt lat="43.72363" lon="5.9632">
        <ele>364.1</ele>
        <time>2022-10-23T12:49:30Z</time>
      </trkpt>
      <trkpt lat="43.72369" lon="5.96313">
        <ele>365.2</ele>
        <time>2022-10-23T12:49:39Z</time>
      </trkpt>
      <trkpt lat="43.72378" lon="5.96308">
        <ele>365.3</ele>
        <time>2022-10-23T12:49:48Z</time>
      </trkpt>
      <trkpt lat="43.72385" lon="5.963">
        <ele>367.4</ele>
        <time>2022-10-23T12:49:59Z</time>
      </trkpt>
      <trkpt lat="43.7239" lon="5.963">
        <ele>366.9</ele>
        <time>2022-10-23T12:50:19Z</time>
      </trkpt>
      <trkpt lat="43.72401" lon="5.96295">
        <ele>369.6</ele>
        <time>2022-10-23T12:50:33Z</time>
      </trkpt>
      <trkpt lat="43.72409" lon="5.96291">
        <ele>371.5</ele>
        <time>2022-10-23T12:50:42Z</time>
      </trkpt>
      <trkpt lat="43.72418" lon="5.96292">
        <ele>371</ele>
        <time>2022-10-23T12:50:51Z</time>
      </trkpt>
      <trkpt lat="43.72427" lon="5.96294">
        <ele>371.1</ele>
        <time>2022-10-23T12:51:13Z</time>
      </trkpt>
      <trkpt lat="43.7244" lon="5.96299">
        <ele>370.2</ele>
        <time>2022-10-23T12:51:22Z</time>
      </trkpt>
      <trkpt lat="43.72448" lon="5.96306">
        <ele>368.6</ele>
        <time>2022-10-23T12:51:31Z</time>
      </trkpt>
      <trkpt lat="43.72456" lon="5.96311">
        <ele>368.1</ele>
        <time>2022-10-23T12:51:42Z</time>
      </trkpt>
      <trkpt lat="43.72466" lon="5.96312">
        <ele>369.5</ele>
        <time>2022-10-23T12:52:02Z</time>
      </trkpt>
      <trkpt lat="43.72478" lon="5.96317">
        <ele>367.9</ele>
        <time>2022-10-23T12:52:11Z</time>
      </trkpt>
      <trkpt lat="43.72486" lon="5.96314">
        <ele>367.9</ele>
        <time>2022-10-23T12:52:19Z</time>
      </trkpt>
      <trkpt lat="43.72495" lon="5.96312">
        <ele>367.4</ele>
        <time>2022-10-23T12:52:27Z</time>
      </trkpt>
      <trkpt lat="43.72503" lon="5.96307">
        <ele>367.6</ele>
        <time>2022-10-23T12:52:36Z</time>
      </trkpt>
      <trkpt lat="43.72511" lon="5.96302">
        <ele>365.5</ele>
        <time>2022-10-23T12:52:45Z</time>
      </trkpt>
      <trkpt lat="43.72517" lon="5.96296">
        <ele>364.8</ele>
        <time>2022-10-23T12:53:05Z</time>
      </trkpt>
      <trkpt lat="43.72524" lon="5.96287">
        <ele>365.1</ele>
        <time>2022-10-23T12:53:18Z</time>
      </trkpt>
      <trkpt lat="43.72532" lon="5.96278">
        <ele>367.2</ele>
        <time>2022-10-23T12:53:27Z</time>
      </trkpt>
      <trkpt lat="43.72533" lon="5.96262">
        <ele>369.5</ele>
        <time>2022-10-23T12:53:36Z</time>
      </trkpt>
      <trkpt lat="43.72532" lon="5.96252">
        <ele>370.9</ele>
        <time>2022-10-23T12:53:48Z</time>
      </trkpt>
      <trkpt lat="43.72537" lon="5.96238">
        <ele>373</ele>
        <time>2022-10-23T12:54:00Z</time>
      </trkpt>
      <trkpt lat="43.72532" lon="5.96238">
        <ele>373.2</ele>
        <time>2022-10-23T12:55:23Z</time>
      </trkpt>
      <trkpt lat="43.72521" lon="5.96232">
        <ele>373.8</ele>
        <time>2022-10-23T12:55:41Z</time>
      </trkpt>
      <trkpt lat="43.72508" lon="5.96222">
        <ele>374.7</ele>
        <time>2022-10-23T12:55:51Z</time>
      </trkpt>
      <trkpt lat="43.72501" lon="5.9621">
        <ele>375.9</ele>
        <time>2022-10-23T12:56:00Z</time>
      </trkpt>
      <trkpt lat="43.72495" lon="5.962">
        <ele>376.5</ele>
        <time>2022-10-23T12:56:09Z</time>
      </trkpt>
      <trkpt lat="43.72487" lon="5.96191">
        <ele>376.4</ele>
        <time>2022-10-23T12:56:18Z</time>
      </trkpt>
      <trkpt lat="43.72481" lon="5.96182">
        <ele>376.8</ele>
        <time>2022-10-23T12:56:27Z</time>
      </trkpt>
      <trkpt lat="43.72476" lon="5.96169">
        <ele>377.8</ele>
        <time>2022-10-23T12:56:36Z</time>
      </trkpt>
      <trkpt lat="43.72472" lon="5.96159">
        <ele>377.3</ele>
        <time>2022-10-23T12:56:44Z</time>
      </trkpt>
      <trkpt lat="43.72471" lon="5.96144">
        <ele>378</ele>
        <time>2022-10-23T12:56:53Z</time>
      </trkpt>
      <trkpt lat="43.72469" lon="5.96128">
        <ele>379</ele>
        <time>2022-10-23T12:57:02Z</time>
      </trkpt>
      <trkpt lat="43.72469" lon="5.96115">
        <ele>380</ele>
        <time>2022-10-23T12:57:12Z</time>
      </trkpt>
      <trkpt lat="43.72468" lon="5.96103">
        <ele>381.1</ele>
        <time>2022-10-23T12:57:21Z</time>
      </trkpt>
      <trkpt lat="43.72467" lon="5.96088">
        <ele>382.6</ele>
        <time>2022-10-23T12:57:31Z</time>
      </trkpt>
      <trkpt lat="43.72466" lon="5.96073">
        <ele>383.6</ele>
        <time>2022-10-23T12:57:42Z</time>
      </trkpt>
      <trkpt lat="43.72462" lon="5.96058">
        <ele>384.2</ele>
        <time>2022-10-23T12:57:53Z</time>
      </trkpt>
      <trkpt lat="43.72461" lon="5.96045">
        <ele>385.3</ele>
        <time>2022-10-23T12:58:03Z</time>
      </trkpt>
      <trkpt lat="43.72455" lon="5.96034">
        <ele>385.9</ele>
        <time>2022-10-23T12:58:13Z</time>
      </trkpt>
      <trkpt lat="43.7245" lon="5.96021">
        <ele>386.4</ele>
        <time>2022-10-23T12:58:23Z</time>
      </trkpt>
      <trkpt lat="43.72443" lon="5.9601">
        <ele>386.3</ele>
        <time>2022-10-23T12:58:32Z</time>
      </trkpt>
      <trkpt lat="43.72436" lon="5.96002">
        <ele>387</ele>
        <time>2022-10-23T12:58:41Z</time>
      </trkpt>
      <trkpt lat="43.72431" lon="5.95992">
        <ele>388.2</ele>
        <time>2022-10-23T12:58:50Z</time>
      </trkpt>
      <trkpt lat="43.72427" lon="5.9598">
        <ele>389.4</ele>
        <time>2022-10-23T12:59:00Z</time>
      </trkpt>
      <trkpt lat="43.72422" lon="5.95968">
        <ele>389.8</ele>
        <time>2022-10-23T12:59:09Z</time>
      </trkpt>
      <trkpt lat="43.72417" lon="5.95955">
        <ele>389.8</ele>
        <time>2022-10-23T12:59:18Z</time>
      </trkpt>
      <trkpt lat="43.72414" lon="5.95943">
        <ele>391.2</ele>
        <time>2022-10-23T12:59:27Z</time>
      </trkpt>
      <trkpt lat="43.72407" lon="5.95931">
        <ele>392.9</ele>
        <time>2022-10-23T12:59:36Z</time>
      </trkpt>
      <trkpt lat="43.724" lon="5.95921">
        <ele>393.5</ele>
        <time>2022-10-23T12:59:46Z</time>
      </trkpt>
      <trkpt lat="43.72394" lon="5.95912">
        <ele>393.5</ele>
        <time>2022-10-23T12:59:56Z</time>
      </trkpt>
      <trkpt lat="43.72389" lon="5.95901">
        <ele>393.2</ele>
        <time>2022-10-23T13:00:07Z</time>
      </trkpt>
      <trkpt lat="43.72383" lon="5.95889">
        <ele>395.1</ele>
        <time>2022-10-23T13:00:17Z</time>
      </trkpt>
      <trkpt lat="43.72377" lon="5.95876">
        <ele>397.1</ele>
        <time>2022-10-23T13:00:28Z</time>
      </trkpt>
      <trkpt lat="43.72374" lon="5.95862">
        <ele>397.8</ele>
        <time>2022-10-23T13:00:37Z</time>
      </trkpt>
      <trkpt lat="43.72365" lon="5.95852">
        <ele>397.9</ele>
        <time>2022-10-23T13:00:47Z</time>
      </trkpt>
      <trkpt lat="43.72359" lon="5.95841">
        <ele>398.3</ele>
        <time>2022-10-23T13:00:56Z</time>
      </trkpt>
      <trkpt lat="43.72356" lon="5.95829">
        <ele>400.1</ele>
        <time>2022-10-23T13:01:06Z</time>
      </trkpt>
      <trkpt lat="43.7235" lon="5.9582">
        <ele>401.4</ele>
        <time>2022-10-23T13:01:15Z</time>
      </trkpt>
      <trkpt lat="43.72344" lon="5.95809">
        <ele>402</ele>
        <time>2022-10-23T13:01:25Z</time>
      </trkpt>
      <trkpt lat="43.72339" lon="5.95796">
        <ele>402.6</ele>
        <time>2022-10-23T13:01:35Z</time>
      </trkpt>
      <trkpt lat="43.72333" lon="5.95785">
        <ele>402.2</ele>
        <time>2022-10-23T13:01:45Z</time>
      </trkpt>
      <trkpt lat="43.72322" lon="5.9578">
        <ele>402.6</ele>
        <time>2022-10-23T13:01:54Z</time>
      </trkpt>
      <trkpt lat="43.72312" lon="5.95776">
        <ele>402.7</ele>
        <time>2022-10-23T13:02:04Z</time>
      </trkpt>
      <trkpt lat="43.72302" lon="5.9577">
        <ele>404.1</ele>
        <time>2022-10-23T13:02:15Z</time>
      </trkpt>
      <trkpt lat="43.72292" lon="5.95765">
        <ele>405.6</ele>
        <time>2022-10-23T13:02:27Z</time>
      </trkpt>
      <trkpt lat="43.72281" lon="5.9576">
        <ele>406.3</ele>
        <time>2022-10-23T13:02:39Z</time>
      </trkpt>
      <trkpt lat="43.72267" lon="5.95757">
        <ele>406.9</ele>
        <time>2022-10-23T13:02:50Z</time>
      </trkpt>
      <trkpt lat="43.72257" lon="5.95754">
        <ele>407.5</ele>
        <time>2022-10-23T13:03:02Z</time>
      </trkpt>
      <trkpt lat="43.72248" lon="5.95747">
        <ele>409</ele>
        <time>2022-10-23T13:03:14Z</time>
      </trkpt>
      <trkpt lat="43.72235" lon="5.95743">
        <ele>410.2</ele>
        <time>2022-10-23T13:03:26Z</time>
      </trkpt>
      <trkpt lat="43.72226" lon="5.95739">
        <ele>411.3</ele>
        <time>2022-10-23T13:03:38Z</time>
      </trkpt>
      <trkpt lat="43.72215" lon="5.95736">
        <ele>412.5</ele>
        <time>2022-10-23T13:03:51Z</time>
      </trkpt>
      <trkpt lat="43.72204" lon="5.95731">
        <ele>414.1</ele>
        <time>2022-10-23T13:04:05Z</time>
      </trkpt>
      <trkpt lat="43.72192" lon="5.95728">
        <ele>415.5</ele>
        <time>2022-10-23T13:04:18Z</time>
      </trkpt>
      <trkpt lat="43.72181" lon="5.95725">
        <ele>416.4</ele>
        <time>2022-10-23T13:04:31Z</time>
      </trkpt>
      <trkpt lat="43.72171" lon="5.95721">
        <ele>417.4</ele>
        <time>2022-10-23T13:04:46Z</time>
      </trkpt>
      <trkpt lat="43.72159" lon="5.95719">
        <ele>418.8</ele>
        <time>2022-10-23T13:04:59Z</time>
      </trkpt>
      <trkpt lat="43.72144" lon="5.95718">
        <ele>420.1</ele>
        <time>2022-10-23T13:05:13Z</time>
      </trkpt>
      <trkpt lat="43.72126" lon="5.95714">
        <ele>421.3</ele>
        <time>2022-10-23T13:05:25Z</time>
      </trkpt>
      <trkpt lat="43.72112" lon="5.95708">
        <ele>422.1</ele>
        <time>2022-10-23T13:05:40Z</time>
      </trkpt>
      <trkpt lat="43.72108" lon="5.95696">
        <ele>424.7</ele>
        <time>2022-10-23T13:05:51Z</time>
      </trkpt>
      <trkpt lat="43.72112" lon="5.95679">
        <ele>426.2</ele>
        <time>2022-10-23T13:06:03Z</time>
      </trkpt>
      <trkpt lat="43.72115" lon="5.95666">
        <ele>428.2</ele>
        <time>2022-10-23T13:06:14Z</time>
      </trkpt>
      <trkpt lat="43.72117" lon="5.9565">
        <ele>429.7</ele>
        <time>2022-10-23T13:06:25Z</time>
      </trkpt>
      <trkpt lat="43.72114" lon="5.95637">
        <ele>429.4</ele>
        <time>2022-10-23T13:06:36Z</time>
      </trkpt>
      <trkpt lat="43.72106" lon="5.95627">
        <ele>430.6</ele>
        <time>2022-10-23T13:06:46Z</time>
      </trkpt>
      <trkpt lat="43.72101" lon="5.95616">
        <ele>431.9</ele>
        <time>2022-10-23T13:06:57Z</time>
      </trkpt>
      <trkpt lat="43.72092" lon="5.95609">
        <ele>432.1</ele>
        <time>2022-10-23T13:07:08Z</time>
      </trkpt>
      <trkpt lat="43.72084" lon="5.95602">
        <ele>432.9</ele>
        <time>2022-10-23T13:07:19Z</time>
      </trkpt>
      <trkpt lat="43.72075" lon="5.95597">
        <ele>434.5</ele>
        <time>2022-10-23T13:07:29Z</time>
      </trkpt>
      <trkpt lat="43.7207" lon="5.9559">
        <ele>435.7</ele>
        <time>2022-10-23T13:07:40Z</time>
      </trkpt>
      <trkpt lat="43.72062" lon="5.95583">
        <ele>436.3</ele>
        <time>2022-10-23T13:07:52Z</time>
      </trkpt>
      <trkpt lat="43.72055" lon="5.95577">
        <ele>438</ele>
        <time>2022-10-23T13:08:04Z</time>
      </trkpt>
      <trkpt lat="43.72044" lon="5.9557">
        <ele>439.5</ele>
        <time>2022-10-23T13:08:19Z</time>
      </trkpt>
      <trkpt lat="43.72032" lon="5.95564">
        <ele>441</ele>
        <time>2022-10-23T13:08:33Z</time>
      </trkpt>
      <trkpt lat="43.72029" lon="5.9555">
        <ele>444.7</ele>
        <time>2022-10-23T13:08:45Z</time>
      </trkpt>
      <trkpt lat="43.72041" lon="5.95547">
        <ele>445.9</ele>
        <time>2022-10-23T13:09:00Z</time>
      </trkpt>
      <trkpt lat="43.72054" lon="5.95547">
        <ele>445.7</ele>
        <time>2022-10-23T13:09:11Z</time>
      </trkpt>
      <trkpt lat="43.72065" lon="5.95548">
        <ele>447.2</ele>
        <time>2022-10-23T13:09:22Z</time>
      </trkpt>
      <trkpt lat="43.72066" lon="5.95535">
        <ele>450.9</ele>
        <time>2022-10-23T13:09:36Z</time>
      </trkpt>
      <trkpt lat="43.72056" lon="5.9553">
        <ele>449.8</ele>
        <time>2022-10-23T13:09:48Z</time>
      </trkpt>
      <trkpt lat="43.72048" lon="5.95525">
        <ele>451.5</ele>
        <time>2022-10-23T13:10:00Z</time>
      </trkpt>
      <trkpt lat="43.72035" lon="5.95523">
        <ele>453.4</ele>
        <time>2022-10-23T13:10:11Z</time>
      </trkpt>
      <trkpt lat="43.72025" lon="5.95519">
        <ele>455.4</ele>
        <time>2022-10-23T13:10:22Z</time>
      </trkpt>
      <trkpt lat="43.72016" lon="5.95519">
        <ele>455.8</ele>
        <time>2022-10-23T13:10:34Z</time>
      </trkpt>
      <trkpt lat="43.72007" lon="5.95511">
        <ele>458.3</ele>
        <time>2022-10-23T13:10:44Z</time>
      </trkpt>
      <trkpt lat="43.71997" lon="5.95506">
        <ele>459.6</ele>
        <time>2022-10-23T13:10:55Z</time>
      </trkpt>
      <trkpt lat="43.71988" lon="5.95498">
        <ele>461.6</ele>
        <time>2022-10-23T13:11:06Z</time>
      </trkpt>
      <trkpt lat="43.71981" lon="5.95486">
        <ele>463.6</ele>
        <time>2022-10-23T13:11:17Z</time>
      </trkpt>
      <trkpt lat="43.71972" lon="5.95479">
        <ele>463.3</ele>
        <time>2022-10-23T13:11:29Z</time>
      </trkpt>
      <trkpt lat="43.71962" lon="5.95474">
        <ele>464</ele>
        <time>2022-10-23T13:11:40Z</time>
      </trkpt>
      <trkpt lat="43.71953" lon="5.95466">
        <ele>465.4</ele>
        <time>2022-10-23T13:11:50Z</time>
      </trkpt>
      <trkpt lat="43.71943" lon="5.95462">
        <ele>466.1</ele>
        <time>2022-10-23T13:12:01Z</time>
      </trkpt>
      <trkpt lat="43.71932" lon="5.95456">
        <ele>467.5</ele>
        <time>2022-10-23T13:12:10Z</time>
      </trkpt>
      <trkpt lat="43.71923" lon="5.95451">
        <ele>467.7</ele>
        <time>2022-10-23T13:12:23Z</time>
      </trkpt>
      <trkpt lat="43.71916" lon="5.95442">
        <ele>467.8</ele>
        <time>2022-10-23T13:12:35Z</time>
      </trkpt>
      <trkpt lat="43.71906" lon="5.95435">
        <ele>470.1</ele>
        <time>2022-10-23T13:12:46Z</time>
      </trkpt>
      <trkpt lat="43.71888" lon="5.9543">
        <ele>470.1</ele>
        <time>2022-10-23T13:12:56Z</time>
      </trkpt>
      <trkpt lat="43.7188" lon="5.95425">
        <ele>471.6</ele>
        <time>2022-10-23T13:13:05Z</time>
      </trkpt>
      <trkpt lat="43.71873" lon="5.95418">
        <ele>471.9</ele>
        <time>2022-10-23T13:13:16Z</time>
      </trkpt>
      <trkpt lat="43.71861" lon="5.9541">
        <ele>472.8</ele>
        <time>2022-10-23T13:13:26Z</time>
      </trkpt>
      <trkpt lat="43.71853" lon="5.95402">
        <ele>475.1</ele>
        <time>2022-10-23T13:13:36Z</time>
      </trkpt>
      <trkpt lat="43.71847" lon="5.95391">
        <ele>475.7</ele>
        <time>2022-10-23T13:13:46Z</time>
      </trkpt>
      <trkpt lat="43.71842" lon="5.95381">
        <ele>476.8</ele>
        <time>2022-10-23T13:13:56Z</time>
      </trkpt>
      <trkpt lat="43.71833" lon="5.95371">
        <ele>476.4</ele>
        <time>2022-10-23T13:14:07Z</time>
      </trkpt>
      <trkpt lat="43.71826" lon="5.95361">
        <ele>476.3</ele>
        <time>2022-10-23T13:14:17Z</time>
      </trkpt>
      <trkpt lat="43.7182" lon="5.95355">
        <ele>477.7</ele>
        <time>2022-10-23T13:14:27Z</time>
      </trkpt>
      <trkpt lat="43.71812" lon="5.95352">
        <ele>478.8</ele>
        <time>2022-10-23T13:14:39Z</time>
      </trkpt>
      <trkpt lat="43.718" lon="5.95346">
        <ele>479.6</ele>
        <time>2022-10-23T13:14:51Z</time>
      </trkpt>
      <trkpt lat="43.71787" lon="5.9534">
        <ele>480</ele>
        <time>2022-10-23T13:15:02Z</time>
      </trkpt>
      <trkpt lat="43.71779" lon="5.95333">
        <ele>479</ele>
        <time>2022-10-23T13:15:13Z</time>
      </trkpt>
      <trkpt lat="43.71768" lon="5.95325">
        <ele>481.7</ele>
        <time>2022-10-23T13:15:24Z</time>
      </trkpt>
      <trkpt lat="43.71758" lon="5.95317">
        <ele>482.6</ele>
        <time>2022-10-23T13:15:35Z</time>
      </trkpt>
      <trkpt lat="43.71749" lon="5.95307">
        <ele>481.5</ele>
        <time>2022-10-23T13:15:45Z</time>
      </trkpt>
      <trkpt lat="43.7174" lon="5.95302">
        <ele>483</ele>
        <time>2022-10-23T13:15:54Z</time>
      </trkpt>
      <trkpt lat="43.71731" lon="5.95299">
        <ele>484.2</ele>
        <time>2022-10-23T13:16:03Z</time>
      </trkpt>
      <trkpt lat="43.71722" lon="5.95299">
        <ele>485</ele>
        <time>2022-10-23T13:16:13Z</time>
      </trkpt>
      <trkpt lat="43.71712" lon="5.95296">
        <ele>485.9</ele>
        <time>2022-10-23T13:16:23Z</time>
      </trkpt>
      <trkpt lat="43.71704" lon="5.95287">
        <ele>486.5</ele>
        <time>2022-10-23T13:16:33Z</time>
      </trkpt>
      <trkpt lat="43.71699" lon="5.95276">
        <ele>486.6</ele>
        <time>2022-10-23T13:16:43Z</time>
      </trkpt>
      <trkpt lat="43.71693" lon="5.95263">
        <ele>488.4</ele>
        <time>2022-10-23T13:16:54Z</time>
      </trkpt>
      <trkpt lat="43.71687" lon="5.95253">
        <ele>490.6</ele>
        <time>2022-10-23T13:17:04Z</time>
      </trkpt>
      <trkpt lat="43.7168" lon="5.95241">
        <ele>492.3</ele>
        <time>2022-10-23T13:17:15Z</time>
      </trkpt>
      <trkpt lat="43.71673" lon="5.95229">
        <ele>492.4</ele>
        <time>2022-10-23T13:17:26Z</time>
      </trkpt>
      <trkpt lat="43.71669" lon="5.95215">
        <ele>492.5</ele>
        <time>2022-10-23T13:17:36Z</time>
      </trkpt>
      <trkpt lat="43.71663" lon="5.95204">
        <ele>493.6</ele>
        <time>2022-10-23T13:17:46Z</time>
      </trkpt>
      <trkpt lat="43.71655" lon="5.95195">
        <ele>494.8</ele>
        <time>2022-10-23T13:17:57Z</time>
      </trkpt>
      <trkpt lat="43.71646" lon="5.95187">
        <ele>496.3</ele>
        <time>2022-10-23T13:18:08Z</time>
      </trkpt>
      <trkpt lat="43.7164" lon="5.95175">
        <ele>496.2</ele>
        <time>2022-10-23T13:18:18Z</time>
      </trkpt>
      <trkpt lat="43.71634" lon="5.95167">
        <ele>497.3</ele>
        <time>2022-10-23T13:18:27Z</time>
      </trkpt>
      <trkpt lat="43.71626" lon="5.9516">
        <ele>499.6</ele>
        <time>2022-10-23T13:18:37Z</time>
      </trkpt>
      <trkpt lat="43.71619" lon="5.95149">
        <ele>500.6</ele>
        <time>2022-10-23T13:18:47Z</time>
      </trkpt>
      <trkpt lat="43.71612" lon="5.95141">
        <ele>500.2</ele>
        <time>2022-10-23T13:18:57Z</time>
      </trkpt>
      <trkpt lat="43.71607" lon="5.95132">
        <ele>501.3</ele>
        <time>2022-10-23T13:19:08Z</time>
      </trkpt>
      <trkpt lat="43.716" lon="5.95124">
        <ele>502.8</ele>
        <time>2022-10-23T13:19:20Z</time>
      </trkpt>
      <trkpt lat="43.71589" lon="5.95116">
        <ele>504</ele>
        <time>2022-10-23T13:19:34Z</time>
      </trkpt>
      <trkpt lat="43.71579" lon="5.9511">
        <ele>505.1</ele>
        <time>2022-10-23T13:19:45Z</time>
      </trkpt>
      <trkpt lat="43.7157" lon="5.95108">
        <ele>507.1</ele>
        <time>2022-10-23T13:19:55Z</time>
      </trkpt>
      <trkpt lat="43.71561" lon="5.95102">
        <ele>508.4</ele>
        <time>2022-10-23T13:20:05Z</time>
      </trkpt>
      <trkpt lat="43.71553" lon="5.95095">
        <ele>508.7</ele>
        <time>2022-10-23T13:20:16Z</time>
      </trkpt>
      <trkpt lat="43.71544" lon="5.95089">
        <ele>509.7</ele>
        <time>2022-10-23T13:20:27Z</time>
      </trkpt>
      <trkpt lat="43.71535" lon="5.95085">
        <ele>510.7</ele>
        <time>2022-10-23T13:20:38Z</time>
      </trkpt>
      <trkpt lat="43.71526" lon="5.95081">
        <ele>512.3</ele>
        <time>2022-10-23T13:20:50Z</time>
      </trkpt>
      <trkpt lat="43.71518" lon="5.95074">
        <ele>513.9</ele>
        <time>2022-10-23T13:21:02Z</time>
      </trkpt>
      <trkpt lat="43.71507" lon="5.95067">
        <ele>515.8</ele>
        <time>2022-10-23T13:21:13Z</time>
      </trkpt>
      <trkpt lat="43.71499" lon="5.95061">
        <ele>516.9</ele>
        <time>2022-10-23T13:21:24Z</time>
      </trkpt>
      <trkpt lat="43.7149" lon="5.95055">
        <ele>518.9</ele>
        <time>2022-10-23T13:21:36Z</time>
      </trkpt>
      <trkpt lat="43.71482" lon="5.95045">
        <ele>521.2</ele>
        <time>2022-10-23T13:21:47Z</time>
      </trkpt>
      <trkpt lat="43.71485" lon="5.9503">
        <ele>521.2</ele>
        <time>2022-10-23T13:21:58Z</time>
      </trkpt>
      <trkpt lat="43.71491" lon="5.95019">
        <ele>521.6</ele>
        <time>2022-10-23T13:22:09Z</time>
      </trkpt>
      <trkpt lat="43.71498" lon="5.95007">
        <ele>522.9</ele>
        <time>2022-10-23T13:22:22Z</time>
      </trkpt>
      <trkpt lat="43.71502" lon="5.94994">
        <ele>524.7</ele>
        <time>2022-10-23T13:22:34Z</time>
      </trkpt>
      <trkpt lat="43.71501" lon="5.9498">
        <ele>526.8</ele>
        <time>2022-10-23T13:22:46Z</time>
      </trkpt>
      <trkpt lat="43.71494" lon="5.94974">
        <ele>528</ele>
        <time>2022-10-23T13:22:57Z</time>
      </trkpt>
      <trkpt lat="43.71486" lon="5.94971">
        <ele>528.6</ele>
        <time>2022-10-23T13:23:08Z</time>
      </trkpt>
      <trkpt lat="43.71474" lon="5.94968">
        <ele>529.4</ele>
        <time>2022-10-23T13:23:19Z</time>
      </trkpt>
      <trkpt lat="43.71462" lon="5.94964">
        <ele>530.5</ele>
        <time>2022-10-23T13:23:30Z</time>
      </trkpt>
      <trkpt lat="43.71452" lon="5.94959">
        <ele>531.5</ele>
        <time>2022-10-23T13:23:40Z</time>
      </trkpt>
      <trkpt lat="43.71444" lon="5.94953">
        <ele>532.4</ele>
        <time>2022-10-23T13:23:51Z</time>
      </trkpt>
      <trkpt lat="43.71435" lon="5.94947">
        <ele>533.2</ele>
        <time>2022-10-23T13:24:03Z</time>
      </trkpt>
      <trkpt lat="43.71427" lon="5.9494">
        <ele>533.8</ele>
        <time>2022-10-23T13:24:13Z</time>
      </trkpt>
      <trkpt lat="43.71416" lon="5.94932">
        <ele>534.4</ele>
        <time>2022-10-23T13:29:34Z</time>
      </trkpt>
      <trkpt lat="43.71408" lon="5.94931">
        <ele>534</ele>
        <time>2022-10-23T13:30:11Z</time>
      </trkpt>
      <trkpt lat="43.71399" lon="5.94925">
        <ele>533.6</ele>
        <time>2022-10-23T13:30:24Z</time>
      </trkpt>
      <trkpt lat="43.7139" lon="5.94917">
        <ele>533.1</ele>
        <time>2022-10-23T13:30:33Z</time>
      </trkpt>
      <trkpt lat="43.71382" lon="5.9491">
        <ele>532.4</ele>
        <time>2022-10-23T13:30:42Z</time>
      </trkpt>
      <trkpt lat="43.71372" lon="5.94907">
        <ele>531.6</ele>
        <time>2022-10-23T13:30:52Z</time>
      </trkpt>
      <trkpt lat="43.71362" lon="5.9491">
        <ele>530.5</ele>
        <time>2022-10-23T13:31:01Z</time>
      </trkpt>
      <trkpt lat="43.71353" lon="5.94913">
        <ele>530.5</ele>
        <time>2022-10-23T13:31:10Z</time>
      </trkpt>
      <trkpt lat="43.71343" lon="5.9492">
        <ele>530.5</ele>
        <time>2022-10-23T13:31:19Z</time>
      </trkpt>
      <trkpt lat="43.71335" lon="5.94932">
        <ele>529.9</ele>
        <time>2022-10-23T13:31:29Z</time>
      </trkpt>
      <trkpt lat="43.71328" lon="5.94944">
        <ele>529</ele>
        <time>2022-10-23T13:31:38Z</time>
      </trkpt>
      <trkpt lat="43.71322" lon="5.94956">
        <ele>528.3</ele>
        <time>2022-10-23T13:31:47Z</time>
      </trkpt>
      <trkpt lat="43.71317" lon="5.94967">
        <ele>527.9</ele>
        <time>2022-10-23T13:31:55Z</time>
      </trkpt>
      <trkpt lat="43.71309" lon="5.94977">
        <ele>527.7</ele>
        <time>2022-10-23T13:32:03Z</time>
      </trkpt>
      <trkpt lat="43.71302" lon="5.94985">
        <ele>527.5</ele>
        <time>2022-10-23T13:32:12Z</time>
      </trkpt>
      <trkpt lat="43.71295" lon="5.94996">
        <ele>526.8</ele>
        <time>2022-10-23T13:32:22Z</time>
      </trkpt>
      <trkpt lat="43.71287" lon="5.9501">
        <ele>525.7</ele>
        <time>2022-10-23T13:32:34Z</time>
      </trkpt>
      <trkpt lat="43.71277" lon="5.95019">
        <ele>525.3</ele>
        <time>2022-10-23T13:32:43Z</time>
      </trkpt>
      <trkpt lat="43.71268" lon="5.95023">
        <ele>524.6</ele>
        <time>2022-10-23T13:32:52Z</time>
      </trkpt>
      <trkpt lat="43.71259" lon="5.95025">
        <ele>523.8</ele>
        <time>2022-10-23T13:33:01Z</time>
      </trkpt>
      <trkpt lat="43.71249" lon="5.95032">
        <ele>522.8</ele>
        <time>2022-10-23T13:33:11Z</time>
      </trkpt>
      <trkpt lat="43.71241" lon="5.95044">
        <ele>522.3</ele>
        <time>2022-10-23T13:33:22Z</time>
      </trkpt>
      <trkpt lat="43.71234" lon="5.95053">
        <ele>522</ele>
        <time>2022-10-23T13:33:31Z</time>
      </trkpt>
      <trkpt lat="43.71225" lon="5.95059">
        <ele>521.8</ele>
        <time>2022-10-23T13:33:41Z</time>
      </trkpt>
      <trkpt lat="43.71214" lon="5.9506">
        <ele>520.8</ele>
        <time>2022-10-23T13:33:51Z</time>
      </trkpt>
      <trkpt lat="43.71204" lon="5.95067">
        <ele>519.8</ele>
        <time>2022-10-23T13:34:00Z</time>
      </trkpt>
      <trkpt lat="43.71195" lon="5.95071">
        <ele>519</ele>
        <time>2022-10-23T13:34:08Z</time>
      </trkpt>
      <trkpt lat="43.71183" lon="5.95075">
        <ele>518.3</ele>
        <time>2022-10-23T13:34:17Z</time>
      </trkpt>
      <trkpt lat="43.71174" lon="5.95074">
        <ele>517.8</ele>
        <time>2022-10-23T13:34:26Z</time>
      </trkpt>
      <trkpt lat="43.71166" lon="5.95068">
        <ele>517.5</ele>
        <time>2022-10-23T13:34:35Z</time>
      </trkpt>
      <trkpt lat="43.71159" lon="5.95057">
        <ele>517.6</ele>
        <time>2022-10-23T13:34:44Z</time>
      </trkpt>
      <trkpt lat="43.71148" lon="5.95056">
        <ele>517.3</ele>
        <time>2022-10-23T13:34:53Z</time>
      </trkpt>
      <trkpt lat="43.71137" lon="5.95062">
        <ele>516.6</ele>
        <time>2022-10-23T13:35:03Z</time>
      </trkpt>
      <trkpt lat="43.71127" lon="5.95072">
        <ele>515.8</ele>
        <time>2022-10-23T13:35:12Z</time>
      </trkpt>
      <trkpt lat="43.7112" lon="5.95085">
        <ele>515.2</ele>
        <time>2022-10-23T13:35:23Z</time>
      </trkpt>
      <trkpt lat="43.71114" lon="5.95096">
        <ele>514.6</ele>
        <time>2022-10-23T13:35:33Z</time>
      </trkpt>
      <trkpt lat="43.71107" lon="5.9511">
        <ele>513.9</ele>
        <time>2022-10-23T13:35:43Z</time>
      </trkpt>
      <trkpt lat="43.71099" lon="5.95124">
        <ele>512.6</ele>
        <time>2022-10-23T13:35:54Z</time>
      </trkpt>
      <trkpt lat="43.71091" lon="5.95135">
        <ele>511.5</ele>
        <time>2022-10-23T13:36:04Z</time>
      </trkpt>
      <trkpt lat="43.71085" lon="5.95147">
        <ele>510.8</ele>
        <time>2022-10-23T13:36:12Z</time>
      </trkpt>
      <trkpt lat="43.71082" lon="5.95163">
        <ele>510.1</ele>
        <time>2022-10-23T13:36:21Z</time>
      </trkpt>
      <trkpt lat="43.71076" lon="5.95176">
        <ele>509.7</ele>
        <time>2022-10-23T13:36:31Z</time>
      </trkpt>
      <trkpt lat="43.71071" lon="5.95191">
        <ele>509.5</ele>
        <time>2022-10-23T13:36:41Z</time>
      </trkpt>
      <trkpt lat="43.71062" lon="5.95205">
        <ele>509.3</ele>
        <time>2022-10-23T13:36:51Z</time>
      </trkpt>
      <trkpt lat="43.71053" lon="5.95214">
        <ele>508.9</ele>
        <time>2022-10-23T13:37:01Z</time>
      </trkpt>
      <trkpt lat="43.71042" lon="5.95221">
        <ele>508.5</ele>
        <time>2022-10-23T13:37:11Z</time>
      </trkpt>
      <trkpt lat="43.71032" lon="5.95227">
        <ele>508.2</ele>
        <time>2022-10-23T13:37:20Z</time>
      </trkpt>
      <trkpt lat="43.71022" lon="5.95228">
        <ele>507.8</ele>
        <time>2022-10-23T13:37:29Z</time>
      </trkpt>
      <trkpt lat="43.71011" lon="5.95229">
        <ele>507.4</ele>
        <time>2022-10-23T13:37:37Z</time>
      </trkpt>
      <trkpt lat="43.71002" lon="5.95235">
        <ele>507.1</ele>
        <time>2022-10-23T13:37:45Z</time>
      </trkpt>
      <trkpt lat="43.70993" lon="5.95241">
        <ele>507</ele>
        <time>2022-10-23T13:37:54Z</time>
      </trkpt>
      <trkpt lat="43.70984" lon="5.95243">
        <ele>507</ele>
        <time>2022-10-23T13:38:03Z</time>
      </trkpt>
      <trkpt lat="43.70975" lon="5.9525">
        <ele>507</ele>
        <time>2022-10-23T13:38:13Z</time>
      </trkpt>
      <trkpt lat="43.70972" lon="5.95261">
        <ele>506.6</ele>
        <time>2022-10-23T13:38:21Z</time>
      </trkpt>
      <trkpt lat="43.70967" lon="5.95275">
        <ele>506.1</ele>
        <time>2022-10-23T13:38:31Z</time>
      </trkpt>
      <trkpt lat="43.70957" lon="5.9528">
        <ele>505.9</ele>
        <time>2022-10-23T13:38:40Z</time>
      </trkpt>
      <trkpt lat="43.70947" lon="5.95276">
        <ele>506.1</ele>
        <time>2022-10-23T13:38:48Z</time>
      </trkpt>
      <trkpt lat="43.70935" lon="5.95275">
        <ele>506.4</ele>
        <time>2022-10-23T13:38:57Z</time>
      </trkpt>
      <trkpt lat="43.70926" lon="5.95272">
        <ele>506.9</ele>
        <time>2022-10-23T13:39:05Z</time>
      </trkpt>
      <trkpt lat="43.70915" lon="5.9527">
        <ele>507.3</ele>
        <time>2022-10-23T13:39:14Z</time>
      </trkpt>
      <trkpt lat="43.70904" lon="5.95266">
        <ele>507.9</ele>
        <time>2022-10-23T13:39:23Z</time>
      </trkpt>
      <trkpt lat="43.70894" lon="5.95262">
        <ele>508.4</ele>
        <time>2022-10-23T13:39:32Z</time>
      </trkpt>
      <trkpt lat="43.70885" lon="5.95257">
        <ele>508.9</ele>
        <time>2022-10-23T13:39:42Z</time>
      </trkpt>
      <trkpt lat="43.70877" lon="5.95251">
        <ele>509.4</ele>
        <time>2022-10-23T13:39:52Z</time>
      </trkpt>
      <trkpt lat="43.70864" lon="5.95249">
        <ele>509.9</ele>
        <time>2022-10-23T13:40:03Z</time>
      </trkpt>
      <trkpt lat="43.70854" lon="5.95244">
        <ele>510.3</ele>
        <time>2022-10-23T13:40:12Z</time>
      </trkpt>
      <trkpt lat="43.70844" lon="5.95239">
        <ele>510.6</ele>
        <time>2022-10-23T13:40:22Z</time>
      </trkpt>
      <trkpt lat="43.70834" lon="5.95232">
        <ele>511</ele>
        <time>2022-10-23T13:40:32Z</time>
      </trkpt>
      <trkpt lat="43.70824" lon="5.95228">
        <ele>511.3</ele>
        <time>2022-10-23T13:40:41Z</time>
      </trkpt>
      <trkpt lat="43.70814" lon="5.95224">
        <ele>511.7</ele>
        <time>2022-10-23T13:40:49Z</time>
      </trkpt>
      <trkpt lat="43.70806" lon="5.95218">
        <ele>512</ele>
        <time>2022-10-23T13:40:58Z</time>
      </trkpt>
      <trkpt lat="43.70797" lon="5.95215">
        <ele>511.5</ele>
        <time>2022-10-23T13:41:06Z</time>
      </trkpt>
      <trkpt lat="43.70799" lon="5.95212">
        <ele>511.6</ele>
        <time>2022-10-23T13:41:34Z</time>
      </trkpt>
      <trkpt lat="43.70798" lon="5.95211">
        <ele>511.6</ele>
        <time>2022-10-23T13:42:57Z</time>
      </trkpt>
      <trkpt lat="43.70795" lon="5.95211">
        <ele>511.4</ele>
        <time>2022-10-23T13:43:41Z</time>
      </trkpt>
      <trkpt lat="43.70789" lon="5.95212">
        <ele>511</ele>
        <time>2022-10-23T13:44:05Z</time>
      </trkpt>
      <trkpt lat="43.70777" lon="5.95218">
        <ele>510.1</ele>
        <time>2022-10-23T13:44:16Z</time>
      </trkpt>
      <trkpt lat="43.70767" lon="5.95221">
        <ele>509.3</ele>
        <time>2022-10-23T13:44:25Z</time>
      </trkpt>
      <trkpt lat="43.70758" lon="5.95227">
        <ele>508.5</ele>
        <time>2022-10-23T13:44:34Z</time>
      </trkpt>
      <trkpt lat="43.70747" lon="5.95231">
        <ele>508.1</ele>
        <time>2022-10-23T13:44:43Z</time>
      </trkpt>
      <trkpt lat="43.70737" lon="5.95232">
        <ele>508.3</ele>
        <time>2022-10-23T13:44:52Z</time>
      </trkpt>
      <trkpt lat="43.70727" lon="5.95232">
        <ele>508.6</ele>
        <time>2022-10-23T13:45:03Z</time>
      </trkpt>
      <trkpt lat="43.70717" lon="5.95232">
        <ele>508.8</ele>
        <time>2022-10-23T13:45:12Z</time>
      </trkpt>
      <trkpt lat="43.70707" lon="5.95233">
        <ele>509</ele>
        <time>2022-10-23T13:45:21Z</time>
      </trkpt>
      <trkpt lat="43.70697" lon="5.95235">
        <ele>509.3</ele>
        <time>2022-10-23T13:45:31Z</time>
      </trkpt>
      <trkpt lat="43.70684" lon="5.95237">
        <ele>509.8</ele>
        <time>2022-10-23T13:45:41Z</time>
      </trkpt>
      <trkpt lat="43.70675" lon="5.95238">
        <ele>510</ele>
        <time>2022-10-23T13:45:50Z</time>
      </trkpt>
      <trkpt lat="43.70664" lon="5.95237">
        <ele>510.1</ele>
        <time>2022-10-23T13:46:00Z</time>
      </trkpt>
      <trkpt lat="43.70654" lon="5.95235">
        <ele>510.4</ele>
        <time>2022-10-23T13:46:09Z</time>
      </trkpt>
      <trkpt lat="43.70644" lon="5.95237">
        <ele>510.9</ele>
        <time>2022-10-23T13:46:18Z</time>
      </trkpt>
      <trkpt lat="43.70634" lon="5.95238">
        <ele>511.1</ele>
        <time>2022-10-23T13:46:27Z</time>
      </trkpt>
      <trkpt lat="43.70624" lon="5.95239">
        <ele>511.2</ele>
        <time>2022-10-23T13:46:37Z</time>
      </trkpt>
      <trkpt lat="43.70611" lon="5.95239">
        <ele>511.2</ele>
        <time>2022-10-23T13:46:47Z</time>
      </trkpt>
      <trkpt lat="43.706" lon="5.95239">
        <ele>511.2</ele>
        <time>2022-10-23T13:46:56Z</time>
      </trkpt>
      <trkpt lat="43.7059" lon="5.95239">
        <ele>511.2</ele>
        <time>2022-10-23T13:47:04Z</time>
      </trkpt>
      <trkpt lat="43.7058" lon="5.95241">
        <ele>511.3</ele>
        <time>2022-10-23T13:47:13Z</time>
      </trkpt>
      <trkpt lat="43.7057" lon="5.95246">
        <ele>511.3</ele>
        <time>2022-10-23T13:47:21Z</time>
      </trkpt>
      <trkpt lat="43.70561" lon="5.95247">
        <ele>511.1</ele>
        <time>2022-10-23T13:47:29Z</time>
      </trkpt>
      <trkpt lat="43.70552" lon="5.95251">
        <ele>511.1</ele>
        <time>2022-10-23T13:47:38Z</time>
      </trkpt>
      <trkpt lat="43.70543" lon="5.95258">
        <ele>511.5</ele>
        <time>2022-10-23T13:47:47Z</time>
      </trkpt>
      <trkpt lat="43.70532" lon="5.95264">
        <ele>511.6</ele>
        <time>2022-10-23T13:47:56Z</time>
      </trkpt>
      <trkpt lat="43.70523" lon="5.95268">
        <ele>511.6</ele>
        <time>2022-10-23T13:48:04Z</time>
      </trkpt>
      <trkpt lat="43.70514" lon="5.95273">
        <ele>511.8</ele>
        <time>2022-10-23T13:48:12Z</time>
      </trkpt>
      <trkpt lat="43.70505" lon="5.95274">
        <ele>511.9</ele>
        <time>2022-10-23T13:48:19Z</time>
      </trkpt>
      <trkpt lat="43.70495" lon="5.95275">
        <ele>511.9</ele>
        <time>2022-10-23T13:48:28Z</time>
      </trkpt>
      <trkpt lat="43.70485" lon="5.95275">
        <ele>512</ele>
        <time>2022-10-23T13:48:37Z</time>
      </trkpt>
      <trkpt lat="43.70475" lon="5.95277">
        <ele>512</ele>
        <time>2022-10-23T13:48:46Z</time>
      </trkpt>
      <trkpt lat="43.70463" lon="5.95278">
        <ele>512</ele>
        <time>2022-10-23T13:48:56Z</time>
      </trkpt>
      <trkpt lat="43.70453" lon="5.95279">
        <ele>512</ele>
        <time>2022-10-23T13:49:05Z</time>
      </trkpt>
      <trkpt lat="43.70442" lon="5.95279">
        <ele>512.1</ele>
        <time>2022-10-23T13:49:15Z</time>
      </trkpt>
      <trkpt lat="43.70431" lon="5.95279">
        <ele>512.5</ele>
        <time>2022-10-23T13:49:24Z</time>
      </trkpt>
      <trkpt lat="43.70425" lon="5.95289">
        <ele>512.8</ele>
        <time>2022-10-23T13:49:32Z</time>
      </trkpt>
      <trkpt lat="43.70428" lon="5.95302">
        <ele>512.9</ele>
        <time>2022-10-23T13:49:40Z</time>
      </trkpt>
      <trkpt lat="43.70431" lon="5.95315">
        <ele>513.3</ele>
        <time>2022-10-23T13:49:47Z</time>
      </trkpt>
      <trkpt lat="43.70427" lon="5.95327">
        <ele>513.8</ele>
        <time>2022-10-23T13:49:55Z</time>
      </trkpt>
      <trkpt lat="43.70422" lon="5.95338">
        <ele>514.2</ele>
        <time>2022-10-23T13:50:03Z</time>
      </trkpt>
      <trkpt lat="43.70415" lon="5.95347">
        <ele>514.5</ele>
        <time>2022-10-23T13:50:11Z</time>
      </trkpt>
      <trkpt lat="43.70407" lon="5.95357">
        <ele>514.6</ele>
        <time>2022-10-23T13:50:20Z</time>
      </trkpt>
      <trkpt lat="43.70401" lon="5.95367">
        <ele>514.6</ele>
        <time>2022-10-23T13:50:28Z</time>
      </trkpt>
      <trkpt lat="43.70396" lon="5.95378">
        <ele>514.9</ele>
        <time>2022-10-23T13:50:36Z</time>
      </trkpt>
      <trkpt lat="43.70386" lon="5.9539">
        <ele>515.1</ele>
        <time>2022-10-23T13:50:47Z</time>
      </trkpt>
      <trkpt lat="43.70379" lon="5.95402">
        <ele>515.3</ele>
        <time>2022-10-23T13:50:56Z</time>
      </trkpt>
      <trkpt lat="43.70372" lon="5.95411">
        <ele>515.3</ele>
        <time>2022-10-23T13:51:05Z</time>
      </trkpt>
      <trkpt lat="43.70366" lon="5.95419">
        <ele>515.2</ele>
        <time>2022-10-23T13:51:13Z</time>
      </trkpt>
      <trkpt lat="43.70357" lon="5.95431">
        <ele>515.5</ele>
        <time>2022-10-23T13:51:23Z</time>
      </trkpt>
      <trkpt lat="43.7035" lon="5.9544">
        <ele>515.9</ele>
        <time>2022-10-23T13:51:33Z</time>
      </trkpt>
      <trkpt lat="43.70338" lon="5.95445">
        <ele>516</ele>
        <time>2022-10-23T13:51:48Z</time>
      </trkpt>
      <trkpt lat="43.70326" lon="5.95447">
        <ele>516.1</ele>
        <time>2022-10-23T13:51:57Z</time>
      </trkpt>
      <trkpt lat="43.70316" lon="5.95446">
        <ele>516</ele>
        <time>2022-10-23T13:52:06Z</time>
      </trkpt>
      <trkpt lat="43.70306" lon="5.95446">
        <ele>516</ele>
        <time>2022-10-23T13:52:14Z</time>
      </trkpt>
      <trkpt lat="43.70294" lon="5.95448">
        <ele>516.5</ele>
        <time>2022-10-23T13:52:23Z</time>
      </trkpt>
      <trkpt lat="43.70285" lon="5.95448">
        <ele>516.9</ele>
        <time>2022-10-23T13:52:32Z</time>
      </trkpt>
      <trkpt lat="43.70274" lon="5.95448">
        <ele>517.2</ele>
        <time>2022-10-23T13:52:42Z</time>
      </trkpt>
      <trkpt lat="43.70263" lon="5.95446">
        <ele>517.6</ele>
        <time>2022-10-23T13:52:51Z</time>
      </trkpt>
      <trkpt lat="43.70252" lon="5.95445">
        <ele>517.9</ele>
        <time>2022-10-23T13:53:03Z</time>
      </trkpt>
      <trkpt lat="43.70241" lon="5.95443">
        <ele>518.7</ele>
        <time>2022-10-23T13:53:12Z</time>
      </trkpt>
      <trkpt lat="43.7023" lon="5.95441">
        <ele>519.5</ele>
        <time>2022-10-23T13:53:21Z</time>
      </trkpt>
      <trkpt lat="43.7022" lon="5.95441">
        <ele>520.2</ele>
        <time>2022-10-23T13:53:30Z</time>
      </trkpt>
      <trkpt lat="43.70211" lon="5.95438">
        <ele>520.8</ele>
        <time>2022-10-23T13:53:39Z</time>
      </trkpt>
      <trkpt lat="43.70201" lon="5.95437">
        <ele>521.5</ele>
        <time>2022-10-23T13:53:48Z</time>
      </trkpt>
      <trkpt lat="43.70191" lon="5.95437">
        <ele>522.3</ele>
        <time>2022-10-23T13:53:57Z</time>
      </trkpt>
      <trkpt lat="43.70181" lon="5.95435">
        <ele>523</ele>
        <time>2022-10-23T13:54:06Z</time>
      </trkpt>
      <trkpt lat="43.7017" lon="5.95434">
        <ele>523.7</ele>
        <time>2022-10-23T13:54:15Z</time>
      </trkpt>
      <trkpt lat="43.70161" lon="5.95433">
        <ele>524.4</ele>
        <time>2022-10-23T13:54:24Z</time>
      </trkpt>
      <trkpt lat="43.7015" lon="5.95433">
        <ele>525.2</ele>
        <time>2022-10-23T13:54:33Z</time>
      </trkpt>
      <trkpt lat="43.70141" lon="5.95433">
        <ele>525.9</ele>
        <time>2022-10-23T13:54:41Z</time>
      </trkpt>
      <trkpt lat="43.70131" lon="5.95429">
        <ele>526.7</ele>
        <time>2022-10-23T13:54:51Z</time>
      </trkpt>
      <trkpt lat="43.70122" lon="5.95428">
        <ele>527.6</ele>
        <time>2022-10-23T13:54:59Z</time>
      </trkpt>
      <trkpt lat="43.70113" lon="5.95423">
        <ele>528.6</ele>
        <time>2022-10-23T13:55:08Z</time>
      </trkpt>
      <trkpt lat="43.70104" lon="5.9542">
        <ele>529.7</ele>
        <time>2022-10-23T13:55:18Z</time>
      </trkpt>
      <trkpt lat="43.70091" lon="5.95416">
        <ele>531.2</ele>
        <time>2022-10-23T13:55:29Z</time>
      </trkpt>
      <trkpt lat="43.70081" lon="5.95413">
        <ele>532.4</ele>
        <time>2022-10-23T13:55:39Z</time>
      </trkpt>
      <trkpt lat="43.70072" lon="5.95411">
        <ele>533.6</ele>
        <time>2022-10-23T13:55:49Z</time>
      </trkpt>
      <trkpt lat="43.70063" lon="5.95407">
        <ele>534.8</ele>
        <time>2022-10-23T13:56:01Z</time>
      </trkpt>
      <trkpt lat="43.70053" lon="5.95404">
        <ele>536.1</ele>
        <time>2022-10-23T13:56:12Z</time>
      </trkpt>
      <trkpt lat="43.70044" lon="5.95396">
        <ele>537.1</ele>
        <time>2022-10-23T13:56:23Z</time>
      </trkpt>
      <trkpt lat="43.70034" lon="5.95392">
        <ele>537.7</ele>
        <time>2022-10-23T13:56:34Z</time>
      </trkpt>
      <trkpt lat="43.70023" lon="5.9539">
        <ele>538</ele>
        <time>2022-10-23T13:56:43Z</time>
      </trkpt>
      <trkpt lat="43.70013" lon="5.95386">
        <ele>538</ele>
        <time>2022-10-23T13:56:52Z</time>
      </trkpt>
      <trkpt lat="43.70004" lon="5.9538">
        <ele>538.2</ele>
        <time>2022-10-23T13:57:02Z</time>
      </trkpt>
      <trkpt lat="43.69999" lon="5.95374">
        <ele>538.6</ele>
        <time>2022-10-23T13:57:22Z</time>
      </trkpt>
      <trkpt lat="43.69993" lon="5.95372">
        <ele>539.3</ele>
        <time>2022-10-23T13:57:59Z</time>
      </trkpt>
      <trkpt lat="43.6999" lon="5.95368">
        <ele>539.8</ele>
        <time>2022-10-23T13:58:26Z</time>
      </trkpt>
      <trkpt lat="43.69979" lon="5.95364">
        <ele>541.1</ele>
        <time>2022-10-23T13:58:37Z</time>
      </trkpt>
      <trkpt lat="43.6997" lon="5.9536">
        <ele>542.2</ele>
        <time>2022-10-23T13:58:48Z</time>
      </trkpt>
      <trkpt lat="43.69961" lon="5.95355">
        <ele>543</ele>
        <time>2022-10-23T13:59:00Z</time>
      </trkpt>
      <trkpt lat="43.6995" lon="5.95355">
        <ele>543.8</ele>
        <time>2022-10-23T13:59:12Z</time>
      </trkpt>
      <trkpt lat="43.69947" lon="5.95345">
        <ele>544.4</ele>
        <time>2022-10-23T13:59:25Z</time>
      </trkpt>
      <trkpt lat="43.6995" lon="5.9533">
        <ele>544.5</ele>
        <time>2022-10-23T13:59:34Z</time>
      </trkpt>
      <trkpt lat="43.69952" lon="5.95318">
        <ele>544.2</ele>
        <time>2022-10-23T13:59:43Z</time>
      </trkpt>
      <trkpt lat="43.69952" lon="5.95303">
        <ele>544</ele>
        <time>2022-10-23T13:59:52Z</time>
      </trkpt>
      <trkpt lat="43.69954" lon="5.95289">
        <ele>543.8</ele>
        <time>2022-10-23T14:00:01Z</time>
      </trkpt>
      <trkpt lat="43.69953" lon="5.95273">
        <ele>543.7</ele>
        <time>2022-10-23T14:00:10Z</time>
      </trkpt>
    </trkseg>
  </trk>
</gpx>